Darstellungsparameter: Aktuell verwendete Einstellungen:
Skalierung der Graphiken ... ?
xyx+y,   Skalierungsfaktor:      Skalierung: Modus: x, Faktor: 1
Darstellungszeitraum ... ?
Vom - - bis: - -   Zeitraum: 10.07.2016 - 09.08.2016
Min/Max/Avg-Anzeige ... ?
Zeige MMA aktuell
Zeige MMA Monat
Zeige MMA alles
Zeige --A aktuell
Zeige --A Monat
Zeige --A alles
Keine MMA-Anzeige
MMA:
Keine MMA-Graphiken
MMA-Basis: 10.07.2016 - 09.08.2016
Quicknavigation für Darstellung... ?
Tage:      1T, 2T, 3T, 5T -1T -2T -3T -5T +1T +2T +3T +5T
Wochen: 1W, 2W, 3W -1W -2W -3W +1W +2W +3W
Monate: 1M, 3M, 6M -1M -3M -6M +1M +3M +6M
Jahre:    1J, 3J, 5J, 10J -1J -3J -5J -10J +1J +3J +5J +10J
Nutze für die Darstellung ... ?
Originaldaten oder Mittelwerte auf ...
Stundenbasis Tagesbasis Wochenbasis
Monatsbasis Jahresbasis      Datenbasis: Original-Daten
Darstellen als:
Statistik (Auto) Statistik J:M      Darstellung:
Zur Graphik,    zurück zur Übersicht aller Sensoren.
 
Tabellarische Datenbersicht: ?
 
Sensor: Nr:Datum:Temp:Feuchte:Taupunkt:
Aussen-T/F 1 10-07-2016 00:00:00 18.3 C 86 % 15.92 C
2 10-07-2016 00:05:00 18.2 C 86 % 15.82 C
3 10-07-2016 00:10:00 18.2 C 86 % 15.82 C
4 10-07-2016 00:15:00 18.2 C 86 % 15.82 C
5 10-07-2016 00:20:00 18.1 C 87 % 15.9 C
6 10-07-2016 00:25:00 18 C 87 % 15.8 C
7 10-07-2016 00:30:00 17.9 C 87 % 15.71 C
8 10-07-2016 00:35:00 17.8 C 87 % 15.61 C
9 10-07-2016 00:40:00 17.7 C 88 % 15.69 C
10 10-07-2016 00:45:00 17.7 C 88 % 15.69 C
11 10-07-2016 00:50:00 17.6 C 88 % 15.59 C
12 10-07-2016 00:55:00 17.6 C 88 % 15.59 C
13 10-07-2016 01:00:00 17.6 C 88 % 15.59 C
14 10-07-2016 01:05:00 17.5 C 88 % 15.49 C
15 10-07-2016 01:10:00 17.4 C 88 % 15.39 C
16 10-07-2016 01:15:00 17.3 C 88 % 15.29 C
17 10-07-2016 01:20:00 17.2 C 88 % 15.2 C
18 10-07-2016 01:25:00 17.1 C 89 % 15.27 C
19 10-07-2016 01:30:00 17.1 C 89 % 15.27 C
20 10-07-2016 01:35:00 17 C 89 % 15.17 C
21 10-07-2016 01:40:00 16.9 C 89 % 15.08 C
22 10-07-2016 01:45:00 16.8 C 90 % 15.15 C
23 10-07-2016 01:50:00 16.8 C 90 % 15.15 C
24 10-07-2016 01:55:00 16.8 C 90 % 15.15 C
25 10-07-2016 02:00:00 16.8 C 90 % 15.15 C
Sensor: Nr:Datum:Temp:Feuchte:Taupunkt:
Aussen-T/F 26 10-07-2016 02:05:00 16.7 C 90 % 15.05 C
27 10-07-2016 02:10:00 16.7 C 90 % 15.05 C
28 10-07-2016 02:15:00 16.7 C 90 % 15.05 C
29 10-07-2016 02:20:00 16.6 C 90 % 14.95 C
30 10-07-2016 02:25:00 16.6 C 90 % 14.95 C
31 10-07-2016 02:30:00 16.5 C 90 % 14.85 C
32 10-07-2016 02:35:00 16.4 C 90 % 14.76 C
33 10-07-2016 02:40:00 16.3 C 91 % 14.83 C
34 10-07-2016 02:45:00 16.2 C 91 % 14.73 C
35 10-07-2016 02:50:00 16.2 C 91 % 14.73 C
36 10-07-2016 02:55:00 16.1 C 91 % 14.63 C
37 10-07-2016 03:00:00 15.9 C 91 % 14.43 C
38 10-07-2016 03:05:00 15.8 C 91 % 14.33 C
39 10-07-2016 03:10:00 15.8 C 92 % 14.5 C
40 10-07-2016 03:15:00 15.7 C 92 % 14.4 C
41 10-07-2016 03:20:00 15.6 C 92 % 14.31 C
42 10-07-2016 03:25:00 15.6 C 92 % 14.31 C
43 10-07-2016 03:30:00 15.5 C 92 % 14.21 C
44 10-07-2016 03:35:00 15.4 C 92 % 14.11 C
45 10-07-2016 03:40:00 15.3 C 92 % 14.01 C
46 10-07-2016 03:45:00 15.2 C 92 % 13.91 C
47 10-07-2016 03:50:00 15.2 C 93 % 14.08 C
48 10-07-2016 03:55:00 15.2 C 93 % 14.08 C
49 10-07-2016 04:00:00 15.1 C 93 % 13.98 C
50 10-07-2016 04:05:00 15 C 93 % 13.88 C
Sensor: Nr:Datum:Temp:Feuchte:Taupunkt:
Aussen-T/F 51 10-07-2016 04:10:00 15 C 93 % 13.88 C
52 10-07-2016 04:15:00 15 C 93 % 13.88 C
53 10-07-2016 04:20:00 14.9 C 93 % 13.78 C
54 10-07-2016 04:25:00 14.9 C 93 % 13.78 C
55 10-07-2016 04:30:00 14.9 C 93 % 13.78 C
56 10-07-2016 04:35:00 14.8 C 94 % 13.84 C
57 10-07-2016 04:40:00 14.8 C 94 % 13.84 C
58 10-07-2016 04:45:00 14.8 C 94 % 13.84 C
59 10-07-2016 04:50:00 14.7 C 94 % 13.74 C
60 10-07-2016 04:55:00 14.7 C 93 % 13.58 C
61 10-07-2016 05:00:00 14.6 C 94 % 13.65 C
62 10-07-2016 05:05:00 14.6 C 94 % 13.65 C
63 10-07-2016 05:10:00 14.6 C 94 % 13.65 C
64 10-07-2016 05:15:00 14.6 C 94 % 13.65 C
65 10-07-2016 05:20:00 14.7 C 94 % 13.74 C
66 10-07-2016 05:25:00 14.6 C 94 % 13.65 C
67 10-07-2016 05:30:00 14.6 C 94 % 13.65 C
68 10-07-2016 05:35:00 14.5 C 94 % 13.55 C
69 10-07-2016 05:40:00 14.5 C 94 % 13.55 C
70 10-07-2016 05:45:00 14.4 C 94 % 13.45 C
71 10-07-2016 05:50:00 14.5 C 94 % 13.55 C
72 10-07-2016 05:55:00 14.5 C 94 % 13.55 C
73 10-07-2016 06:00:00 14.5 C 94 % 13.55 C
74 10-07-2016 06:05:00 14.6 C 95 % 13.81 C
75 10-07-2016 06:10:00 14.6 C 95 % 13.81 C
Sensor: Nr:Datum:Temp:Feuchte:Taupunkt:
Aussen-T/F 76 10-07-2016 06:15:00 14.6 C 95 % 13.81 C
77 10-07-2016 06:20:00 14.7 C 95 % 13.91 C
78 10-07-2016 06:25:00 14.7 C 95 % 13.91 C
79 10-07-2016 06:30:00 14.7 C 95 % 13.91 C
80 10-07-2016 06:35:00 14.8 C 95 % 14.01 C
81 10-07-2016 06:40:00 14.9 C 95 % 14.11 C
82 10-07-2016 06:45:00 14.9 C 95 % 14.11 C
83 10-07-2016 06:50:00 14.9 C 95 % 14.11 C
84 10-07-2016 06:55:00 15 C 95 % 14.21 C
85 10-07-2016 07:00:00 15 C 95 % 14.21 C
86 10-07-2016 07:05:00 15.1 C 95 % 14.31 C
87 10-07-2016 07:10:00 15.1 C 95 % 14.31 C
88 10-07-2016 07:15:00 15.2 C 95 % 14.4 C
89 10-07-2016 07:20:00 15.2 C 95 % 14.4 C
90 10-07-2016 07:25:00 15.3 C 95 % 14.5 C
91 10-07-2016 07:30:00 15.3 C 95 % 14.5 C
92 10-07-2016 07:35:00 15.4 C 95 % 14.6 C
93 10-07-2016 07:40:00 15.5 C 95 % 14.7 C
94 10-07-2016 07:45:00 15.6 C 95 % 14.8 C
95 10-07-2016 07:50:00 15.7 C 95 % 14.9 C
96 10-07-2016 07:55:00 15.7 C 95 % 14.9 C
97 10-07-2016 08:00:00 15.8 C 95 % 15 C
98 10-07-2016 08:05:00 15.9 C 95 % 15.1 C
99 10-07-2016 08:10:00 16 C 95 % 15.2 C
100 10-07-2016 08:15:00 16.1 C 95 % 15.3 C
Sensor: Nr:Datum:Temp:Feuchte:Taupunkt:
Aussen-T/F 101 10-07-2016 08:20:00 16.3 C 95 % 15.5 C
102 10-07-2016 08:25:00 16.4 C 95 % 15.6 C
103 10-07-2016 08:30:00 16.6 C 95 % 15.8 C
104 10-07-2016 08:35:00 16.7 C 94 % 15.73 C
105 10-07-2016 08:40:00 16.8 C 94 % 15.83 C
106 10-07-2016 08:45:00 16.8 C 94 % 15.83 C
107 10-07-2016 08:50:00 16.9 C 94 % 15.93 C
108 10-07-2016 08:55:00 17 C 94 % 16.03 C
109 10-07-2016 09:00:00 17.2 C 94 % 16.23 C
110 10-07-2016 09:05:00 17.2 C 94 % 16.23 C
111 10-07-2016 09:10:00 17.3 C 94 % 16.33 C
112 10-07-2016 09:15:00 17.4 C 93 % 16.26 C
113 10-07-2016 09:20:00 17.4 C 93 % 16.26 C
114 10-07-2016 09:25:00 17.5 C 92 % 16.19 C
115 10-07-2016 09:30:00 17.7 C 93 % 16.55 C
116 10-07-2016 09:35:00 17.8 C 92 % 16.48 C
117 10-07-2016 09:40:00 17.9 C 92 % 16.58 C
118 10-07-2016 09:45:00 18.1 C 92 % 16.78 C
119 10-07-2016 09:50:00 18.2 C 91 % 16.71 C
120 10-07-2016 09:55:00 18.3 C 92 % 16.98 C
121 10-07-2016 10:00:00 18.5 C 91 % 17 C
122 10-07-2016 10:05:00 18.7 C 91 % 17.2 C
123 10-07-2016 10:10:00 18.9 C 90 % 17.22 C
124 10-07-2016 10:15:00 19.1 C 91 % 17.6 C
125 10-07-2016 10:20:00 19.3 C 91 % 17.79 C
Sensor: Nr:Datum:Temp:Feuchte:Taupunkt:
Aussen-T/F 126 10-07-2016 10:25:00 19.7 C 91 % 18.19 C
127 10-07-2016 10:30:00 20.1 C 90 % 18.41 C
128 10-07-2016 10:35:00 20.5 C 89 % 18.62 C
129 10-07-2016 10:40:00 20.9 C 88 % 18.84 C
130 10-07-2016 10:45:00 21.3 C 87 % 19.05 C
131 10-07-2016 10:50:00 21.8 C 85 % 19.16 C
132 10-07-2016 10:55:00 22.2 C 85 % 19.56 C
133 10-07-2016 11:00:00 22.4 C 83 % 19.37 C
134 10-07-2016 11:05:00 22.6 C 83 % 19.56 C
135 10-07-2016 11:10:00 22.5 C 84 % 19.66 C
136 10-07-2016 11:15:00 22.3 C 85 % 19.65 C
137 10-07-2016 11:20:00 22.2 C 85 % 19.56 C
138 10-07-2016 11:25:00 22.2 C 86 % 19.75 C
139 10-07-2016 11:30:00 22.2 C 83 % 19.17 C
140 10-07-2016 11:35:00 22.5 C 85 % 19.85 C
141 10-07-2016 11:40:00 22.7 C 82 % 19.47 C
142 10-07-2016 11:45:00 22.9 C 81 % 19.46 C
143 10-07-2016 11:50:00 23.2 C 82 % 19.95 C
144 10-07-2016 11:55:00 23.3 C 80 % 19.65 C
145 10-07-2016 12:00:00 23.4 C 81 % 19.95 C
146 10-07-2016 12:05:00 23.5 C 78 % 19.44 C
147 10-07-2016 12:10:00 23.7 C 78 % 19.63 C
148 10-07-2016 12:15:00 24.2 C 70 % 18.38 C
149 10-07-2016 12:20:00 24.7 C 75 % 19.97 C
150 10-07-2016 12:25:00 24.9 C 72 % 19.5 C
Sensor: Nr:Datum:Temp:Feuchte:Taupunkt:
Aussen-T/F 151 10-07-2016 12:30:00 25.1 C 70 % 19.24 C
152 10-07-2016 12:35:00 25.3 C 68 % 18.97 C
153 10-07-2016 12:40:00 25.5 C 70 % 19.62 C
154 10-07-2016 12:45:00 25.7 C 66 % 18.87 C
155 10-07-2016 12:50:00 25.8 C 68 % 19.44 C
156 10-07-2016 12:55:00 25.8 C 66 % 18.96 C
157 10-07-2016 13:00:00 25.9 C 65 % 18.81 C
158 10-07-2016 13:05:00 26.1 C 66 % 19.25 C
159 10-07-2016 13:10:00 26.2 C 67 % 19.59 C
160 10-07-2016 13:15:00 26.3 C 71 % 20.62 C
161 10-07-2016 13:20:00 26.3 C 69 % 20.16 C
162 10-07-2016 13:25:00 26.3 C 70 % 20.39 C
163 10-07-2016 13:30:00 26.4 C 64 % 19.04 C
164 10-07-2016 13:35:00 26.6 C 65 % 19.48 C
165 10-07-2016 13:40:00 26.7 C 73 % 21.45 C
166 10-07-2016 13:45:00 26.7 C 71 % 21 C
167 10-07-2016 13:50:00 26.6 C 72 % 21.13 C
168 10-07-2016 13:55:00 26.6 C 68 % 20.2 C
169 10-07-2016 14:00:00 26.8 C 63 % 19.16 C
170 10-07-2016 14:05:00 27 C 69 % 20.82 C
171 10-07-2016 14:10:00 27.2 C 64 % 19.79 C
172 10-07-2016 14:15:00 27.3 C 64 % 19.89 C
173 10-07-2016 14:20:00 27.3 C 65 % 20.14 C
174 10-07-2016 14:25:00 27.5 C 64 % 20.08 C
175 10-07-2016 14:30:00 27.6 C 61 % 19.4 C
Sensor: Nr:Datum:Temp:Feuchte:Taupunkt:
Aussen-T/F 176 10-07-2016 14:35:00 27.8 C 61 % 19.59 C
177 10-07-2016 14:40:00 28.1 C 60 % 19.6 C
178 10-07-2016 14:45:00 28.4 C 59 % 19.61 C
179 10-07-2016 14:50:00 28.7 C 60 % 20.16 C
180 10-07-2016 14:55:00 28.8 C 57 % 19.43 C
181 10-07-2016 15:00:00 28.9 C 59 % 20.08 C
182 10-07-2016 15:05:00 28.9 C 59 % 20.08 C
183 10-07-2016 15:10:00 29.1 C 58 % 19.99 C
184 10-07-2016 15:15:00 29.4 C 55 % 19.41 C
185 10-07-2016 15:20:00 29.4 C 58 % 20.27 C
186 10-07-2016 15:25:00 29.8 C 56 % 20.07 C
187 10-07-2016 15:30:00 30.2 C 61 % 21.84 C
188 10-07-2016 15:35:00 30.3 C 56 % 20.54 C
189 10-07-2016 15:40:00 30.7 C 53 % 20.02 C
190 10-07-2016 15:45:00 31.1 C 55 % 20.99 C
191 10-07-2016 15:50:00 31.2 C 54 % 20.78 C
192 10-07-2016 15:55:00 31.4 C 49 % 19.39 C
193 10-07-2016 16:00:00 31.4 C 52 % 20.35 C
194 10-07-2016 16:05:00 31.4 C 48 % 19.06 C
195 10-07-2016 16:10:00 31.4 C 53 % 20.66 C
196 10-07-2016 16:15:00 31.8 C 54 % 21.34 C
197 10-07-2016 16:20:00 32.2 C 49 % 20.12 C
198 10-07-2016 16:25:00 32.4 C 53 % 21.58 C
199 10-07-2016 16:30:00 32.7 C 51 % 21.23 C
200 10-07-2016 16:35:00 32.9 C 47 % 20.09 C
Sensor: Nr:Datum:Temp:Feuchte:Taupunkt:
Aussen-T/F 201 10-07-2016 16:40:00 33.2 C 45 % 19.66 C
202 10-07-2016 16:45:00 33.2 C 46 % 20.01 C
203 10-07-2016 16:50:00 32.9 C 48 % 20.43 C
204 10-07-2016 16:55:00 33.1 C 47 % 20.27 C
205 10-07-2016 17:00:00 33.1 C 54 % 22.54 C
206 10-07-2016 17:05:00 32.9 C 54 % 22.35 C
207 10-07-2016 17:10:00 32.6 C 51 % 21.14 C
208 10-07-2016 17:15:00 32.2 C 53 % 21.4 C
209 10-07-2016 17:20:00 31.8 C 54 % 21.34 C
210 10-07-2016 17:25:00 31.7 C 59 % 22.7 C
211 10-07-2016 17:30:00 32 C 46 % 18.93 C
212 10-07-2016 17:35:00 32.3 C 47 % 19.54 C
213 10-07-2016 17:40:00 32.5 C 51 % 21.05 C
214 10-07-2016 17:45:00 32.7 C 54 % 22.17 C
215 10-07-2016 17:50:00 32.6 C 47 % 19.81 C
216 10-07-2016 17:55:00 32.3 C 50 % 20.54 C
217 10-07-2016 18:00:00 32.3 C 54 % 21.8 C
218 10-07-2016 18:05:00 31.8 C 49 % 19.76 C
219 10-07-2016 18:10:00 31.1 C 53 % 20.39 C
220 10-07-2016 18:15:00 30.4 C 54 % 20.04 C
221 10-07-2016 18:20:00 29.9 C 59 % 21.01 C
222 10-07-2016 18:25:00 29.5 C 59 % 20.64 C
223 10-07-2016 18:30:00 29.3 C 64 % 21.78 C
224 10-07-2016 18:35:00 29.3 C 63 % 21.52 C
225 10-07-2016 18:40:00 29.4 C 63 % 21.61 C
Sensor: Nr:Datum:Temp:Feuchte:Taupunkt:
Aussen-T/F 226 10-07-2016 18:45:00 29.4 C 64 % 21.87 C
227 10-07-2016 18:50:00 29.4 C 64 % 21.87 C
228 10-07-2016 18:55:00 29.2 C 65 % 21.94 C
229 10-07-2016 19:00:00 28.8 C 65 % 21.56 C
230 10-07-2016 19:05:00 28.4 C 67 % 21.68 C
231 10-07-2016 19:10:00 27.9 C 67 % 21.2 C
232 10-07-2016 19:15:00 27.5 C 68 % 21.06 C
233 10-07-2016 19:20:00 27.2 C 69 % 21.01 C
234 10-07-2016 19:25:00 26.9 C 70 % 20.96 C
235 10-07-2016 19:30:00 26.7 C 71 % 21 C
236 10-07-2016 19:35:00 26.5 C 71 % 20.81 C
237 10-07-2016 19:40:00 26.3 C 72 % 20.85 C
238 10-07-2016 19:45:00 26.1 C 72 % 20.65 C
239 10-07-2016 19:50:00 25.8 C 73 % 20.59 C
240 10-07-2016 19:55:00 25.7 C 74 % 20.71 C
241 10-07-2016 20:00:00 25.5 C 75 % 20.74 C
242 10-07-2016 20:05:00 25.3 C 76 % 20.76 C
243 10-07-2016 20:10:00 25.3 C 76 % 20.76 C
244 10-07-2016 20:15:00 25.2 C 77 % 20.88 C
245 10-07-2016 20:20:00 25.1 C 77 % 20.78 C
246 10-07-2016 20:25:00 25 C 78 % 20.89 C
247 10-07-2016 20:30:00 24.9 C 77 % 20.59 C
248 10-07-2016 20:35:00 24.8 C 78 % 20.7 C
249 10-07-2016 20:40:00 24.7 C 78 % 20.6 C
250 10-07-2016 20:45:00 24.6 C 77 % 20.3 C
Sensor: Nr:Datum:Temp:Feuchte:Taupunkt:
Aussen-T/F 251 10-07-2016 20:50:00 24.5 C 77 % 20.2 C
252 10-07-2016 20:55:00 24.4 C 76 % 19.89 C
253 10-07-2016 21:00:00 24.3 C 76 % 19.8 C
254 10-07-2016 21:05:00 24.2 C 76 % 19.7 C
255 10-07-2016 21:10:00 24 C 77 % 19.72 C
256 10-07-2016 21:15:00 23.8 C 76 % 19.31 C
257 10-07-2016 21:20:00 23.7 C 77 % 19.43 C
258 10-07-2016 21:25:00 23.4 C 77 % 19.14 C
259 10-07-2016 21:30:00 23.3 C 78 % 19.25 C
260 10-07-2016 21:35:00 23.1 C 78 % 19.05 C
261 10-07-2016 21:40:00 23 C 78 % 18.96 C
262 10-07-2016 21:45:00 22.8 C 78 % 18.76 C
263 10-07-2016 21:50:00 22.8 C 79 % 18.97 C
264 10-07-2016 21:55:00 22.7 C 79 % 18.87 C
265 10-07-2016 22:00:00 22.7 C 79 % 18.87 C
266 10-07-2016 22:05:00 22.6 C 80 % 18.97 C
267 10-07-2016 22:10:00 22.6 C 80 % 18.97 C
268 10-07-2016 22:15:00 22.5 C 80 % 18.88 C
269 10-07-2016 22:20:00 22.4 C 80 % 18.78 C
270 10-07-2016 22:25:00 22.3 C 81 % 18.88 C
271 10-07-2016 22:30:00 22.3 C 81 % 18.88 C
272 10-07-2016 22:35:00 22.2 C 81 % 18.78 C
273 10-07-2016 22:40:00 22.1 C 81 % 18.69 C
274 10-07-2016 22:45:00 22 C 81 % 18.59 C
275 10-07-2016 22:50:00 21.9 C 82 % 18.69 C
Sensor: Nr:Datum:Temp:Feuchte:Taupunkt:
Aussen-T/F 276 10-07-2016 22:55:00 21.9 C 82 % 18.69 C
277 10-07-2016 23:00:00 21.8 C 82 % 18.59 C
278 10-07-2016 23:05:00 21.7 C 82 % 18.49 C
279 10-07-2016 23:10:00 21.7 C 82 % 18.49 C
280 10-07-2016 23:15:00 21.6 C 82 % 18.39 C
281 10-07-2016 23:20:00 21.5 C 83 % 18.49 C
282 10-07-2016 23:25:00 21.4 C 83 % 18.39 C
283 10-07-2016 23:30:00 21.3 C 83 % 18.29 C
284 10-07-2016 23:35:00 21.3 C 84 % 18.49 C
285 10-07-2016 23:40:00 21.2 C 84 % 18.39 C
286 10-07-2016 23:45:00 21.2 C 84 % 18.39 C
287 10-07-2016 23:50:00 21.1 C 84 % 18.29 C
288 10-07-2016 23:55:00 21.1 C 84 % 18.29 C
289 11-07-2016 00:00:00 21 C 84 % 18.19 C
290 11-07-2016 00:05:00 21 C 84 % 18.19 C
291 11-07-2016 00:10:00 20.9 C 85 % 18.28 C
292 11-07-2016 00:15:00 20.9 C 84 % 18.09 C
293 11-07-2016 00:20:00 20.8 C 85 % 18.18 C
294 11-07-2016 00:25:00 20.8 C 85 % 18.18 C
295 11-07-2016 00:30:00 20.7 C 85 % 18.09 C
296 11-07-2016 00:35:00 20.7 C 85 % 18.09 C
297 11-07-2016 00:40:00 20.6 C 85 % 17.99 C
298 11-07-2016 00:45:00 20.6 C 86 % 18.18 C
299 11-07-2016 00:50:00 20.5 C 86 % 18.08 C
300 11-07-2016 00:55:00 20.4 C 86 % 17.98 C
Sensor: Nr:Datum:Temp:Feuchte:Taupunkt:
Aussen-T/F 301 11-07-2016 01:00:00 20.4 C 86 % 17.98 C
302 11-07-2016 01:05:00 20.4 C 86 % 17.98 C
303 11-07-2016 01:10:00 20.3 C 86 % 17.88 C
304 11-07-2016 01:15:00 20.3 C 86 % 17.88 C
305 11-07-2016 01:20:00 20.3 C 86 % 17.88 C
306 11-07-2016 01:25:00 20.3 C 87 % 18.06 C
307 11-07-2016 01:30:00 20.2 C 87 % 17.97 C
308 11-07-2016 01:35:00 20.2 C 87 % 17.97 C
309 11-07-2016 01:40:00 20.2 C 87 % 17.97 C
310 11-07-2016 01:45:00 20.1 C 87 % 17.87 C
311 11-07-2016 01:50:00 20.1 C 87 % 17.87 C
312 11-07-2016 01:55:00 19.9 C 87 % 17.67 C
313 11-07-2016 02:00:00 19.9 C 87 % 17.67 C
314 11-07-2016 02:05:00 19.8 C 87 % 17.57 C
315 11-07-2016 02:10:00 19.7 C 87 % 17.47 C
316 11-07-2016 02:15:00 19.6 C 87 % 17.38 C
317 11-07-2016 02:20:00 19.6 C 87 % 17.38 C
318 11-07-2016 02:25:00 19.4 C 87 % 17.18 C
319 11-07-2016 02:30:00 19.3 C 88 % 17.26 C
320 11-07-2016 02:35:00 19.3 C 88 % 17.26 C
321 11-07-2016 02:40:00 19.2 C 88 % 17.16 C
322 11-07-2016 02:45:00 19.1 C 88 % 17.07 C
323 11-07-2016 02:50:00 19.1 C 89 % 17.24 C
324 11-07-2016 02:55:00 19.1 C 89 % 17.24 C
325 11-07-2016 03:00:00 19.2 C 89 % 17.34 C
Sensor: Nr:Datum:Temp:Feuchte:Taupunkt:
Aussen-T/F 326 11-07-2016 03:05:00 19.1 C 89 % 17.24 C
327 11-07-2016 03:10:00 19.2 C 90 % 17.52 C
328 11-07-2016 03:15:00 19.2 C 90 % 17.52 C
329 11-07-2016 03:20:00 19.3 C 90 % 17.62 C
330 11-07-2016 03:25:00 19.3 C 90 % 17.62 C
331 11-07-2016 03:30:00 19.3 C 90 % 17.62 C
332 11-07-2016 03:35:00 19.2 C 90 % 17.52 C
333 11-07-2016 03:40:00 19.2 C 89 % 17.34 C
334 11-07-2016 03:45:00 19.1 C 89 % 17.24 C
335 11-07-2016 03:50:00 19.1 C 90 % 17.42 C
336 11-07-2016 03:55:00 19 C 90 % 17.32 C
337 11-07-2016 04:00:00 19 C 89 % 17.15 C
338 11-07-2016 04:05:00 18.9 C 89 % 17.05 C
339 11-07-2016 04:10:00 18.9 C 89 % 17.05 C
340 11-07-2016 04:15:00 18.9 C 89 % 17.05 C
341 11-07-2016 04:20:00 18.8 C 89 % 16.95 C
342 11-07-2016 04:25:00 18.7 C 89 % 16.85 C
343 11-07-2016 04:30:00 18.6 C 90 % 16.93 C
344 11-07-2016 04:35:00 18.5 C 90 % 16.83 C
345 11-07-2016 04:40:00 18.4 C 90 % 16.73 C
346 11-07-2016 04:45:00 18.4 C 90 % 16.73 C
347 11-07-2016 04:50:00 18.4 C 91 % 16.9 C
348 11-07-2016 04:55:00 18.6 C 91 % 17.1 C
349 11-07-2016 05:00:00 18.6 C 91 % 17.1 C
350 11-07-2016 05:05:00 18.6 C 91 % 17.1 C
Sensor: Nr:Datum:Temp:Feuchte:Taupunkt:
Aussen-T/F 351 11-07-2016 05:10:00 18.6 C 91 % 17.1 C
352 11-07-2016 05:15:00 18.6 C 91 % 17.1 C
353 11-07-2016 05:20:00 18.6 C 91 % 17.1 C
354 11-07-2016 05:25:00 18.7 C 91 % 17.2 C
355 11-07-2016 05:30:00 18.7 C 91 % 17.2 C
356 11-07-2016 05:35:00 18.8 C 91 % 17.3 C
357 11-07-2016 05:40:00 18.8 C 91 % 17.3 C
358 11-07-2016 05:45:00 18.8 C 91 % 17.3 C
359 11-07-2016 05:50:00 18.8 C 91 % 17.3 C
360 11-07-2016 05:55:00 18.9 C 91 % 17.4 C
361 11-07-2016 06:00:00 18.9 C 91 % 17.4 C
362 11-07-2016 06:05:00 18.9 C 90 % 17.22 C
363 11-07-2016 06:10:00 18.9 C 90 % 17.22 C
364 11-07-2016 06:15:00 18.9 C 90 % 17.22 C
365 11-07-2016 06:20:00 18.9 C 90 % 17.22 C
366 11-07-2016 06:25:00 18.9 C 90 % 17.22 C
367 11-07-2016 06:30:00 18.9 C 91 % 17.4 C
368 11-07-2016 06:35:00 19 C 91 % 17.5 C
369 11-07-2016 06:40:00 19 C 91 % 17.5 C
370 11-07-2016 06:45:00 19 C 91 % 17.5 C
371 11-07-2016 06:50:00 19 C 91 % 17.5 C
372 11-07-2016 06:55:00 19 C 91 % 17.5 C
373 11-07-2016 07:00:00 19 C 91 % 17.5 C
374 11-07-2016 07:05:00 19.1 C 91 % 17.6 C
375 11-07-2016 07:10:00 19.1 C 91 % 17.6 C
Sensor: Nr:Datum:Temp:Feuchte:Taupunkt:
Aussen-T/F 376 11-07-2016 07:15:00 19.1 C 91 % 17.6 C
377 11-07-2016 07:20:00 19.1 C 91 % 17.6 C
378 11-07-2016 07:25:00 19.2 C 91 % 17.69 C
379 11-07-2016 07:30:00 19.2 C 91 % 17.69 C
380 11-07-2016 07:35:00 19.3 C 92 % 17.97 C
381 11-07-2016 07:40:00 19.4 C 92 % 18.07 C
382 11-07-2016 07:45:00 19.5 C 91 % 17.99 C
383 11-07-2016 07:50:00 19.6 C 91 % 18.09 C
384 11-07-2016 07:55:00 19.7 C 91 % 18.19 C
385 11-07-2016 08:00:00 19.8 C 91 % 18.29 C
386 11-07-2016 08:05:00 19.9 C 91 % 18.39 C
387 11-07-2016 08:10:00 20 C 91 % 18.49 C
388 11-07-2016 08:15:00 20.1 C 91 % 18.58 C
389 11-07-2016 08:20:00 20.1 C 90 % 18.41 C
390 11-07-2016 08:25:00 20.1 C 90 % 18.41 C
391 11-07-2016 08:30:00 20.2 C 90 % 18.51 C
392 11-07-2016 08:35:00 20.2 C 90 % 18.51 C
393 11-07-2016 08:40:00 20.3 C 90 % 18.61 C
394 11-07-2016 08:45:00 20.4 C 88 % 18.34 C
395 11-07-2016 08:50:00 20.6 C 86 % 18.18 C
396 11-07-2016 08:55:00 20.8 C 86 % 18.37 C
397 11-07-2016 09:00:00 21.2 C 84 % 18.39 C
398 11-07-2016 09:05:00 21.3 C 85 % 18.67 C
399 11-07-2016 09:10:00 21.5 C 83 % 18.49 C
400 11-07-2016 09:15:00 21.7 C 81 % 18.3 C
Sensor: Nr:Datum:Temp:Feuchte:Taupunkt:
Aussen-T/F 401 11-07-2016 09:20:00 22 C 80 % 18.39 C
402 11-07-2016 09:25:00 22.2 C 78 % 18.18 C
403 11-07-2016 09:30:00 22.3 C 78 % 18.28 C
404 11-07-2016 09:35:00 22.4 C 77 % 18.17 C
405 11-07-2016 09:40:00 22.7 C 74 % 17.83 C
406 11-07-2016 09:45:00 22.8 C 74 % 17.92 C
407 11-07-2016 09:50:00 23 C 73 % 17.9 C
408 11-07-2016 09:55:00 23.1 C 75 % 18.43 C
409 11-07-2016 10:00:00 23.1 C 74 % 18.21 C
410 11-07-2016 10:05:00 23.1 C 73 % 17.99 C
411 11-07-2016 10:10:00 23.2 C 73 % 18.09 C
412 11-07-2016 10:15:00 23.4 C 72 % 18.06 C
413 11-07-2016 10:20:00 23.5 C 70 % 17.71 C
414 11-07-2016 10:25:00 23.6 C 69 % 17.58 C
415 11-07-2016 10:30:00 23.7 C 67 % 17.21 C
416 11-07-2016 10:35:00 24.1 C 68 % 17.82 C
417 11-07-2016 10:40:00 24.3 C 65 % 17.3 C
418 11-07-2016 10:45:00 24.5 C 68 % 18.2 C
419 11-07-2016 10:50:00 24.4 C 64 % 17.15 C
420 11-07-2016 10:55:00 24.3 C 63 % 16.81 C
421 11-07-2016 11:00:00 24.1 C 62 % 16.37 C
422 11-07-2016 11:05:00 23.8 C 64 % 16.58 C
423 11-07-2016 11:10:00 23.6 C 66 % 16.88 C
424 11-07-2016 11:15:00 23.4 C 66 % 16.69 C
425 11-07-2016 11:20:00 23.3 C 66 % 16.59 C
Sensor: Nr:Datum:Temp:Feuchte:Taupunkt:
Aussen-T/F 426 11-07-2016 11:25:00 23.3 C 70 % 17.52 C
427 11-07-2016 11:30:00 23.2 C 70 % 17.42 C
428 11-07-2016 11:35:00 23.2 C 70 % 17.42 C
429 11-07-2016 11:40:00 23.3 C 71 % 17.75 C
430 11-07-2016 11:45:00 23.5 C 69 % 17.48 C
431 11-07-2016 11:50:00 23.6 C 68 % 17.35 C
432 11-07-2016 11:55:00 23.7 C 69 % 17.67 C
433 11-07-2016 12:00:00 23.7 C 68 % 17.44 C
434 11-07-2016 12:05:00 23.7 C 69 % 17.67 C
435 11-07-2016 12:10:00 23.6 C 68 % 17.35 C
436 11-07-2016 12:15:00 23.6 C 69 % 17.58 C
437 11-07-2016 12:20:00 23.6 C 69 % 17.58 C
438 11-07-2016 12:25:00 23.7 C 68 % 17.44 C
439 11-07-2016 12:30:00 23.8 C 67 % 17.3 C
440 11-07-2016 12:35:00 23.8 C 69 % 17.77 C
441 11-07-2016 12:40:00 23.9 C 70 % 18.09 C
442 11-07-2016 12:45:00 24.1 C 66 % 17.35 C
443 11-07-2016 12:50:00 24.3 C 65 % 17.3 C
444 11-07-2016 12:55:00 24.4 C 64 % 17.15 C
445 11-07-2016 13:00:00 24.5 C 62 % 16.74 C
446 11-07-2016 13:05:00 24.4 C 61 % 16.39 C
447 11-07-2016 13:10:00 24.4 C 64 % 17.15 C
448 11-07-2016 13:15:00 24.4 C 65 % 17.39 C
449 11-07-2016 13:20:00 24.4 C 65 % 17.39 C
450 11-07-2016 13:25:00 24.4 C 63 % 16.9 C
Sensor: Nr:Datum:Temp:Feuchte:Taupunkt:
Aussen-T/F 451 11-07-2016 13:30:00 24.4 C 63 % 16.9 C
452 11-07-2016 13:35:00 24.4 C 62 % 16.65 C
453 11-07-2016 13:40:00 24.4 C 64 % 17.15 C
454 11-07-2016 13:45:00 24.4 C 61 % 16.39 C
455 11-07-2016 13:50:00 24.4 C 62 % 16.65 C
456 11-07-2016 13:55:00 24.4 C 62 % 16.65 C
457 11-07-2016 14:00:00 24.5 C 58 % 15.7 C
458 11-07-2016 14:05:00 24.5 C 56 % 15.15 C
459 11-07-2016 14:10:00 24.6 C 58 % 15.79 C
460 11-07-2016 14:15:00 24.7 C 54 % 14.77 C
461 11-07-2016 14:20:00 24.6 C 55 % 14.96 C
462 11-07-2016 14:25:00 24.4 C 56 % 15.06 C
463 11-07-2016 14:30:00 24.4 C 56 % 15.06 C
464 11-07-2016 14:35:00 24.4 C 57 % 15.33 C
465 11-07-2016 14:40:00 24.4 C 56 % 15.06 C
466 11-07-2016 14:45:00 24.3 C 55 % 14.68 C
467 11-07-2016 14:50:00 24.2 C 57 % 15.14 C
468 11-07-2016 14:55:00 24.3 C 56 % 14.96 C
469 11-07-2016 15:00:00 24.3 C 58 % 15.51 C
470 11-07-2016 15:05:00 24.3 C 55 % 14.68 C
471 11-07-2016 15:10:00 24.4 C 59 % 15.87 C
472 11-07-2016 15:15:00 24.5 C 55 % 14.87 C
473 11-07-2016 15:20:00 24.5 C 57 % 15.42 C
474 11-07-2016 15:25:00 24.3 C 57 % 15.24 C
475 11-07-2016 15:30:00 24.3 C 58 % 15.51 C
Sensor: Nr:Datum:Temp:Feuchte:Taupunkt:
Aussen-T/F 476 11-07-2016 15:35:00 24.2 C 57 % 15.14 C
477 11-07-2016 15:40:00 24.2 C 56 % 14.87 C
478 11-07-2016 15:45:00 24.2 C 56 % 14.87 C
479 11-07-2016 15:50:00 24.1 C 58 % 15.32 C
480 11-07-2016 15:55:00 24.2 C 58 % 15.42 C
481 11-07-2016 16:00:00 24.2 C 56 % 14.87 C
482 11-07-2016 16:05:00 24.3 C 58 % 15.51 C
483 11-07-2016 16:10:00 24.3 C 57 % 15.24 C
484 11-07-2016 16:15:00 24.3 C 58 % 15.51 C
485 11-07-2016 16:20:00 24.3 C 60 % 16.04 C
486 11-07-2016 16:25:00 24.3 C 58 % 15.51 C
487 11-07-2016 16:30:00 24.3 C 59 % 15.78 C
488 11-07-2016 16:35:00 24.4 C 63 % 16.9 C
489 11-07-2016 16:40:00 24.4 C 60 % 16.13 C
490 11-07-2016 16:45:00 24.4 C 63 % 16.9 C
491 11-07-2016 16:50:00 24.6 C 61 % 16.58 C
492 11-07-2016 16:55:00 24.7 C 59 % 16.15 C
493 11-07-2016 17:00:00 24.7 C 60 % 16.41 C
494 11-07-2016 17:05:00 24.7 C 59 % 16.15 C
495 11-07-2016 17:10:00 24.5 C 62 % 16.74 C
496 11-07-2016 17:15:00 24.3 C 62 % 16.55 C
497 11-07-2016 17:20:00 24.2 C 64 % 16.96 C
498 11-07-2016 17:25:00 24.1 C 63 % 16.62 C
499 11-07-2016 17:30:00 24.1 C 63 % 16.62 C
500 11-07-2016 17:35:00 24.1 C 64 % 16.86 C
Sensor: Nr:Datum:Temp:Feuchte:Taupunkt:
Aussen-T/F 501 11-07-2016 17:40:00 23.9 C 70 % 18.09 C
502 11-07-2016 17:45:00 23.8 C 66 % 17.07 C
503 11-07-2016 17:50:00 23.9 C 64 % 16.68 C
504 11-07-2016 17:55:00 24.2 C 61 % 16.2 C
505 11-07-2016 18:00:00 24.4 C 59 % 15.87 C
506 11-07-2016 18:05:00 24.3 C 59 % 15.78 C
507 11-07-2016 18:10:00 24.2 C 59 % 15.68 C
508 11-07-2016 18:15:00 24.1 C 58 % 15.32 C
509 11-07-2016 18:20:00 24 C 61 % 16.02 C
510 11-07-2016 18:25:00 24 C 58 % 15.23 C
511 11-07-2016 18:30:00 24.2 C 57 % 15.14 C
512 11-07-2016 18:35:00 24.2 C 56 % 14.87 C
513 11-07-2016 18:40:00 24.1 C 56 % 14.78 C
514 11-07-2016 18:45:00 24.1 C 57 % 15.05 C
515 11-07-2016 18:50:00 24.3 C 59 % 15.78 C
516 11-07-2016 18:55:00 24.4 C 56 % 15.06 C
517 11-07-2016 19:00:00 24.4 C 56 % 15.06 C
518 11-07-2016 19:05:00 24.2 C 54 % 14.31 C
519 11-07-2016 19:10:00 23.9 C 54 % 14.03 C
520 11-07-2016 19:15:00 23.6 C 56 % 14.31 C
521 11-07-2016 19:20:00 23.6 C 56 % 14.31 C
522 11-07-2016 19:25:00 23.7 C 56 % 14.4 C
523 11-07-2016 19:30:00 23.6 C 55 % 14.03 C
524 11-07-2016 19:35:00 23.4 C 56 % 14.13 C
525 11-07-2016 19:40:00 23.2 C 57 % 14.21 C
Sensor: Nr:Datum:Temp:Feuchte:Taupunkt:
Aussen-T/F 526 11-07-2016 19:45:00 23.1 C 58 % 14.39 C
527 11-07-2016 19:50:00 23.2 C 59 % 14.75 C
528 11-07-2016 19:55:00 23.3 C 59 % 14.84 C
529 11-07-2016 20:00:00 23.2 C 59 % 14.75 C
530 11-07-2016 20:05:00 22.8 C 58 % 14.11 C
531 11-07-2016 20:10:00 22.6 C 60 % 14.44 C
532 11-07-2016 20:15:00 22.2 C 61 % 14.32 C
533 11-07-2016 20:20:00 21.9 C 61 % 14.04 C
534 11-07-2016 20:25:00 21.7 C 63 % 14.35 C
535 11-07-2016 20:30:00 21.4 C 62 % 13.82 C
536 11-07-2016 20:35:00 21.3 C 64 % 14.22 C
537 11-07-2016 20:40:00 21.2 C 64 % 14.12 C
538 11-07-2016 20:45:00 21.1 C 64 % 14.03 C
539 11-07-2016 20:50:00 20.9 C 64 % 13.84 C
540 11-07-2016 20:55:00 20.8 C 65 % 13.98 C
541 11-07-2016 21:00:00 20.8 C 65 % 13.98 C
542 11-07-2016 21:05:00 20.7 C 66 % 14.12 C
543 11-07-2016 21:10:00 20.6 C 66 % 14.03 C
544 11-07-2016 21:15:00 20.5 C 66 % 13.93 C
545 11-07-2016 21:20:00 20.4 C 65 % 13.6 C
546 11-07-2016 21:25:00 20.4 C 66 % 13.84 C
547 11-07-2016 21:30:00 20.3 C 67 % 13.97 C
548 11-07-2016 21:35:00 20.2 C 67 % 13.88 C
549 11-07-2016 21:40:00 20.1 C 66 % 13.55 C
550 11-07-2016 21:45:00 20.1 C 66 % 13.55 C
Sensor: Nr:Datum:Temp:Feuchte:Taupunkt:
Aussen-T/F 551 11-07-2016 21:50:00 20.1 C 67 % 13.78 C
552 11-07-2016 21:55:00 20 C 67 % 13.69 C
553 11-07-2016 22:00:00 19.9 C 68 % 13.82 C
554 11-07-2016 22:05:00 19.9 C 69 % 14.05 C
555 11-07-2016 22:10:00 19.8 C 68 % 13.73 C
556 11-07-2016 22:15:00 19.8 C 70 % 14.17 C
557 11-07-2016 22:20:00 19.7 C 70 % 14.08 C
558 11-07-2016 22:25:00 19.7 C 71 % 14.3 C
559 11-07-2016 22:30:00 19.6 C 70 % 13.98 C
560 11-07-2016 22:35:00 19.6 C 71 % 14.2 C
561 11-07-2016 22:40:00 19.4 C 71 % 14.01 C
562 11-07-2016 22:45:00 19.4 C 71 % 14.01 C
563 11-07-2016 22:50:00 19.3 C 73 % 14.34 C
564 11-07-2016 22:55:00 19.3 C 72 % 14.13 C
565 11-07-2016 23:00:00 19.2 C 73 % 14.25 C
566 11-07-2016 23:05:00 19.2 C 73 % 14.25 C
567 11-07-2016 23:10:00 19.1 C 74 % 14.36 C
568 11-07-2016 23:15:00 19.1 C 74 % 14.36 C
569 11-07-2016 23:20:00 18.9 C 75 % 14.37 C
570 11-07-2016 23:25:00 18.9 C 75 % 14.37 C
571 11-07-2016 23:30:00 18.8 C 76 % 14.48 C
572 11-07-2016 23:35:00 18.8 C 75 % 14.28 C
573 11-07-2016 23:40:00 18.7 C 75 % 14.18 C
574 11-07-2016 23:45:00 18.7 C 75 % 14.18 C
575 11-07-2016 23:50:00 18.6 C 76 % 14.29 C
Sensor: Nr:Datum:Temp:Feuchte:Taupunkt:
Aussen-T/F 576 11-07-2016 23:55:00 18.6 C 77 % 14.49 C
577 12-07-2016 00:00:00 18.6 C 77 % 14.49 C
578 12-07-2016 00:05:00 18.4 C 77 % 14.3 C
579 12-07-2016 00:10:00 18.4 C 77 % 14.3 C
580 12-07-2016 00:15:00 18.3 C 77 % 14.2 C
581 12-07-2016 00:20:00 18.3 C 79 % 14.6 C
582 12-07-2016 00:25:00 18.3 C 79 % 14.6 C
583 12-07-2016 00:30:00 18.3 C 80 % 14.79 C
584 12-07-2016 00:35:00 18.2 C 79 % 14.5 C
585 12-07-2016 00:40:00 18.2 C 79 % 14.5 C
586 12-07-2016 00:45:00 18.1 C 79 % 14.4 C
587 12-07-2016 00:50:00 18.1 C 78 % 14.21 C
588 12-07-2016 00:55:00 18.1 C 78 % 14.21 C
589 12-07-2016 01:00:00 18.1 C 78 % 14.21 C
590 12-07-2016 01:05:00 18.1 C 77 % 14.01 C
591 12-07-2016 01:10:00 18.1 C 78 % 14.21 C
592 12-07-2016 01:15:00 17.9 C 78 % 14.01 C
593 12-07-2016 01:20:00 17.8 C 78 % 13.91 C
594 12-07-2016 01:25:00 17.7 C 79 % 14.01 C
595 12-07-2016 01:30:00 17.5 C 78 % 13.62 C
596 12-07-2016 01:35:00 17.4 C 78 % 13.53 C
597 12-07-2016 01:40:00 17.4 C 79 % 13.72 C
598 12-07-2016 01:45:00 17.4 C 78 % 13.53 C
599 12-07-2016 01:50:00 17.3 C 79 % 13.63 C
600 12-07-2016 01:55:00 17.3 C 80 % 13.82 C
Sensor: Nr:Datum:Temp:Feuchte:Taupunkt:
Aussen-T/F 601 12-07-2016 02:00:00 17.2 C 80 % 13.72 C
602 12-07-2016 02:05:00 17.1 C 80 % 13.62 C
603 12-07-2016 02:10:00 16.9 C 81 % 13.62 C
604 12-07-2016 02:15:00 16.8 C 81 % 13.52 C
605 12-07-2016 02:20:00 16.6 C 81 % 13.33 C
606 12-07-2016 02:25:00 16.4 C 82 % 13.32 C
607 12-07-2016 02:30:00 16.3 C 82 % 13.22 C
608 12-07-2016 02:35:00 16.1 C 83 % 13.21 C
609 12-07-2016 02:40:00 15.9 C 83 % 13.02 C
610 12-07-2016 02:45:00 15.8 C 84 % 13.1 C
611 12-07-2016 02:50:00 15.7 C 84 % 13.01 C
612 12-07-2016 02:55:00 15.6 C 85 % 13.09 C
613 12-07-2016 03:00:00 15.5 C 85 % 12.99 C
614 12-07-2016 03:05:00 15.4 C 86 % 13.07 C
615 12-07-2016 03:10:00 15.3 C 86 % 12.97 C
616 12-07-2016 03:15:00 15.2 C 86 % 12.88 C
617 12-07-2016 03:20:00 15.1 C 86 % 12.78 C
618 12-07-2016 03:25:00 15 C 87 % 12.86 C
619 12-07-2016 03:30:00 14.9 C 87 % 12.76 C
620 12-07-2016 03:35:00 14.8 C 87 % 12.66 C
621 12-07-2016 03:40:00 14.8 C 88 % 12.83 C
622 12-07-2016 03:45:00 14.7 C 88 % 12.73 C
623 12-07-2016 03:50:00 14.7 C 88 % 12.73 C
624 12-07-2016 03:55:00 14.7 C 88 % 12.73 C
625 12-07-2016 04:00:00 14.6 C 89 % 12.81 C
Sensor: Nr:Datum:Temp:Feuchte:Taupunkt:
Aussen-T/F 626 12-07-2016 04:05:00 14.6 C 89 % 12.81 C
627 12-07-2016 04:10:00 14.6 C 89 % 12.81 C
628 12-07-2016 04:15:00 14.6 C 89 % 12.81 C
629 12-07-2016 04:20:00 14.5 C 89 % 12.71 C
630 12-07-2016 04:25:00 14.4 C 89 % 12.61 C
631 12-07-2016 04:30:00 14.4 C 90 % 12.78 C
632 12-07-2016 04:35:00 14.4 C 90 % 12.78 C
633 12-07-2016 04:40:00 14.4 C 90 % 12.78 C
634 12-07-2016 04:45:00 14.4 C 90 % 12.78 C
635 12-07-2016 04:50:00 14.4 C 90 % 12.78 C
636 12-07-2016 04:55:00 14.4 C 91 % 12.95 C
637 12-07-2016 05:00:00 14.4 C 91 % 12.95 C
638 12-07-2016 05:05:00 14.4 C 91 % 12.95 C
639 12-07-2016 05:10:00 14.4 C 91 % 12.95 C
640 12-07-2016 05:15:00 14.3 C 91 % 12.85 C
641 12-07-2016 05:20:00 14.3 C 91 % 12.85 C
642 12-07-2016 05:25:00 14.3 C 91 % 12.85 C
643 12-07-2016 05:30:00 14.3 C 91 % 12.85 C
644 12-07-2016 05:35:00 14.2 C 91 % 12.75 C
645 12-07-2016 05:40:00 14.2 C 92 % 12.92 C
646 12-07-2016 05:45:00 14.2 C 92 % 12.92 C
647 12-07-2016 05:50:00 14.2 C 92 % 12.92 C
648 12-07-2016 05:55:00 14.3 C 92 % 13.02 C
649 12-07-2016 06:00:00 14.3 C 92 % 13.02 C
650 12-07-2016 06:05:00 14.3 C 92 % 13.02 C
Sensor: Nr:Datum:Temp:Feuchte:Taupunkt:
Aussen-T/F 651 12-07-2016 06:10:00 14.5 C 92 % 13.22 C
652 12-07-2016 06:15:00 14.6 C 92 % 13.32 C
653 12-07-2016 06:20:00 14.7 C 92 % 13.41 C
654 12-07-2016 06:25:00 14.7 C 91 % 13.25 C
655 12-07-2016 06:30:00 14.7 C 91 % 13.25 C
656 12-07-2016 06:35:00 14.8 C 91 % 13.35 C
657 12-07-2016 06:40:00 14.8 C 91 % 13.35 C
658 12-07-2016 06:45:00 14.8 C 91 % 13.35 C
659 12-07-2016 06:50:00 14.8 C 91 % 13.35 C
660 12-07-2016 06:55:00 14.9 C 91 % 13.44 C
661 12-07-2016 07:00:00 14.8 C 90 % 13.18 C
662 12-07-2016 07:05:00 14.9 C 91 % 13.44 C
663 12-07-2016 07:10:00 14.9 C 90 % 13.28 C
664 12-07-2016 07:15:00 15 C 91 % 13.54 C
665 12-07-2016 07:20:00 15.1 C 91 % 13.64 C
666 12-07-2016 07:25:00 15.2 C 91 % 13.74 C
667 12-07-2016 07:30:00 15.3 C 90 % 13.67 C
668 12-07-2016 07:35:00 15.5 C 89 % 13.7 C
669 12-07-2016 07:40:00 15.6 C 89 % 13.79 C
670 12-07-2016 07:45:00 15.7 C 89 % 13.89 C
671 12-07-2016 07:50:00 15.7 C 90 % 14.06 C
672 12-07-2016 07:55:00 15.8 C 90 % 14.16 C
673 12-07-2016 08:00:00 15.9 C 89 % 14.09 C
674 12-07-2016 08:05:00 16 C 89 % 14.19 C
675 12-07-2016 08:10:00 16.1 C 87 % 13.94 C
Sensor: Nr:Datum:Temp:Feuchte:Taupunkt:
Aussen-T/F 676 12-07-2016 08:15:00 16.3 C 87 % 14.13 C
677 12-07-2016 08:20:00 16.4 C 87 % 14.23 C
678 12-07-2016 08:25:00 16.7 C 87 % 14.53 C
679 12-07-2016 08:30:00 16.9 C 86 % 14.54 C
680 12-07-2016 08:35:00 17.1 C 85 % 14.56 C
681 12-07-2016 08:40:00 17.3 C 83 % 14.39 C
682 12-07-2016 08:45:00 17.5 C 83 % 14.58 C
683 12-07-2016 08:50:00 17.7 C 84 % 14.96 C
684 12-07-2016 08:55:00 17.8 C 85 % 15.25 C
685 12-07-2016 09:00:00 17.9 C 85 % 15.34 C
686 12-07-2016 09:05:00 18 C 85 % 15.44 C
687 12-07-2016 09:10:00 18.1 C 84 % 15.35 C
688 12-07-2016 09:15:00 18.2 C 82 % 15.08 C
689 12-07-2016 09:20:00 18.3 C 83 % 15.36 C
690 12-07-2016 09:25:00 18.3 C 80 % 14.79 C
691 12-07-2016 09:30:00 18.4 C 82 % 15.27 C
692 12-07-2016 09:35:00 18.5 C 80 % 14.99 C
693 12-07-2016 09:40:00 18.6 C 79 % 14.89 C
694 12-07-2016 09:45:00 18.7 C 77 % 14.59 C
695 12-07-2016 09:50:00 18.8 C 76 % 14.48 C
696 12-07-2016 09:55:00 18.9 C 79 % 15.18 C
697 12-07-2016 10:00:00 19.1 C 79 % 15.37 C
698 12-07-2016 10:05:00 19.3 C 78 % 15.37 C
699 12-07-2016 10:10:00 19.4 C 75 % 14.86 C
700 12-07-2016 10:15:00 19.7 C 73 % 14.73 C
Sensor: Nr:Datum:Temp:Feuchte:Taupunkt:
Aussen-T/F 701 12-07-2016 10:20:00 19.8 C 73 % 14.82 C
702 12-07-2016 10:25:00 20.1 C 71 % 14.68 C
703 12-07-2016 10:30:00 20.2 C 69 % 14.33 C
704 12-07-2016 10:35:00 20.3 C 73 % 15.3 C
705 12-07-2016 10:40:00 20.2 C 70 % 14.56 C
706 12-07-2016 10:45:00 20.2 C 70 % 14.56 C
707 12-07-2016 10:50:00 20.3 C 69 % 14.43 C
708 12-07-2016 10:55:00 20.4 C 70 % 14.75 C
709 12-07-2016 11:00:00 20.6 C 70 % 14.94 C
710 12-07-2016 11:05:00 20.8 C 67 % 14.45 C
711 12-07-2016 11:10:00 20.8 C 70 % 15.13 C
712 12-07-2016 11:15:00 20.9 C 66 % 14.31 C
713 12-07-2016 11:20:00 20.9 C 67 % 14.55 C
714 12-07-2016 11:25:00 21 C 65 % 14.17 C
715 12-07-2016 11:30:00 21.1 C 67 % 14.74 C
716 12-07-2016 11:35:00 21.1 C 67 % 14.74 C
717 12-07-2016 11:40:00 21.1 C 69 % 15.19 C
718 12-07-2016 11:45:00 21 C 71 % 15.54 C
719 12-07-2016 11:50:00 21.1 C 67 % 14.74 C
720 12-07-2016 11:55:00 21.3 C 64 % 14.22 C
721 12-07-2016 12:00:00 21.6 C 63 % 14.26 C
722 12-07-2016 12:05:00 21.8 C 64 % 14.69 C
723 12-07-2016 12:10:00 21.9 C 66 % 15.26 C
724 12-07-2016 12:15:00 22.1 C 62 % 14.48 C
725 12-07-2016 12:20:00 22.2 C 63 % 14.82 C
Sensor: Nr:Datum:Temp:Feuchte:Taupunkt:
Aussen-T/F 726 12-07-2016 12:25:00 22.2 C 67 % 15.78 C
727 12-07-2016 12:30:00 22.1 C 61 % 14.23 C
728 12-07-2016 12:35:00 21.9 C 63 % 14.54 C
729 12-07-2016 12:40:00 21.8 C 70 % 16.09 C
730 12-07-2016 12:45:00 21.7 C 73 % 16.65 C
731 12-07-2016 12:50:00 21.7 C 69 % 15.77 C
732 12-07-2016 12:55:00 21.6 C 65 % 14.74 C
733 12-07-2016 13:00:00 21.7 C 62 % 14.1 C
734 12-07-2016 13:05:00 21.9 C 68 % 15.73 C
735 12-07-2016 13:10:00 22.1 C 67 % 15.69 C
736 12-07-2016 13:15:00 22.2 C 68 % 16.01 C
737 12-07-2016 13:20:00 22.2 C 69 % 16.24 C
738 12-07-2016 13:25:00 22.1 C 69 % 16.15 C
739 12-07-2016 13:30:00 22.1 C 65 % 15.21 C
740 12-07-2016 13:35:00 22.1 C 62 % 14.48 C
741 12-07-2016 13:40:00 22.2 C 60 % 14.07 C
742 12-07-2016 13:45:00 22.3 C 58 % 13.64 C
743 12-07-2016 13:50:00 22.6 C 58 % 13.92 C
744 12-07-2016 13:55:00 22.7 C 57 % 13.75 C
745 12-07-2016 14:00:00 22.8 C 57 % 13.84 C
746 12-07-2016 14:05:00 22.8 C 56 % 13.57 C
747 12-07-2016 14:10:00 22.8 C 62 % 15.14 C
748 12-07-2016 14:15:00 22.7 C 55 % 13.2 C
749 12-07-2016 14:20:00 22.8 C 60 % 14.63 C
750 12-07-2016 14:25:00 22.8 C 56 % 13.57 C
Sensor: Nr:Datum:Temp:Feuchte:Taupunkt:
Aussen-T/F 751 12-07-2016 14:30:00 22.9 C 56 % 13.66 C
752 12-07-2016 14:35:00 23.2 C 56 % 13.94 C
753 12-07-2016 14:40:00 23.4 C 52 % 12.99 C
754 12-07-2016 14:45:00 23.6 C 56 % 14.31 C
755 12-07-2016 14:50:00 23.8 C 52 % 13.36 C
756 12-07-2016 14:55:00 23.9 C 52 % 13.45 C
757 12-07-2016 15:00:00 24.2 C 52 % 13.73 C
758 12-07-2016 15:05:00 24.3 C 54 % 14.4 C
759 12-07-2016 15:10:00 24.4 C 49 % 13 C
760 12-07-2016 15:15:00 24.6 C 48 % 12.87 C
761 12-07-2016 15:20:00 24.8 C 47 % 12.73 C
762 12-07-2016 15:25:00 24.9 C 49 % 13.46 C
763 12-07-2016 15:30:00 25.1 C 49 % 13.64 C
764 12-07-2016 15:35:00 25.3 C 48 % 13.5 C
765 12-07-2016 15:40:00 25.4 C 48 % 13.6 C
766 12-07-2016 15:45:00 25.3 C 48 % 13.5 C
767 12-07-2016 15:50:00 25.1 C 48 % 13.32 C
768 12-07-2016 15:55:00 25.1 C 51 % 14.25 C
769 12-07-2016 16:00:00 25.6 C 51 % 14.71 C
770 12-07-2016 16:05:00 26 C 45 % 13.15 C
771 12-07-2016 16:10:00 25.6 C 48 % 13.78 C
772 12-07-2016 16:15:00 25.3 C 46 % 12.85 C
773 12-07-2016 16:20:00 24.8 C 47 % 12.73 C
774 12-07-2016 16:25:00 24.4 C 52 % 13.91 C
775 12-07-2016 16:30:00 24.3 C 52 % 13.82 C
Sensor: Nr:Datum:Temp:Feuchte:Taupunkt:
Aussen-T/F 776 12-07-2016 16:35:00 24.2 C 56 % 14.87 C
777 12-07-2016 16:40:00 24.1 C 53 % 13.93 C
778 12-07-2016 16:45:00 24.1 C 51 % 13.34 C
779 12-07-2016 16:50:00 23.8 C 55 % 14.22 C
780 12-07-2016 16:55:00 23.7 C 58 % 14.95 C
781 12-07-2016 17:00:00 23.9 C 58 % 15.14 C
782 12-07-2016 17:05:00 24.2 C 55 % 14.59 C
783 12-07-2016 17:10:00 24.3 C 54 % 14.4 C
784 12-07-2016 17:15:00 24.4 C 53 % 14.2 C
785 12-07-2016 17:20:00 24.1 C 53 % 13.93 C
786 12-07-2016 17:25:00 23.9 C 54 % 14.03 C
787 12-07-2016 17:30:00 24 C 55 % 14.41 C
788 12-07-2016 17:35:00 24 C 55 % 14.41 C
789 12-07-2016 17:40:00 24.1 C 55 % 14.5 C
790 12-07-2016 17:45:00 24.2 C 52 % 13.73 C
791 12-07-2016 17:50:00 24.6 C 53 % 14.39 C
792 12-07-2016 17:55:00 24.7 C 53 % 14.48 C
793 12-07-2016 18:00:00 24.6 C 53 % 14.39 C
794 12-07-2016 18:05:00 24.2 C 54 % 14.31 C
795 12-07-2016 18:10:00 24.3 C 55 % 14.68 C
796 12-07-2016 18:15:00 24.2 C 53 % 14.02 C
797 12-07-2016 18:20:00 23.8 C 54 % 13.94 C
798 12-07-2016 18:25:00 23.3 C 56 % 14.03 C
799 12-07-2016 18:30:00 22.9 C 57 % 13.93 C
800 12-07-2016 18:35:00 22.8 C 59 % 14.37 C
Sensor: Nr:Datum:Temp:Feuchte:Taupunkt:
Aussen-T/F 801 12-07-2016 18:40:00 22.7 C 64 % 15.54 C
802 12-07-2016 18:45:00 23.1 C 65 % 16.16 C
803 12-07-2016 18:50:00 23.1 C 63 % 15.67 C
804 12-07-2016 18:55:00 23.2 C 63 % 15.77 C
805 12-07-2016 19:00:00 23.1 C 58 % 14.39 C
806 12-07-2016 19:05:00 22.6 C 59 % 14.18 C
807 12-07-2016 19:10:00 22.3 C 59 % 13.9 C
808 12-07-2016 19:15:00 22.3 C 59 % 13.9 C
809 12-07-2016 19:20:00 22.2 C 58 % 13.55 C
810 12-07-2016 19:25:00 22.1 C 60 % 13.98 C
811 12-07-2016 19:30:00 22.1 C 61 % 14.23 C
812 12-07-2016 19:35:00 21.9 C 61 % 14.04 C
813 12-07-2016 19:40:00 21.8 C 62 % 14.2 C
814 12-07-2016 19:45:00 21.7 C 63 % 14.35 C
815 12-07-2016 19:50:00 21.6 C 63 % 14.26 C
816 12-07-2016 19:55:00 21.3 C 64 % 14.22 C
817 12-07-2016 20:00:00 21.1 C 64 % 14.03 C
818 12-07-2016 20:05:00 20.8 C 66 % 14.22 C
819 12-07-2016 20:10:00 20.5 C 69 % 14.62 C
820 12-07-2016 20:15:00 20.3 C 73 % 15.3 C
821 12-07-2016 20:20:00 19.9 C 75 % 15.34 C
822 12-07-2016 20:25:00 19.6 C 77 % 15.46 C
823 12-07-2016 20:30:00 19.1 C 77 % 14.97 C
824 12-07-2016 20:35:00 18.6 C 78 % 14.69 C
825 12-07-2016 20:40:00 18.2 C 80 % 14.69 C
Sensor: Nr:Datum:Temp:Feuchte:Taupunkt:
Aussen-T/F 826 12-07-2016 20:45:00 17.9 C 80 % 14.4 C
827 12-07-2016 20:50:00 17.7 C 81 % 14.4 C
828 12-07-2016 20:55:00 17.6 C 83 % 14.68 C
829 12-07-2016 21:00:00 17.4 C 81 % 14.11 C
830 12-07-2016 21:05:00 17.4 C 83 % 14.48 C
831 12-07-2016 21:10:00 17.3 C 84 % 14.57 C
832 12-07-2016 21:15:00 17.2 C 84 % 14.47 C
833 12-07-2016 21:20:00 17.3 C 81 % 14.01 C
834 12-07-2016 21:25:00 17.4 C 79 % 13.72 C
835 12-07-2016 21:30:00 17.7 C 78 % 13.82 C
836 12-07-2016 21:35:00 17.8 C 78 % 13.91 C
837 12-07-2016 21:40:00 17.9 C 80 % 14.4 C
838 12-07-2016 21:45:00 17.8 C 83 % 14.88 C
839 12-07-2016 21:50:00 17.7 C 86 % 15.33 C
840 12-07-2016 21:55:00 17.5 C 86 % 15.13 C
841 12-07-2016 22:00:00 17.3 C 87 % 15.12 C
842 12-07-2016 22:05:00 17 C 87 % 14.82 C
843 12-07-2016 22:10:00 16.8 C 88 % 14.8 C
844 12-07-2016 22:15:00 16.6 C 89 % 14.78 C
845 12-07-2016 22:20:00 16.5 C 90 % 14.85 C
846 12-07-2016 22:25:00 16.4 C 90 % 14.76 C
847 12-07-2016 22:30:00 16.3 C 91 % 14.83 C
848 12-07-2016 22:35:00 16.3 C 91 % 14.83 C
849 12-07-2016 22:40:00 16.3 C 92 % 15 C
850 12-07-2016 22:45:00 16.2 C 92 % 14.9 C
Sensor: Nr:Datum:Temp:Feuchte:Taupunkt:
Aussen-T/F 851 12-07-2016 22:50:00 16.2 C 92 % 14.9 C
852 12-07-2016 22:55:00 16.1 C 92 % 14.8 C
853 12-07-2016 23:00:00 16 C 92 % 14.7 C
854 12-07-2016 23:05:00 15.9 C 92 % 14.6 C
855 12-07-2016 23:10:00 15.8 C 92 % 14.5 C
856 12-07-2016 23:15:00 15.7 C 92 % 14.4 C
857 12-07-2016 23:20:00 15.7 C 92 % 14.4 C
858 12-07-2016 23:25:00 15.6 C 92 % 14.31 C
859 12-07-2016 23:30:00 15.5 C 93 % 14.37 C
860 12-07-2016 23:35:00 15.4 C 93 % 14.27 C
861 12-07-2016 23:40:00 15.3 C 93 % 14.18 C
862 12-07-2016 23:45:00 15.3 C 93 % 14.18 C
863 12-07-2016 23:50:00 15.3 C 93 % 14.18 C
864 12-07-2016 23:55:00 15.3 C 94 % 14.34 C
865 13-07-2016 00:00:00 15.3 C 94 % 14.34 C
866 13-07-2016 00:05:00 15.2 C 94 % 14.24 C
867 13-07-2016 00:10:00 15.2 C 94 % 14.24 C
868 13-07-2016 00:15:00 15.1 C 94 % 14.14 C
869 13-07-2016 00:20:00 15.1 C 93 % 13.98 C
870 13-07-2016 00:25:00 15 C 93 % 13.88 C
871 13-07-2016 00:30:00 14.9 C 94 % 13.94 C
872 13-07-2016 00:35:00 14.9 C 94 % 13.94 C
873 13-07-2016 00:40:00 14.8 C 94 % 13.84 C
874 13-07-2016 00:45:00 14.7 C 93 % 13.58 C
875 13-07-2016 00:50:00 14.6 C 93 % 13.48 C
Sensor: Nr:Datum:Temp:Feuchte:Taupunkt:
Aussen-T/F 876 13-07-2016 00:55:00 14.5 C 93 % 13.38 C
877 13-07-2016 01:00:00 14.4 C 93 % 13.28 C
878 13-07-2016 01:05:00 14.3 C 93 % 13.18 C
879 13-07-2016 01:10:00 14.2 C 93 % 13.08 C
880 13-07-2016 01:15:00 14.2 C 94 % 13.25 C
881 13-07-2016 01:20:00 14.1 C 94 % 13.15 C
882 13-07-2016 01:25:00 14.1 C 94 % 13.15 C
883 13-07-2016 01:30:00 14 C 94 % 13.05 C
884 13-07-2016 01:35:00 13.9 C 94 % 12.95 C
885 13-07-2016 01:40:00 13.9 C 94 % 12.95 C
886 13-07-2016 01:45:00 13.9 C 94 % 12.95 C
887 13-07-2016 01:50:00 13.8 C 94 % 12.85 C
888 13-07-2016 01:55:00 13.8 C 94 % 12.85 C
889 13-07-2016 02:00:00 13.8 C 94 % 12.85 C
890 13-07-2016 02:05:00 13.8 C 94 % 12.85 C
891 13-07-2016 02:10:00 13.7 C 94 % 12.75 C
892 13-07-2016 02:15:00 13.7 C 94 % 12.75 C
893 13-07-2016 02:20:00 13.7 C 94 % 12.75 C
894 13-07-2016 02:25:00 13.6 C 94 % 12.65 C
895 13-07-2016 02:30:00 13.6 C 95 % 12.81 C
896 13-07-2016 02:35:00 13.6 C 95 % 12.81 C
897 13-07-2016 02:40:00 13.5 C 95 % 12.72 C
898 13-07-2016 02:45:00 13.4 C 94 % 12.45 C
899 13-07-2016 02:50:00 13.4 C 94 % 12.45 C
900 13-07-2016 02:55:00 13.3 C 94 % 12.36 C
Sensor: Nr:Datum:Temp:Feuchte:Taupunkt:
Aussen-T/F 901 13-07-2016 03:00:00 13.3 C 94 % 12.36 C
902 13-07-2016 03:05:00 13.3 C 95 % 12.52 C
903 13-07-2016 03:10:00 13.3 C 95 % 12.52 C
904 13-07-2016 03:15:00 13.3 C 95 % 12.52 C
905 13-07-2016 03:20:00 13.3 C 95 % 12.52 C
906 13-07-2016 03:25:00 13.2 C 95 % 12.42 C
907 13-07-2016 03:30:00 13.2 C 95 % 12.42 C
908 13-07-2016 03:35:00 13.2 C 95 % 12.42 C
909 13-07-2016 03:40:00 13.1 C 95 % 12.32 C
910 13-07-2016 03:45:00 13.1 C 95 % 12.32 C
911 13-07-2016 03:50:00 13 C 95 % 12.22 C
912 13-07-2016 03:55:00 12.9 C 95 % 12.12 C
913 13-07-2016 04:00:00 12.9 C 95 % 12.12 C
914 13-07-2016 04:05:00 12.8 C 95 % 12.02 C
915 13-07-2016 04:10:00 12.8 C 95 % 12.02 C
916 13-07-2016 04:15:00 12.7 C 95 % 11.92 C
917 13-07-2016 04:20:00 12.7 C 95 % 11.92 C
918 13-07-2016 04:25:00 12.6 C 95 % 11.82 C
919 13-07-2016 04:30:00 12.5 C 95 % 11.72 C
920 13-07-2016 04:35:00 12.4 C 95 % 11.62 C
921 13-07-2016 04:40:00 12.4 C 95 % 11.62 C
922 13-07-2016 04:45:00 12.4 C 95 % 11.62 C
923 13-07-2016 04:50:00 12.4 C 95 % 11.62 C
924 13-07-2016 04:55:00 12.4 C 95 % 11.62 C
925 13-07-2016 05:00:00 12.3 C 95 % 11.52 C
Sensor: Nr:Datum:Temp:Feuchte:Taupunkt:
Aussen-T/F 926 13-07-2016 05:05:00 12.3 C 95 % 11.52 C
927 13-07-2016 05:10:00 12.3 C 95 % 11.52 C
928 13-07-2016 05:15:00 12.4 C 95 % 11.62 C
929 13-07-2016 05:20:00 12.4 C 95 % 11.62 C
930 13-07-2016 05:25:00 12.3 C 95 % 11.52 C
931 13-07-2016 05:30:00 12.3 C 95 % 11.52 C
932 13-07-2016 05:35:00 12.2 C 95 % 11.42 C
933 13-07-2016 05:40:00 12.3 C 96 % 11.68 C
934 13-07-2016 05:45:00 12.3 C 96 % 11.68 C
935 13-07-2016 05:50:00 12.4 C 96 % 11.78 C
936 13-07-2016 05:55:00 12.5 C 96 % 11.88 C
937 13-07-2016 06:00:00 12.6 C 96 % 11.98 C
938 13-07-2016 06:05:00 12.7 C 96 % 12.08 C
939 13-07-2016 06:10:00 12.8 C 96 % 12.18 C
940 13-07-2016 06:15:00 12.8 C 96 % 12.18 C
941 13-07-2016 06:20:00 12.9 C 96 % 12.28 C
942 13-07-2016 06:25:00 12.9 C 96 % 12.28 C
943 13-07-2016 06:30:00 12.9 C 96 % 12.28 C
944 13-07-2016 06:35:00 12.9 C 96 % 12.28 C
945 13-07-2016 06:40:00 12.9 C 96 % 12.28 C
946 13-07-2016 06:45:00 13 C 96 % 12.38 C
947 13-07-2016 06:50:00 12.9 C 96 % 12.28 C
948 13-07-2016 06:55:00 12.9 C 96 % 12.28 C
949 13-07-2016 07:00:00 12.9 C 96 % 12.28 C
950 13-07-2016 07:05:00 12.9 C 96 % 12.28 C
Sensor: Nr:Datum:Temp:Feuchte:Taupunkt:
Aussen-T/F 951 13-07-2016 07:10:00 12.9 C 96 % 12.28 C
952 13-07-2016 07:15:00 12.9 C 96 % 12.28 C
953 13-07-2016 07:20:00 13.1 C 96 % 12.48 C
954 13-07-2016 07:25:00 13.1 C 96 % 12.48 C
955 13-07-2016 07:30:00 13.1 C 96 % 12.48 C
956 13-07-2016 07:35:00 13.2 C 96 % 12.58 C
957 13-07-2016 07:40:00 13.3 C 96 % 12.68 C
958 13-07-2016 07:45:00 13.3 C 96 % 12.68 C
959 13-07-2016 07:50:00 13.3 C 96 % 12.68 C
960 13-07-2016 07:55:00 13.3 C 96 % 12.68 C
961 13-07-2016 08:00:00 13.4 C 96 % 12.78 C
962 13-07-2016 08:05:00 13.4 C 96 % 12.78 C
963 13-07-2016 08:10:00 13.4 C 96 % 12.78 C
964 13-07-2016 08:15:00 13.5 C 96 % 12.87 C
965 13-07-2016 08:20:00 13.6 C 96 % 12.97 C
966 13-07-2016 08:25:00 13.7 C 96 % 13.07 C
967 13-07-2016 08:30:00 13.9 C 96 % 13.27 C
968 13-07-2016 08:35:00 14 C 96 % 13.37 C
969 13-07-2016 08:40:00 13.9 C 96 % 13.27 C
970 13-07-2016 08:45:00 13.9 C 96 % 13.27 C
971 13-07-2016 08:50:00 14 C 96 % 13.37 C
972 13-07-2016 08:55:00 14.1 C 96 % 13.47 C
973 13-07-2016 09:00:00 14.2 C 96 % 13.57 C
974 13-07-2016 09:05:00 14.4 C 96 % 13.77 C
975 13-07-2016 09:10:00 14.6 C 96 % 13.97 C
Sensor: Nr:Datum:Temp:Feuchte:Taupunkt:
Aussen-T/F 976 13-07-2016 09:15:00 14.8 C 96 % 14.17 C
977 13-07-2016 09:20:00 15 C 95 % 14.21 C
978 13-07-2016 09:25:00 15.2 C 95 % 14.4 C
979 13-07-2016 09:30:00 15.4 C 95 % 14.6 C
980 13-07-2016 09:35:00 15.6 C 94 % 14.64 C
981 13-07-2016 09:40:00 15.7 C 93 % 14.57 C
982 13-07-2016 09:45:00 15.8 C 90 % 14.16 C
983 13-07-2016 09:50:00 15.8 C 90 % 14.16 C
984 13-07-2016 09:55:00 16 C 89 % 14.19 C
985 13-07-2016 10:00:00 16.2 C 90 % 14.56 C
986 13-07-2016 10:05:00 16.3 C 89 % 14.48 C
987 13-07-2016 10:10:00 16.2 C 88 % 14.21 C
988 13-07-2016 10:15:00 16.2 C 87 % 14.03 C
989 13-07-2016 10:20:00 16.1 C 85 % 13.58 C
990 13-07-2016 10:25:00 16 C 85 % 13.48 C
991 13-07-2016 10:30:00 15.1 C 85 % 12.6 C
992 13-07-2016 10:35:00 14.2 C 87 % 12.07 C
993 13-07-2016 10:40:00 13.7 C 89 % 11.92 C
994 13-07-2016 10:45:00 13.3 C 91 % 11.86 C
995 13-07-2016 10:50:00 13.2 C 92 % 11.93 C
996 13-07-2016 10:55:00 13 C 92 % 11.73 C
997 13-07-2016 11:00:00 12.9 C 93 % 11.8 C
998 13-07-2016 11:05:00 12.9 C 93 % 11.8 C
999 13-07-2016 11:10:00 12.9 C 94 % 11.96 C
1000 13-07-2016 11:15:00 12.9 C 94 % 11.96 C
Sensor: Nr:Datum:Temp:Feuchte:Taupunkt:
Aussen-T/F 1001 13-07-2016 11:20:00 12.9 C 94 % 11.96 C
1002 13-07-2016 11:25:00 12.9 C 94 % 11.96 C
1003 13-07-2016 11:30:00 13 C 94 % 12.06 C
1004 13-07-2016 11:35:00 13.1 C 95 % 12.32 C
1005 13-07-2016 11:40:00 13.3 C 95 % 12.52 C
1006 13-07-2016 11:45:00 13.5 C 95 % 12.72 C
1007 13-07-2016 11:50:00 13.7 C 95 % 12.91 C
1008 13-07-2016 11:55:00 13.9 C 96 % 13.27 C
1009 13-07-2016 12:00:00 14.3 C 96 % 13.67 C
1010 13-07-2016 12:05:00 14.4 C 96 % 13.77 C
1011 13-07-2016 12:10:00 14.5 C 95 % 13.71 C
1012 13-07-2016 12:15:00 14.8 C 96 % 14.17 C
1013 13-07-2016 12:20:00 14.9 C 96 % 14.27 C
1014 13-07-2016 12:25:00 14.7 C 94 % 13.74 C
1015 13-07-2016 12:30:00 14.8 C 95 % 14.01 C
1016 13-07-2016 12:35:00 14.8 C 94 % 13.84 C
1017 13-07-2016 12:40:00 14.9 C 94 % 13.94 C
1018 13-07-2016 12:45:00 15 C 93 % 13.88 C
1019 13-07-2016 12:50:00 15.2 C 93 % 14.08 C
1020 13-07-2016 12:55:00 15.4 C 93 % 14.27 C
1021 13-07-2016 13:00:00 15.4 C 92 % 14.11 C
1022 13-07-2016 13:05:00 15.4 C 92 % 14.11 C
1023 13-07-2016 13:10:00 15.6 C 93 % 14.47 C
1024 13-07-2016 13:15:00 15.7 C 93 % 14.57 C
1025 13-07-2016 13:20:00 15.8 C 93 % 14.67 C
Sensor: Nr:Datum:Temp:Feuchte:Taupunkt:
Aussen-T/F 1026 13-07-2016 13:25:00 15.8 C 93 % 14.67 C
1027 13-07-2016 13:30:00 15.9 C 93 % 14.77 C
1028 13-07-2016 13:35:00 15.9 C 92 % 14.6 C
1029 13-07-2016 13:40:00 16 C 91 % 14.53 C
1030 13-07-2016 13:45:00 15.9 C 89 % 14.09 C
1031 13-07-2016 13:50:00 16.1 C 90 % 14.46 C
1032 13-07-2016 13:55:00 16.1 C 88 % 14.11 C
1033 13-07-2016 14:00:00 16.2 C 89 % 14.39 C
1034 13-07-2016 14:05:00 16.2 C 86 % 13.86 C
1035 13-07-2016 14:10:00 16.5 C 90 % 14.85 C
1036 13-07-2016 14:15:00 16.7 C 90 % 15.05 C
1037 13-07-2016 14:20:00 16.8 C 87 % 14.62 C
1038 13-07-2016 14:25:00 16.9 C 86 % 14.54 C
1039 13-07-2016 14:30:00 17.1 C 81 % 13.82 C
1040 13-07-2016 14:35:00 17.3 C 80 % 13.82 C
1041 13-07-2016 14:40:00 17.5 C 85 % 14.95 C
1042 13-07-2016 14:45:00 17.5 C 81 % 14.2 C
1043 13-07-2016 14:50:00 17.6 C 81 % 14.3 C
1044 13-07-2016 14:55:00 17.6 C 80 % 14.11 C
1045 13-07-2016 15:00:00 17.6 C 79 % 13.92 C
1046 13-07-2016 15:05:00 17.9 C 77 % 13.81 C
1047 13-07-2016 15:10:00 18.1 C 76 % 13.81 C
1048 13-07-2016 15:15:00 18.2 C 81 % 14.89 C
1049 13-07-2016 15:20:00 18.1 C 80 % 14.6 C
1050 13-07-2016 15:25:00 17.9 C 76 % 13.61 C
Sensor: Nr:Datum:Temp:Feuchte:Taupunkt:
Aussen-T/F 1051 13-07-2016 15:30:00 18.1 C 75 % 13.6 C
1052 13-07-2016 15:35:00 18.4 C 73 % 13.48 C
1053 13-07-2016 15:40:00 18.9 C 76 % 14.58 C
1054 13-07-2016 15:45:00 19.4 C 72 % 14.22 C
1055 13-07-2016 15:50:00 19.8 C 72 % 14.61 C
1056 13-07-2016 15:55:00 19.9 C 71 % 14.49 C
1057 13-07-2016 16:00:00 19.8 C 66 % 13.27 C
1058 13-07-2016 16:05:00 19.8 C 66 % 13.27 C
1059 13-07-2016 16:10:00 19.7 C 72 % 14.51 C
1060 13-07-2016 16:15:00 19.9 C 73 % 14.92 C
1061 13-07-2016 16:20:00 20.3 C 70 % 14.65 C
1062 13-07-2016 16:25:00 20.7 C 68 % 14.58 C
1063 13-07-2016 16:30:00 20.8 C 73 % 15.78 C
1064 13-07-2016 16:35:00 20.6 C 78 % 16.63 C
1065 13-07-2016 16:40:00 20.3 C 77 % 16.14 C
1066 13-07-2016 16:45:00 19.8 C 79 % 16.05 C
1067 13-07-2016 16:50:00 18.4 C 72 % 13.26 C
1068 13-07-2016 16:55:00 17.3 C 79 % 13.63 C
1069 13-07-2016 17:00:00 16.4 C 80 % 12.94 C
1070 13-07-2016 17:05:00 15.8 C 83 % 12.92 C
1071 13-07-2016 17:10:00 15.4 C 84 % 12.71 C
1072 13-07-2016 17:15:00 15.2 C 86 % 12.88 C
1073 13-07-2016 17:20:00 15.1 C 87 % 12.95 C
1074 13-07-2016 17:25:00 15.1 C 89 % 13.3 C
1075 13-07-2016 17:30:00 15.1 C 90 % 13.47 C
Sensor: Nr:Datum:Temp:Feuchte:Taupunkt:
Aussen-T/F 1076 13-07-2016 17:35:00 15.1 C 90 % 13.47 C
1077 13-07-2016 17:40:00 15 C 90 % 13.37 C
1078 13-07-2016 17:45:00 15 C 90 % 13.37 C
1079 13-07-2016 17:50:00 15.1 C 90 % 13.47 C
1080 13-07-2016 17:55:00 15.2 C 91 % 13.74 C
1081 13-07-2016 18:00:00 15.3 C 90 % 13.67 C
1082 13-07-2016 18:05:00 15.4 C 90 % 13.77 C
1083 13-07-2016 18:10:00 15.5 C 90 % 13.87 C
1084 13-07-2016 18:15:00 15.8 C 91 % 14.33 C
1085 13-07-2016 18:20:00 16 C 91 % 14.53 C
1086 13-07-2016 18:25:00 16.2 C 91 % 14.73 C
1087 13-07-2016 18:30:00 16.2 C 90 % 14.56 C
1088 13-07-2016 18:35:00 16.1 C 89 % 14.29 C
1089 13-07-2016 18:40:00 15.9 C 88 % 13.92 C
1090 13-07-2016 18:45:00 15.8 C 88 % 13.82 C
1091 13-07-2016 18:50:00 15.9 C 90 % 14.26 C
1092 13-07-2016 18:55:00 16.5 C 92 % 15.2 C
1093 13-07-2016 19:00:00 16.6 C 89 % 14.78 C
1094 13-07-2016 19:05:00 16.7 C 89 % 14.88 C
1095 13-07-2016 19:10:00 16.8 C 90 % 15.15 C
1096 13-07-2016 19:15:00 16.8 C 89 % 14.98 C
1097 13-07-2016 19:20:00 16.7 C 88 % 14.7 C
1098 13-07-2016 19:25:00 16.5 C 89 % 14.68 C
1099 13-07-2016 19:30:00 16.4 C 89 % 14.58 C
1100 13-07-2016 19:35:00 16.3 C 90 % 14.66 C
Sensor: Nr:Datum:Temp:Feuchte:Taupunkt:
Aussen-T/F 1101 13-07-2016 19:40:00 16.1 C 90 % 14.46 C
1102 13-07-2016 19:45:00 16 C 90 % 14.36 C
1103 13-07-2016 19:50:00 15.9 C 91 % 14.43 C
1104 13-07-2016 19:55:00 15.8 C 91 % 14.33 C
1105 13-07-2016 20:00:00 15.7 C 91 % 14.24 C
1106 13-07-2016 20:05:00 15.7 C 91 % 14.24 C
1107 13-07-2016 20:10:00 15.6 C 91 % 14.14 C
1108 13-07-2016 20:15:00 15.6 C 92 % 14.31 C
1109 13-07-2016 20:20:00 15.4 C 92 % 14.11 C
1110 13-07-2016 20:25:00 15.3 C 92 % 14.01 C
1111 13-07-2016 20:30:00 15.2 C 92 % 13.91 C
1112 13-07-2016 20:35:00 15.1 C 92 % 13.81 C
1113 13-07-2016 20:40:00 15 C 93 % 13.88 C
1114 13-07-2016 20:45:00 14.9 C 93 % 13.78 C
1115 13-07-2016 20:50:00 14.7 C 92 % 13.41 C
1116 13-07-2016 20:55:00 14.5 C 92 % 13.22 C
1117 13-07-2016 21:00:00 14.4 C 92 % 13.12 C
1118 13-07-2016 21:05:00 14.3 C 93 % 13.18 C
1119 13-07-2016 21:10:00 14.2 C 93 % 13.08 C
1120 13-07-2016 21:15:00 14.2 C 93 % 13.08 C
1121 13-07-2016 21:20:00 14.2 C 94 % 13.25 C
1122 13-07-2016 21:25:00 14.1 C 94 % 13.15 C
1123 13-07-2016 21:30:00 14 C 94 % 13.05 C
1124 13-07-2016 21:35:00 13.9 C 94 % 12.95 C
1125 13-07-2016 21:40:00 13.8 C 94 % 12.85 C
Sensor: Nr:Datum:Temp:Feuchte:Taupunkt:
Aussen-T/F 1126 13-07-2016 21:45:00 13.8 C 94 % 12.85 C
1127 13-07-2016 21:50:00 13.7 C 94 % 12.75 C
1128 13-07-2016 21:55:00 13.7 C 94 % 12.75 C
1129 13-07-2016 22:00:00 13.6 C 94 % 12.65 C
1130 13-07-2016 22:05:00 13.6 C 94 % 12.65 C
1131 13-07-2016 22:10:00 13.4 C 94 % 12.45 C
1132 13-07-2016 22:15:00 13.4 C 94 % 12.45 C
1133 13-07-2016 22:20:00 13.3 C 94 % 12.36 C
1134 13-07-2016 22:25:00 13.4 C 95 % 12.62 C
1135 13-07-2016 22:30:00 13.4 C 95 % 12.62 C
1136 13-07-2016 22:35:00 13.3 C 95 % 12.52 C
1137 13-07-2016 22:40:00 13.3 C 95 % 12.52 C
1138 13-07-2016 22:45:00 13.3 C 95 % 12.52 C
1139 13-07-2016 22:50:00 13.3 C 95 % 12.52 C
1140 13-07-2016 22:55:00 13.3 C 95 % 12.52 C
1141 13-07-2016 23:00:00 13.3 C 95 % 12.52 C
1142 13-07-2016 23:05:00 13.3 C 95 % 12.52 C
1143 13-07-2016 23:10:00 13.3 C 95 % 12.52 C
1144 13-07-2016 23:15:00 13.3 C 95 % 12.52 C
1145 13-07-2016 23:20:00 13.3 C 95 % 12.52 C
1146 13-07-2016 23:25:00 13.3 C 95 % 12.52 C
1147 13-07-2016 23:30:00 13.3 C 95 % 12.52 C
1148 13-07-2016 23:35:00 13.3 C 95 % 12.52 C
1149 13-07-2016 23:40:00 13.3 C 96 % 12.68 C
1150 13-07-2016 23:45:00 13.3 C 96 % 12.68 C
Sensor: Nr:Datum:Temp:Feuchte:Taupunkt:
Aussen-T/F 1151 13-07-2016 23:50:00 13.4 C 96 % 12.78 C
1152 13-07-2016 23:55:00 13.4 C 96 % 12.78 C
1153 14-07-2016 00:00:00 13.4 C 96 % 12.78 C
1154 14-07-2016 00:05:00 13.4 C 96 % 12.78 C
1155 14-07-2016 00:10:00 13.4 C 96 % 12.78 C
1156 14-07-2016 00:15:00 13.4 C 96 % 12.78 C
1157 14-07-2016 00:20:00 13.3 C 96 % 12.68 C
1158 14-07-2016 00:25:00 13.4 C 96 % 12.78 C
1159 14-07-2016 00:30:00 13.3 C 96 % 12.68 C
1160 14-07-2016 00:35:00 13.4 C 96 % 12.78 C
1161 14-07-2016 00:40:00 13.3 C 96 % 12.68 C
1162 14-07-2016 00:45:00 13.3 C 96 % 12.68 C
1163 14-07-2016 00:50:00 13.4 C 96 % 12.78 C
1164 14-07-2016 00:55:00 13.3 C 96 % 12.68 C
1165 14-07-2016 01:00:00 13.3 C 96 % 12.68 C
1166 14-07-2016 01:05:00 13.2 C 95 % 12.42 C
1167 14-07-2016 01:10:00 13.1 C 95 % 12.32 C
1168 14-07-2016 01:15:00 13.1 C 95 % 12.32 C
1169 14-07-2016 01:20:00 13 C 95 % 12.22 C
1170 14-07-2016 01:25:00 12.9 C 95 % 12.12 C
1171 14-07-2016 01:30:00 12.8 C 95 % 12.02 C
1172 14-07-2016 01:35:00 12.7 C 95 % 11.92 C
1173 14-07-2016 01:40:00 12.6 C 95 % 11.82 C
1174 14-07-2016 01:45:00 12.5 C 95 % 11.72 C
1175 14-07-2016 01:50:00 12.4 C 95 % 11.62 C
Sensor: Nr:Datum:Temp:Feuchte:Taupunkt:
Aussen-T/F 1176 14-07-2016 01:55:00 12.4 C 95 % 11.62 C
1177 14-07-2016 02:00:00 12.3 C 95 % 11.52 C
1178 14-07-2016 02:05:00 12.3 C 95 % 11.52 C
1179 14-07-2016 02:10:00 12.3 C 95 % 11.52 C
1180 14-07-2016 02:15:00 12.3 C 95 % 11.52 C
1181 14-07-2016 02:20:00 12.2 C 95 % 11.42 C
1182 14-07-2016 02:25:00 12.2 C 95 % 11.42 C
1183 14-07-2016 02:30:00 12.2 C 95 % 11.42 C
1184 14-07-2016 02:35:00 12.2 C 95 % 11.42 C
1185 14-07-2016 02:40:00 12.1 C 95 % 11.32 C
1186 14-07-2016 02:45:00 11.9 C 95 % 11.13 C
1187 14-07-2016 02:50:00 11.9 C 95 % 11.13 C
1188 14-07-2016 02:55:00 11.8 C 95 % 11.03 C
1189 14-07-2016 03:00:00 11.7 C 95 % 10.93 C
1190 14-07-2016 03:05:00 11.7 C 95 % 10.93 C
1191 14-07-2016 03:10:00 11.6 C 95 % 10.83 C
1192 14-07-2016 03:15:00 11.6 C 95 % 10.83 C
1193 14-07-2016 03:20:00 11.6 C 95 % 10.83 C
1194 14-07-2016 03:25:00 11.5 C 95 % 10.73 C
1195 14-07-2016 03:30:00 11.5 C 95 % 10.73 C
1196 14-07-2016 03:35:00 11.5 C 95 % 10.73 C
1197 14-07-2016 03:40:00 11.4 C 95 % 10.63 C
1198 14-07-2016 03:45:00 11.4 C 95 % 10.63 C
1199 14-07-2016 03:50:00 11.4 C 95 % 10.63 C
1200 14-07-2016 03:55:00 11.4 C 95 % 10.63 C
Sensor: Nr:Datum:Temp:Feuchte:Taupunkt:
Aussen-T/F 1201 14-07-2016 04:00:00 11.4 C 96 % 10.79 C
1202 14-07-2016 04:05:00 11.4 C 96 % 10.79 C
1203 14-07-2016 04:10:00 11.4 C 96 % 10.79 C
1204 14-07-2016 04:15:00 11.4 C 96 % 10.79 C
1205 14-07-2016 04:20:00 11.4 C 96 % 10.79 C
1206 14-07-2016 04:25:00 11.4 C 96 % 10.79 C
1207 14-07-2016 04:30:00 11.4 C 96 % 10.79 C
1208 14-07-2016 04:35:00 11.3 C 96 % 10.69 C
1209 14-07-2016 04:40:00 11.3 C 96 % 10.69 C
1210 14-07-2016 04:45:00 11.2 C 96 % 10.59 C
1211 14-07-2016 04:50:00 11.2 C 96 % 10.59 C
1212 14-07-2016 04:55:00 11.2 C 95 % 10.43 C
1213 14-07-2016 05:00:00 11.1 C 96 % 10.49 C
1214 14-07-2016 05:05:00 11.1 C 96 % 10.49 C
1215 14-07-2016 05:10:00 11.1 C 96 % 10.49 C
1216 14-07-2016 05:15:00 11.1 C 96 % 10.49 C
1217 14-07-2016 05:20:00 11.1 C 96 % 10.49 C
1218 14-07-2016 05:25:00 11 C 96 % 10.39 C
1219 14-07-2016 05:30:00 10.9 C 96 % 10.29 C
1220 14-07-2016 05:35:00 11 C 96 % 10.39 C
1221 14-07-2016 05:40:00 11 C 96 % 10.39 C
1222 14-07-2016 05:45:00 11.1 C 96 % 10.49 C
1223 14-07-2016 05:50:00 11.1 C 96 % 10.49 C
1224 14-07-2016 05:55:00 11.1 C 96 % 10.49 C
1225 14-07-2016 06:00:00 11.2 C 96 % 10.59 C
Sensor: Nr:Datum:Temp:Feuchte:Taupunkt:
Aussen-T/F 1226 14-07-2016 06:05:00 11.2 C 96 % 10.59 C
1227 14-07-2016 06:10:00 11.2 C 96 % 10.59 C
1228 14-07-2016 06:15:00 11.1 C 96 % 10.49 C
1229 14-07-2016 06:20:00 11.1 C 96 % 10.49 C
1230 14-07-2016 06:25:00 11 C 96 % 10.39 C
1231 14-07-2016 06:30:00 10.9 C 96 % 10.29 C
1232 14-07-2016 06:35:00 10.9 C 96 % 10.29 C
1233 14-07-2016 06:40:00 10.9 C 96 % 10.29 C
1234 14-07-2016 06:45:00 10.9 C 96 % 10.29 C
1235 14-07-2016 06:50:00 10.9 C 96 % 10.29 C
1236 14-07-2016 06:55:00 11 C 96 % 10.39 C
1237 14-07-2016 07:00:00 11.1 C 96 % 10.49 C
1238 14-07-2016 07:05:00 11.2 C 96 % 10.59 C
1239 14-07-2016 07:10:00 11.2 C 96 % 10.59 C
1240 14-07-2016 07:15:00 11.3 C 96 % 10.69 C
1241 14-07-2016 07:20:00 11.3 C 96 % 10.69 C
1242 14-07-2016 07:25:00 11.4 C 96 % 10.79 C
1243 14-07-2016 07:30:00 11.4 C 96 % 10.79 C
1244 14-07-2016 07:35:00 11.5 C 96 % 10.88 C
1245 14-07-2016 07:40:00 11.6 C 96 % 10.98 C
1246 14-07-2016 07:45:00 11.6 C 96 % 10.98 C
1247 14-07-2016 07:50:00 11.7 C 96 % 11.08 C
1248 14-07-2016 07:55:00 11.8 C 96 % 11.18 C
1249 14-07-2016 08:00:00 12.1 C 97 % 11.64 C
1250 14-07-2016 08:05:00 12.2 C 97 % 11.74 C
Sensor: Nr:Datum:Temp:Feuchte:Taupunkt:
Aussen-T/F 1251 14-07-2016 08:10:00 12.3 C 96 % 11.68 C
1252 14-07-2016 08:15:00 12.4 C 97 % 11.94 C
1253 14-07-2016 08:20:00 12.4 C 96 % 11.78 C
1254 14-07-2016 08:25:00 12.6 C 96 % 11.98 C
1255 14-07-2016 08:30:00 12.6 C 95 % 11.82 C
1256 14-07-2016 08:35:00 12.6 C 94 % 11.66 C
1257 14-07-2016 08:40:00 12.6 C 94 % 11.66 C
1258 14-07-2016 08:45:00 12.7 C 93 % 11.6 C
1259 14-07-2016 08:50:00 12.9 C 93 % 11.8 C
1260 14-07-2016 08:55:00 13.2 C 92 % 11.93 C
1261 14-07-2016 09:00:00 13.4 C 91 % 11.96 C
1262 14-07-2016 09:05:00 13.7 C 91 % 12.26 C
1263 14-07-2016 09:10:00 13.8 C 89 % 12.02 C
1264 14-07-2016 09:15:00 13.9 C 87 % 11.77 C
1265 14-07-2016 09:20:00 14 C 86 % 11.7 C
1266 14-07-2016 09:25:00 14.1 C 86 % 11.8 C
1267 14-07-2016 09:30:00 14.1 C 86 % 11.8 C
1268 14-07-2016 09:35:00 14.2 C 86 % 11.89 C
1269 14-07-2016 09:40:00 14.2 C 86 % 11.89 C
1270 14-07-2016 09:45:00 14.3 C 82 % 11.27 C
1271 14-07-2016 09:50:00 14.4 C 85 % 11.91 C
1272 14-07-2016 09:55:00 14.5 C 83 % 11.65 C
1273 14-07-2016 10:00:00 14.6 C 83 % 11.75 C
1274 14-07-2016 10:05:00 14.7 C 82 % 11.66 C
1275 14-07-2016 10:10:00 14.8 C 84 % 12.12 C
Sensor: Nr:Datum:Temp:Feuchte:Taupunkt:
Aussen-T/F 1276 14-07-2016 10:15:00 15.1 C 82 % 12.05 C
1277 14-07-2016 10:20:00 15.2 C 81 % 11.96 C
1278 14-07-2016 10:25:00 15.2 C 77 % 11.2 C
1279 14-07-2016 10:30:00 15.3 C 80 % 11.87 C
1280 14-07-2016 10:35:00 15.4 C 78 % 11.59 C
1281 14-07-2016 10:40:00 15.5 C 79 % 11.88 C
1282 14-07-2016 10:45:00 15.5 C 79 % 11.88 C
1283 14-07-2016 10:50:00 15.5 C 78 % 11.68 C
1284 14-07-2016 10:55:00 15.4 C 79 % 11.78 C
1285 14-07-2016 11:00:00 15.5 C 77 % 11.49 C
1286 14-07-2016 11:05:00 15.7 C 75 % 11.28 C
1287 14-07-2016 11:10:00 15.8 C 74 % 11.18 C
1288 14-07-2016 11:15:00 15.9 C 74 % 11.28 C
1289 14-07-2016 11:20:00 16 C 75 % 11.57 C
1290 14-07-2016 11:25:00 16.1 C 76 % 11.87 C
1291 14-07-2016 11:30:00 16.1 C 72 % 11.06 C
1292 14-07-2016 11:35:00 16.1 C 73 % 11.26 C
1293 14-07-2016 11:40:00 16.1 C 69 % 10.42 C
1294 14-07-2016 11:45:00 16 C 70 % 10.54 C
1295 14-07-2016 11:50:00 16.1 C 68 % 10.2 C
1296 14-07-2016 11:55:00 16.1 C 69 % 10.42 C
1297 14-07-2016 12:00:00 16.1 C 68 % 10.2 C
1298 14-07-2016 12:05:00 16.2 C 68 % 10.29 C
1299 14-07-2016 12:10:00 16.3 C 68 % 10.39 C
1300 14-07-2016 12:15:00 16.4 C 67 % 10.26 C
Sensor: Nr:Datum:Temp:Feuchte:Taupunkt:
Aussen-T/F 1301 14-07-2016 12:20:00 16.4 C 72 % 11.34 C
1302 14-07-2016 12:25:00 16.3 C 69 % 10.61 C
1303 14-07-2016 12:30:00 16.4 C 71 % 11.13 C
1304 14-07-2016 12:35:00 16.7 C 68 % 10.77 C
1305 14-07-2016 12:40:00 16.9 C 67 % 10.74 C
1306 14-07-2016 12:45:00 16.9 C 66 % 10.51 C
1307 14-07-2016 12:50:00 16.9 C 65 % 10.28 C
1308 14-07-2016 12:55:00 17 C 66 % 10.61 C
1309 14-07-2016 13:00:00 17.2 C 66 % 10.8 C
1310 14-07-2016 13:05:00 17.3 C 65 % 10.66 C
1311 14-07-2016 13:10:00 17.4 C 65 % 10.76 C
1312 14-07-2016 13:15:00 17.6 C 61 % 10 C
1313 14-07-2016 13:20:00 17.7 C 58 % 9.34 C
1314 14-07-2016 13:25:00 17.7 C 59 % 9.59 C
1315 14-07-2016 13:30:00 17.6 C 61 % 10 C
1316 14-07-2016 13:35:00 17.5 C 61 % 9.9 C
1317 14-07-2016 13:40:00 17.4 C 64 % 10.53 C
1318 14-07-2016 13:45:00 17.4 C 63 % 10.29 C
1319 14-07-2016 13:50:00 17.6 C 64 % 10.72 C
1320 14-07-2016 13:55:00 17.6 C 61 % 10 C
1321 14-07-2016 14:00:00 17.6 C 62 % 10.24 C
1322 14-07-2016 14:05:00 17.7 C 63 % 10.57 C
1323 14-07-2016 14:10:00 17.9 C 61 % 10.28 C
1324 14-07-2016 14:15:00 18.2 C 60 % 10.31 C
1325 14-07-2016 14:20:00 18.2 C 59 % 10.06 C
Sensor: Nr:Datum:Temp:Feuchte:Taupunkt:
Aussen-T/F 1326 14-07-2016 14:25:00 18.3 C 61 % 10.66 C
1327 14-07-2016 14:30:00 18.3 C 61 % 10.66 C
1328 14-07-2016 14:35:00 18.1 C 61 % 10.47 C
1329 14-07-2016 14:40:00 18.1 C 60 % 10.22 C
1330 14-07-2016 14:45:00 18.1 C 58 % 9.71 C
1331 14-07-2016 14:50:00 18.1 C 59 % 9.97 C
1332 14-07-2016 14:55:00 18.2 C 59 % 10.06 C
1333 14-07-2016 15:00:00 18.2 C 57 % 9.55 C
1334 14-07-2016 15:05:00 18.1 C 56 % 9.19 C
1335 14-07-2016 15:10:00 18.1 C 57 % 9.46 C
1336 14-07-2016 15:15:00 18.1 C 58 % 9.71 C
1337 14-07-2016 15:20:00 18.1 C 59 % 9.97 C
1338 14-07-2016 15:25:00 18.1 C 60 % 10.22 C
1339 14-07-2016 15:30:00 18.3 C 60 % 10.41 C
1340 14-07-2016 15:35:00 18.6 C 60 % 10.69 C
1341 14-07-2016 15:40:00 18.9 C 60 % 10.97 C
1342 14-07-2016 15:45:00 18.7 C 60 % 10.78 C
1343 14-07-2016 15:50:00 18 C 61 % 10.37 C
1344 14-07-2016 15:55:00 17.5 C 62 % 10.15 C
1345 14-07-2016 16:00:00 17.1 C 64 % 10.24 C
1346 14-07-2016 16:05:00 16.9 C 68 % 10.96 C
1347 14-07-2016 16:10:00 16.7 C 70 % 11.21 C
1348 14-07-2016 16:15:00 16.6 C 71 % 11.32 C
1349 14-07-2016 16:20:00 16.6 C 68 % 10.67 C
1350 14-07-2016 16:25:00 16.7 C 73 % 11.84 C
Sensor: Nr:Datum:Temp:Feuchte:Taupunkt:
Aussen-T/F 1351 14-07-2016 16:30:00 17.5 C 69 % 11.75 C
1352 14-07-2016 16:35:00 18.4 C 67 % 12.17 C
1353 14-07-2016 16:40:00 18.8 C 60 % 10.88 C
1354 14-07-2016 16:45:00 19.4 C 59 % 11.19 C
1355 14-07-2016 16:50:00 19.8 C 57 % 11.04 C
1356 14-07-2016 16:55:00 20.1 C 57 % 11.32 C
1357 14-07-2016 17:00:00 20 C 52 % 9.85 C
1358 14-07-2016 17:05:00 19.6 C 56 % 10.59 C
1359 14-07-2016 17:10:00 19.1 C 56 % 10.12 C
1360 14-07-2016 17:15:00 18.5 C 60 % 10.6 C
1361 14-07-2016 17:20:00 17.6 C 65 % 10.95 C
1362 14-07-2016 17:25:00 17 C 67 % 10.83 C
1363 14-07-2016 17:30:00 16.9 C 68 % 10.96 C
1364 14-07-2016 17:35:00 17.1 C 67 % 10.93 C
1365 14-07-2016 17:40:00 17.2 C 64 % 10.34 C
1366 14-07-2016 17:45:00 17.3 C 63 % 10.2 C
1367 14-07-2016 17:50:00 17.5 C 62 % 10.15 C
1368 14-07-2016 17:55:00 17.6 C 66 % 11.18 C
1369 14-07-2016 18:00:00 17.7 C 67 % 11.5 C
1370 14-07-2016 18:05:00 18.1 C 69 % 12.33 C
1371 14-07-2016 18:10:00 18.6 C 66 % 12.13 C
1372 14-07-2016 18:15:00 18.8 C 60 % 10.88 C
1373 14-07-2016 18:20:00 18.7 C 60 % 10.78 C
1374 14-07-2016 18:25:00 18.6 C 61 % 10.94 C
1375 14-07-2016 18:30:00 18.7 C 60 % 10.78 C
Sensor: Nr:Datum:Temp:Feuchte:Taupunkt:
Aussen-T/F 1376 14-07-2016 18:35:00 18.6 C 59 % 10.44 C
1377 14-07-2016 18:40:00 18.4 C 60 % 10.5 C
1378 14-07-2016 18:45:00 18.5 C 63 % 11.33 C
1379 14-07-2016 18:50:00 18.7 C 61 % 11.03 C
1380 14-07-2016 18:55:00 18.9 C 62 % 11.47 C
1381 14-07-2016 19:00:00 19.4 C 58 % 10.93 C
1382 14-07-2016 19:05:00 19.8 C 59 % 11.56 C
1383 14-07-2016 19:10:00 20.1 C 56 % 11.06 C
1384 14-07-2016 19:15:00 20.1 C 54 % 10.51 C
1385 14-07-2016 19:20:00 20.2 C 57 % 11.42 C
1386 14-07-2016 19:25:00 20.1 C 56 % 11.06 C
1387 14-07-2016 19:30:00 19.9 C 58 % 11.4 C
1388 14-07-2016 19:35:00 19.5 C 61 % 11.78 C
1389 14-07-2016 19:40:00 19.3 C 63 % 12.09 C
1390 14-07-2016 19:45:00 18.8 C 59 % 10.63 C
1391 14-07-2016 19:50:00 18.4 C 62 % 10.99 C
1392 14-07-2016 19:55:00 18.2 C 65 % 11.52 C
1393 14-07-2016 20:00:00 18.1 C 65 % 11.42 C
1394 14-07-2016 20:05:00 18.1 C 64 % 11.19 C
1395 14-07-2016 20:10:00 17.8 C 66 % 11.37 C
1396 14-07-2016 20:15:00 17.7 C 69 % 11.95 C
1397 14-07-2016 20:20:00 17.7 C 70 % 12.16 C
1398 14-07-2016 20:25:00 17.6 C 70 % 12.07 C
1399 14-07-2016 20:30:00 17.4 C 72 % 12.3 C
1400 14-07-2016 20:35:00 17.3 C 72 % 12.21 C
Sensor: Nr:Datum:Temp:Feuchte:Taupunkt:
Aussen-T/F 1401 14-07-2016 20:40:00 17.2 C 72 % 12.11 C
1402 14-07-2016 20:45:00 17.1 C 72 % 12.02 C
1403 14-07-2016 20:50:00 16.8 C 73 % 11.94 C
1404 14-07-2016 20:55:00 16.6 C 73 % 11.74 C
1405 14-07-2016 21:00:00 16.3 C 75 % 11.86 C
1406 14-07-2016 21:05:00 16.1 C 75 % 11.67 C
1407 14-07-2016 21:10:00 15.8 C 76 % 11.58 C
1408 14-07-2016 21:15:00 15.6 C 78 % 11.78 C
1409 14-07-2016 21:20:00 15.4 C 78 % 11.59 C
1410 14-07-2016 21:25:00 15.3 C 79 % 11.68 C
1411 14-07-2016 21:30:00 15.2 C 78 % 11.39 C
1412 14-07-2016 21:35:00 15.1 C 79 % 11.49 C
1413 14-07-2016 21:40:00 15.1 C 79 % 11.49 C
1414 14-07-2016 21:45:00 15.1 C 80 % 11.68 C
1415 14-07-2016 21:50:00 15.1 C 81 % 11.87 C
1416 14-07-2016 21:55:00 15.1 C 82 % 12.05 C
1417 14-07-2016 22:00:00 15.1 C 82 % 12.05 C
1418 14-07-2016 22:05:00 15 C 82 % 11.95 C
1419 14-07-2016 22:10:00 14.9 C 82 % 11.86 C
1420 14-07-2016 22:15:00 14.9 C 83 % 12.04 C
1421 14-07-2016 22:20:00 14.9 C 83 % 12.04 C
1422 14-07-2016 22:25:00 14.8 C 83 % 11.94 C
1423 14-07-2016 22:30:00 14.8 C 83 % 11.94 C
1424 14-07-2016 22:35:00 14.7 C 83 % 11.85 C
1425 14-07-2016 22:40:00 14.7 C 84 % 12.03 C
Sensor: Nr:Datum:Temp:Feuchte:Taupunkt:
Aussen-T/F 1426 14-07-2016 22:45:00 14.6 C 84 % 11.93 C
1427 14-07-2016 22:50:00 14.6 C 82 % 11.56 C
1428 14-07-2016 22:55:00 14.6 C 77 % 10.62 C
1429 14-07-2016 23:00:00 14.8 C 76 % 10.61 C
1430 14-07-2016 23:05:00 14.9 C 79 % 11.29 C
1431 14-07-2016 23:10:00 14.8 C 77 % 10.81 C
1432 14-07-2016 23:15:00 14.7 C 78 % 10.91 C
1433 14-07-2016 23:20:00 14.5 C 77 % 10.52 C
1434 14-07-2016 23:25:00 14.3 C 78 % 10.52 C
1435 14-07-2016 23:30:00 14.2 C 77 % 10.23 C
1436 14-07-2016 23:35:00 14.2 C 76 % 10.03 C
1437 14-07-2016 23:40:00 14.2 C 77 % 10.23 C
1438 14-07-2016 23:45:00 14.2 C 79 % 10.61 C
1439 14-07-2016 23:50:00 14.1 C 78 % 10.33 C
1440 14-07-2016 23:55:00 13.9 C 77 % 9.94 C
1441 15-07-2016 00:00:00 13.8 C 78 % 10.03 C
1442 15-07-2016 00:05:00 13.7 C 79 % 10.13 C
1443 15-07-2016 00:10:00 13.6 C 79 % 10.03 C
1444 15-07-2016 00:15:00 13.5 C 80 % 10.12 C
1445 15-07-2016 00:20:00 13.4 C 80 % 10.02 C
1446 15-07-2016 00:25:00 13.4 C 81 % 10.21 C
1447 15-07-2016 00:30:00 13.4 C 81 % 10.21 C
1448 15-07-2016 00:35:00 13.3 C 81 % 10.11 C
1449 15-07-2016 00:40:00 13.3 C 82 % 10.3 C
1450 15-07-2016 00:45:00 13.2 C 83 % 10.38 C
Sensor: Nr:Datum:Temp:Feuchte:Taupunkt:
Aussen-T/F 1451 15-07-2016 00:50:00 13.1 C 83 % 10.28 C
1452 15-07-2016 00:55:00 13.1 C 83 % 10.28 C
1453 15-07-2016 01:00:00 13 C 83 % 10.18 C
1454 15-07-2016 01:05:00 12.9 C 84 % 10.26 C
1455 15-07-2016 01:10:00 12.9 C 84 % 10.26 C
1456 15-07-2016 01:15:00 12.9 C 84 % 10.26 C
1457 15-07-2016 01:20:00 12.9 C 85 % 10.44 C
1458 15-07-2016 01:25:00 13 C 85 % 10.54 C
1459 15-07-2016 01:30:00 13 C 84 % 10.36 C
1460 15-07-2016 01:35:00 13 C 84 % 10.36 C
1461 15-07-2016 01:40:00 13 C 84 % 10.36 C
1462 15-07-2016 01:45:00 13 C 85 % 10.54 C
1463 15-07-2016 01:50:00 12.9 C 85 % 10.44 C
1464 15-07-2016 01:55:00 12.9 C 85 % 10.44 C
1465 15-07-2016 02:00:00 12.9 C 86 % 10.62 C
1466 15-07-2016 02:05:00 12.9 C 87 % 10.79 C
1467 15-07-2016 02:10:00 12.9 C 87 % 10.79 C
1468 15-07-2016 02:15:00 12.9 C 86 % 10.62 C
1469 15-07-2016 02:20:00 12.9 C 87 % 10.79 C
1470 15-07-2016 02:25:00 13 C 87 % 10.89 C
1471 15-07-2016 02:30:00 13.1 C 87 % 10.99 C
1472 15-07-2016 02:35:00 13 C 86 % 10.72 C
1473 15-07-2016 02:40:00 12.9 C 86 % 10.62 C
1474 15-07-2016 02:45:00 12.9 C 86 % 10.62 C
1475 15-07-2016 02:50:00 12.8 C 86 % 10.52 C
Sensor: Nr:Datum:Temp:Feuchte:Taupunkt:
Aussen-T/F 1476 15-07-2016 02:55:00 12.7 C 86 % 10.42 C
1477 15-07-2016 03:00:00 12.6 C 86 % 10.32 C
1478 15-07-2016 03:05:00 12.4 C 87 % 10.3 C
1479 15-07-2016 03:10:00 12.3 C 87 % 10.2 C
1480 15-07-2016 03:15:00 12.2 C 88 % 10.27 C
1481 15-07-2016 03:20:00 12.2 C 88 % 10.27 C
1482 15-07-2016 03:25:00 12.2 C 88 % 10.27 C
1483 15-07-2016 03:30:00 12.2 C 89 % 10.44 C
1484 15-07-2016 03:35:00 12.1 C 89 % 10.34 C
1485 15-07-2016 03:40:00 12 C 88 % 10.08 C
1486 15-07-2016 03:45:00 11.9 C 88 % 9.98 C
1487 15-07-2016 03:50:00 11.9 C 88 % 9.98 C
1488 15-07-2016 03:55:00 11.8 C 88 % 9.88 C
1489 15-07-2016 04:00:00 11.8 C 88 % 9.88 C
1490 15-07-2016 04:05:00 11.7 C 89 % 9.95 C
1491 15-07-2016 04:10:00 11.7 C 89 % 9.95 C
1492 15-07-2016 04:15:00 11.7 C 88 % 9.78 C
1493 15-07-2016 04:20:00 11.7 C 89 % 9.95 C
1494 15-07-2016 04:25:00 11.8 C 89 % 10.05 C
1495 15-07-2016 04:30:00 11.8 C 89 % 10.05 C
1496 15-07-2016 04:35:00 11.8 C 89 % 10.05 C
1497 15-07-2016 04:40:00 11.8 C 89 % 10.05 C
1498 15-07-2016 04:45:00 11.9 C 88 % 9.98 C
1499 15-07-2016 04:50:00 11.9 C 89 % 10.15 C
1500 15-07-2016 04:55:00 11.9 C 88 % 9.98 C
Sensor: Nr:Datum:Temp:Feuchte:Taupunkt:
Aussen-T/F 1501 15-07-2016 05:00:00 11.9 C 88 % 9.98 C
1502 15-07-2016 05:05:00 11.9 C 88 % 9.98 C
1503 15-07-2016 05:10:00 11.9 C 88 % 9.98 C
1504 15-07-2016 05:15:00 11.9 C 87 % 9.81 C
1505 15-07-2016 05:20:00 11.9 C 88 % 9.98 C
1506 15-07-2016 05:25:00 11.9 C 88 % 9.98 C
1507 15-07-2016 05:30:00 12 C 88 % 10.08 C
1508 15-07-2016 05:35:00 12 C 88 % 10.08 C
1509 15-07-2016 05:40:00 12 C 87 % 9.91 C
1510 15-07-2016 05:45:00 12.1 C 88 % 10.17 C
1511 15-07-2016 05:50:00 12.2 C 88 % 10.27 C
1512 15-07-2016 05:55:00 12.2 C 88 % 10.27 C
1513 15-07-2016 06:00:00 12.2 C 88 % 10.27 C
1514 15-07-2016 06:05:00 12.2 C 88 % 10.27 C
1515 15-07-2016 06:10:00 12.3 C 88 % 10.37 C
1516 15-07-2016 06:15:00 12.3 C 89 % 10.54 C
1517 15-07-2016 06:20:00 12.3 C 88 % 10.37 C
1518 15-07-2016 06:25:00 12.3 C 88 % 10.37 C
1519 15-07-2016 06:30:00 12.3 C 88 % 10.37 C
1520 15-07-2016 06:35:00 12.3 C 87 % 10.2 C
1521 15-07-2016 06:40:00 12.2 C 87 % 10.1 C
1522 15-07-2016 06:45:00 12.3 C 87 % 10.2 C
1523 15-07-2016 06:50:00 12.3 C 86 % 10.03 C
1524 15-07-2016 06:55:00 12.3 C 86 % 10.03 C
1525 15-07-2016 07:00:00 12.3 C 87 % 10.2 C
Sensor: Nr:Datum:Temp:Feuchte:Taupunkt:
Aussen-T/F 1526 15-07-2016 07:05:00 12.4 C 87 % 10.3 C
1527 15-07-2016 07:10:00 12.4 C 87 % 10.3 C
1528 15-07-2016 07:15:00 12.4 C 86 % 10.13 C
1529 15-07-2016 07:20:00 12.4 C 86 % 10.13 C
1530 15-07-2016 07:25:00 12.5 C 86 % 10.22 C
1531 15-07-2016 07:30:00 12.5 C 85 % 10.05 C
1532 15-07-2016 07:35:00 12.6 C 86 % 10.32 C
1533 15-07-2016 07:40:00 12.6 C 86 % 10.32 C
1534 15-07-2016 07:45:00 12.6 C 85 % 10.15 C
1535 15-07-2016 07:50:00 12.7 C 85 % 10.25 C
1536 15-07-2016 07:55:00 12.7 C 85 % 10.25 C
1537 15-07-2016 08:00:00 12.7 C 85 % 10.25 C
1538 15-07-2016 08:05:00 12.7 C 85 % 10.25 C
1539 15-07-2016 08:10:00 12.7 C 85 % 10.25 C
1540 15-07-2016 08:15:00 12.7 C 86 % 10.42 C
1541 15-07-2016 08:20:00 12.7 C 85 % 10.25 C
1542 15-07-2016 08:25:00 12.8 C 86 % 10.52 C
1543 15-07-2016 08:30:00 12.9 C 87 % 10.79 C
1544 15-07-2016 08:35:00 13.1 C 86 % 10.81 C
1545 15-07-2016 08:40:00 13.3 C 87 % 11.18 C
1546 15-07-2016 08:45:00 13.4 C 87 % 11.28 C
1547 15-07-2016 08:50:00 13.7 C 86 % 11.4 C
1548 15-07-2016 08:55:00 13.8 C 84 % 11.15 C
1549 15-07-2016 09:00:00 13.9 C 83 % 11.06 C
1550 15-07-2016 09:05:00 13.9 C 83 % 11.06 C
Sensor: Nr:Datum:Temp:Feuchte:Taupunkt:
Aussen-T/F 1551 15-07-2016 09:10:00 14.1 C 83 % 11.26 C
1552 15-07-2016 09:15:00 14.1 C 83 % 11.26 C
1553 15-07-2016 09:20:00 14.1 C 82 % 11.08 C
1554 15-07-2016 09:25:00 14.2 C 82 % 11.17 C
1555 15-07-2016 09:30:00 14.3 C 82 % 11.27 C
1556 15-07-2016 09:35:00 14.4 C 81 % 11.18 C
1557 15-07-2016 09:40:00 14.7 C 81 % 11.48 C
1558 15-07-2016 09:45:00 14.9 C 81 % 11.67 C
1559 15-07-2016 09:50:00 15 C 78 % 11.2 C
1560 15-07-2016 09:55:00 15.1 C 78 % 11.3 C
1561 15-07-2016 10:00:00 15.1 C 76 % 10.9 C
1562 15-07-2016 10:05:00 15.1 C 77 % 11.1 C
1563 15-07-2016 10:10:00 15.1 C 76 % 10.9 C
1564 15-07-2016 10:15:00 15.1 C 77 % 11.1 C
1565 15-07-2016 10:20:00 15.1 C 78 % 11.3 C
1566 15-07-2016 10:25:00 15.1 C 79 % 11.49 C
1567 15-07-2016 10:30:00 15.1 C 78 % 11.3 C
1568 15-07-2016 10:35:00 15.1 C 78 % 11.3 C
1569 15-07-2016 10:40:00 15.2 C 78 % 11.39 C
1570 15-07-2016 10:45:00 15.3 C 77 % 11.3 C
1571 15-07-2016 10:50:00 15.3 C 75 % 10.9 C
1572 15-07-2016 10:55:00 15.2 C 75 % 10.8 C
1573 15-07-2016 11:00:00 15.3 C 75 % 10.9 C
1574 15-07-2016 11:05:00 15.4 C 73 % 10.59 C
1575 15-07-2016 11:10:00 15.6 C 71 % 10.37 C
Sensor: Nr:Datum:Temp:Feuchte:Taupunkt:
Aussen-T/F 1576 15-07-2016 11:15:00 15.8 C 73 % 10.97 C
1577 15-07-2016 11:20:00 16.2 C 70 % 10.73 C
1578 15-07-2016 11:25:00 16.6 C 67 % 10.45 C
1579 15-07-2016 11:30:00 16.8 C 67 % 10.64 C
1580 15-07-2016 11:35:00 16.9 C 65 % 10.28 C
1581 15-07-2016 11:40:00 17.2 C 67 % 11.02 C
1582 15-07-2016 11:45:00 17.3 C 66 % 10.89 C
1583 15-07-2016 11:50:00 17.2 C 67 % 11.02 C
1584 15-07-2016 11:55:00 17.1 C 69 % 11.37 C
1585 15-07-2016 12:00:00 16.9 C 67 % 10.74 C
1586 15-07-2016 12:05:00 16.9 C 68 % 10.96 C
1587 15-07-2016 12:10:00 17.1 C 63 % 10.01 C
1588 15-07-2016 12:15:00 17.3 C 63 % 10.2 C
1589 15-07-2016 12:20:00 17.6 C 63 % 10.48 C
1590 15-07-2016 12:25:00 17.8 C 63 % 10.67 C
1591 15-07-2016 12:30:00 18.1 C 62 % 10.71 C
1592 15-07-2016 12:35:00 18.2 C 63 % 11.05 C
1593 15-07-2016 12:40:00 18.3 C 59 % 10.16 C
1594 15-07-2016 12:45:00 18.2 C 60 % 10.31 C
1595 15-07-2016 12:50:00 18.2 C 62 % 10.81 C
1596 15-07-2016 12:55:00 18.3 C 60 % 10.41 C
1597 15-07-2016 13:00:00 18.4 C 61 % 10.75 C
1598 15-07-2016 13:05:00 18.3 C 59 % 10.16 C
1599 15-07-2016 13:10:00 18.3 C 61 % 10.66 C
1600 15-07-2016 13:15:00 18.3 C 62 % 10.9 C
Sensor: Nr:Datum:Temp:Feuchte:Taupunkt:
Aussen-T/F 1601 15-07-2016 13:20:00 18.3 C 61 % 10.66 C
1602 15-07-2016 13:25:00 18.4 C 62 % 10.99 C
1603 15-07-2016 13:30:00 18.6 C 59 % 10.44 C
1604 15-07-2016 13:35:00 18.6 C 60 % 10.69 C
1605 15-07-2016 13:40:00 18.6 C 61 % 10.94 C
1606 15-07-2016 13:45:00 18.6 C 62 % 11.18 C
1607 15-07-2016 13:50:00 18.6 C 61 % 10.94 C
1608 15-07-2016 13:55:00 18.8 C 62 % 11.37 C
1609 15-07-2016 14:00:00 19.1 C 61 % 11.41 C
1610 15-07-2016 14:05:00 19.2 C 59 % 11 C
1611 15-07-2016 14:10:00 19.1 C 59 % 10.91 C
1612 15-07-2016 14:15:00 19 C 59 % 10.81 C
1613 15-07-2016 14:20:00 18.9 C 60 % 10.97 C
1614 15-07-2016 14:25:00 18.9 C 61 % 11.22 C
1615 15-07-2016 14:30:00 19.2 C 60 % 11.25 C
1616 15-07-2016 14:35:00 19.4 C 59 % 11.19 C
1617 15-07-2016 14:40:00 19.5 C 59 % 11.28 C
1618 15-07-2016 14:45:00 19.6 C 58 % 11.12 C
1619 15-07-2016 14:50:00 19.6 C 58 % 11.12 C
1620 15-07-2016 14:55:00 19.7 C 58 % 11.21 C
1621 15-07-2016 15:00:00 19.8 C 59 % 11.56 C
1622 15-07-2016 15:05:00 19.7 C 60 % 11.72 C
1623 15-07-2016 15:10:00 19.5 C 59 % 11.28 C
1624 15-07-2016 15:15:00 19.4 C 63 % 12.18 C
1625 15-07-2016 15:20:00 19.3 C 61 % 11.6 C
Sensor: Nr:Datum:Temp:Feuchte:Taupunkt:
Aussen-T/F 1626 15-07-2016 15:25:00 19.2 C 63 % 11.99 C
1627 15-07-2016 15:30:00 19.3 C 61 % 11.6 C
1628 15-07-2016 15:35:00 19.6 C 62 % 12.13 C
1629 15-07-2016 15:40:00 20.3 C 60 % 12.29 C
1630 15-07-2016 15:45:00 20.9 C 58 % 12.33 C
1631 15-07-2016 15:50:00 21.2 C 59 % 12.87 C
1632 15-07-2016 15:55:00 21.3 C 61 % 13.48 C
1633 15-07-2016 16:00:00 21.4 C 54 % 11.71 C
1634 15-07-2016 16:05:00 21.3 C 55 % 11.9 C
1635 15-07-2016 16:10:00 21.3 C 56 % 12.17 C
1636 15-07-2016 16:15:00 21.4 C 55 % 11.99 C
1637 15-07-2016 16:20:00 21.3 C 55 % 11.9 C
1638 15-07-2016 16:25:00 20.8 C 57 % 11.97 C
1639 15-07-2016 16:30:00 20.5 C 61 % 12.73 C
1640 15-07-2016 16:35:00 20.2 C 62 % 12.69 C
1641 15-07-2016 16:40:00 19.9 C 61 % 12.16 C
1642 15-07-2016 16:45:00 19.6 C 61 % 11.88 C
1643 15-07-2016 16:50:00 19.6 C 61 % 11.88 C
1644 15-07-2016 16:55:00 19.8 C 69 % 13.95 C
1645 15-07-2016 17:00:00 20.3 C 64 % 13.27 C
1646 15-07-2016 17:05:00 20.7 C 65 % 13.89 C
1647 15-07-2016 17:10:00 20.8 C 63 % 13.5 C
1648 15-07-2016 17:15:00 20.9 C 66 % 14.31 C
1649 15-07-2016 17:20:00 21 C 66 % 14.41 C
1650 15-07-2016 17:25:00 21.1 C 69 % 15.19 C
Sensor: Nr:Datum:Temp:Feuchte:Taupunkt:
Aussen-T/F 1651 15-07-2016 17:30:00 21.2 C 60 % 13.13 C
1652 15-07-2016 17:35:00 21.2 C 57 % 12.35 C
1653 15-07-2016 17:40:00 21.2 C 56 % 12.08 C
1654 15-07-2016 17:45:00 21.4 C 60 % 13.32 C
1655 15-07-2016 17:50:00 21.7 C 59 % 13.34 C
1656 15-07-2016 17:55:00 21.9 C 56 % 12.73 C
1657 15-07-2016 18:00:00 22.2 C 54 % 12.45 C
1658 15-07-2016 18:05:00 21.9 C 52 % 11.61 C
1659 15-07-2016 18:10:00 22 C 49 % 10.8 C
1660 15-07-2016 18:15:00 22.2 C 49 % 10.98 C
1661 15-07-2016 18:20:00 22.3 C 50 % 11.38 C
1662 15-07-2016 18:25:00 22.2 C 49 % 10.98 C
1663 15-07-2016 18:30:00 22.2 C 50 % 11.29 C
1664 15-07-2016 18:35:00 22.1 C 49 % 10.89 C
1665 15-07-2016 18:40:00 22.1 C 48 % 10.58 C
1666 15-07-2016 18:45:00 22 C 49 % 10.8 C
1667 15-07-2016 18:50:00 22.1 C 49 % 10.89 C
1668 15-07-2016 18:55:00 22.2 C 48 % 10.67 C
1669 15-07-2016 19:00:00 22.4 C 48 % 10.86 C
1670 15-07-2016 19:05:00 22.7 C 47 % 10.81 C
1671 15-07-2016 19:10:00 22.9 C 46 % 10.67 C
1672 15-07-2016 19:15:00 23 C 46 % 10.76 C
1673 15-07-2016 19:20:00 22.9 C 44 % 10.01 C
1674 15-07-2016 19:25:00 22.7 C 45 % 10.16 C
1675 15-07-2016 19:30:00 22.4 C 45 % 9.89 C
Sensor: Nr:Datum:Temp:Feuchte:Taupunkt:
Aussen-T/F 1676 15-07-2016 19:35:00 22.2 C 46 % 10.04 C
1677 15-07-2016 19:40:00 22 C 49 % 10.8 C
1678 15-07-2016 19:45:00 21.9 C 56 % 12.73 C
1679 15-07-2016 19:50:00 21.8 C 61 % 13.95 C
1680 15-07-2016 19:55:00 21.6 C 63 % 14.26 C
1681 15-07-2016 20:00:00 21.4 C 65 % 14.55 C
1682 15-07-2016 20:05:00 21.1 C 60 % 13.04 C
1683 15-07-2016 20:10:00 20.9 C 62 % 13.35 C
1684 15-07-2016 20:15:00 20.7 C 56 % 11.61 C
1685 15-07-2016 20:20:00 20.6 C 65 % 13.79 C
1686 15-07-2016 20:25:00 20.2 C 66 % 13.65 C
1687 15-07-2016 20:30:00 19.7 C 67 % 13.4 C
1688 15-07-2016 20:35:00 19.2 C 69 % 13.38 C
1689 15-07-2016 20:40:00 18.7 C 71 % 13.34 C
1690 15-07-2016 20:45:00 18.3 C 71 % 12.95 C
1691 15-07-2016 20:50:00 18 C 72 % 12.88 C
1692 15-07-2016 20:55:00 17.7 C 72 % 12.59 C
1693 15-07-2016 21:00:00 17.5 C 72 % 12.4 C
1694 15-07-2016 21:05:00 17.4 C 74 % 12.72 C
1695 15-07-2016 21:10:00 17.3 C 74 % 12.62 C
1696 15-07-2016 21:15:00 17.2 C 75 % 12.73 C
1697 15-07-2016 21:20:00 17.1 C 75 % 12.64 C
1698 15-07-2016 21:25:00 16.9 C 76 % 12.65 C
1699 15-07-2016 21:30:00 16.8 C 77 % 12.75 C
1700 15-07-2016 21:35:00 16.7 C 78 % 12.85 C
Sensor: Nr:Datum:Temp:Feuchte:Taupunkt:
Aussen-T/F 1701 15-07-2016 21:40:00 16.6 C 77 % 12.55 C
1702 15-07-2016 21:45:00 16.4 C 78 % 12.56 C
1703 15-07-2016 21:50:00 16.3 C 79 % 12.65 C
1704 15-07-2016 21:55:00 16.2 C 79 % 12.56 C
1705 15-07-2016 22:00:00 16 C 79 % 12.36 C
1706 15-07-2016 22:05:00 15.8 C 80 % 12.36 C
1707 15-07-2016 22:10:00 15.6 C 79 % 11.97 C
1708 15-07-2016 22:15:00 15.4 C 80 % 11.97 C
1709 15-07-2016 22:20:00 15.3 C 80 % 11.87 C
1710 15-07-2016 22:25:00 15.2 C 81 % 11.96 C
1711 15-07-2016 22:30:00 15.1 C 82 % 12.05 C
1712 15-07-2016 22:35:00 15 C 83 % 12.14 C
1713 15-07-2016 22:40:00 14.8 C 83 % 11.94 C
1714 15-07-2016 22:45:00 14.7 C 84 % 12.03 C
1715 15-07-2016 22:50:00 14.6 C 84 % 11.93 C
1716 15-07-2016 22:55:00 14.3 C 85 % 11.81 C
1717 15-07-2016 23:00:00 14.2 C 85 % 11.72 C
1718 15-07-2016 23:05:00 14.1 C 86 % 11.8 C
1719 15-07-2016 23:10:00 13.9 C 86 % 11.6 C
1720 15-07-2016 23:15:00 13.8 C 86 % 11.5 C
1721 15-07-2016 23:20:00 13.7 C 86 % 11.4 C
1722 15-07-2016 23:25:00 13.7 C 87 % 11.58 C
1723 15-07-2016 23:30:00 13.6 C 87 % 11.48 C
1724 15-07-2016 23:35:00 13.4 C 87 % 11.28 C
1725 15-07-2016 23:40:00 13.3 C 87 % 11.18 C
Sensor: Nr:Datum:Temp:Feuchte:Taupunkt:
Aussen-T/F 1726 15-07-2016 23:45:00 13.2 C 88 % 11.26 C
1727 15-07-2016 23:50:00 13.1 C 88 % 11.16 C
1728 15-07-2016 23:55:00 13 C 88 % 11.06 C
1729 16-07-2016 00:00:00 12.9 C 88 % 10.96 C
1730 16-07-2016 00:05:00 12.8 C 88 % 10.86 C
1731 16-07-2016 00:10:00 12.8 C 88 % 10.86 C
1732 16-07-2016 00:15:00 12.8 C 89 % 11.03 C
1733 16-07-2016 00:20:00 12.7 C 89 % 10.94 C
1734 16-07-2016 00:25:00 12.7 C 89 % 10.94 C
1735 16-07-2016 00:30:00 12.6 C 89 % 10.84 C
1736 16-07-2016 00:35:00 12.6 C 89 % 10.84 C
1737 16-07-2016 00:40:00 12.6 C 90 % 11 C
1738 16-07-2016 00:45:00 12.6 C 89 % 10.84 C
1739 16-07-2016 00:50:00 12.5 C 89 % 10.74 C
1740 16-07-2016 00:55:00 12.4 C 90 % 10.81 C
1741 16-07-2016 01:00:00 12.3 C 90 % 10.71 C
1742 16-07-2016 01:05:00 12.3 C 90 % 10.71 C
1743 16-07-2016 01:10:00 12.3 C 91 % 10.87 C
1744 16-07-2016 01:15:00 12.2 C 91 % 10.78 C
1745 16-07-2016 01:20:00 12.2 C 91 % 10.78 C
1746 16-07-2016 01:25:00 12.2 C 91 % 10.78 C
1747 16-07-2016 01:30:00 12.1 C 91 % 10.68 C
1748 16-07-2016 01:35:00 12.1 C 91 % 10.68 C
1749 16-07-2016 01:40:00 12.1 C 91 % 10.68 C
1750 16-07-2016 01:45:00 11.9 C 91 % 10.48 C
Sensor: Nr:Datum:Temp:Feuchte:Taupunkt:
Aussen-T/F 1751 16-07-2016 01:50:00 11.9 C 91 % 10.48 C
1752 16-07-2016 01:55:00 11.9 C 92 % 10.64 C
1753 16-07-2016 02:00:00 11.8 C 91 % 10.38 C
1754 16-07-2016 02:05:00 11.8 C 92 % 10.54 C
1755 16-07-2016 02:10:00 11.7 C 92 % 10.44 C
1756 16-07-2016 02:15:00 11.7 C 92 % 10.44 C
1757 16-07-2016 02:20:00 11.7 C 92 % 10.44 C
1758 16-07-2016 02:25:00 11.6 C 92 % 10.35 C
1759 16-07-2016 02:30:00 11.6 C 92 % 10.35 C
1760 16-07-2016 02:35:00 11.6 C 92 % 10.35 C
1761 16-07-2016 02:40:00 11.5 C 92 % 10.25 C
1762 16-07-2016 02:45:00 11.4 C 92 % 10.15 C
1763 16-07-2016 02:50:00 11.4 C 92 % 10.15 C
1764 16-07-2016 02:55:00 11.4 C 93 % 10.31 C
1765 16-07-2016 03:00:00 11.3 C 93 % 10.21 C
1766 16-07-2016 03:05:00 11.3 C 93 % 10.21 C
1767 16-07-2016 03:10:00 11.3 C 93 % 10.21 C
1768 16-07-2016 03:15:00 11.3 C 93 % 10.21 C
1769 16-07-2016 03:20:00 11.2 C 93 % 10.11 C
1770 16-07-2016 03:25:00 11.2 C 93 % 10.11 C
1771 16-07-2016 03:30:00 11.2 C 93 % 10.11 C
1772 16-07-2016 03:35:00 11.2 C 93 % 10.11 C
1773 16-07-2016 03:40:00 11.2 C 93 % 10.11 C
1774 16-07-2016 03:45:00 11.2 C 94 % 10.27 C
1775 16-07-2016 03:50:00 11.2 C 94 % 10.27 C
Sensor: Nr:Datum:Temp:Feuchte:Taupunkt:
Aussen-T/F 1776 16-07-2016 03:55:00 11.2 C 94 % 10.27 C
1777 16-07-2016 04:00:00 11.3 C 94 % 10.37 C
1778 16-07-2016 04:05:00 11.4 C 94 % 10.47 C
1779 16-07-2016 04:10:00 11.4 C 94 % 10.47 C
1780 16-07-2016 04:15:00 11.5 C 94 % 10.57 C
1781 16-07-2016 04:20:00 11.6 C 94 % 10.67 C
1782 16-07-2016 04:25:00 11.6 C 94 % 10.67 C
1783 16-07-2016 04:30:00 11.7 C 94 % 10.77 C
1784 16-07-2016 04:35:00 11.7 C 94 % 10.77 C
1785 16-07-2016 04:40:00 11.7 C 94 % 10.77 C
1786 16-07-2016 04:45:00 11.7 C 94 % 10.77 C
1787 16-07-2016 04:50:00 11.8 C 94 % 10.87 C
1788 16-07-2016 04:55:00 11.8 C 94 % 10.87 C
1789 16-07-2016 05:00:00 11.8 C 94 % 10.87 C
1790 16-07-2016 05:05:00 11.9 C 94 % 10.97 C
1791 16-07-2016 05:10:00 11.9 C 94 % 10.97 C
1792 16-07-2016 05:15:00 11.9 C 94 % 10.97 C
1793 16-07-2016 05:20:00 11.9 C 94 % 10.97 C
1794 16-07-2016 05:25:00 11.9 C 94 % 10.97 C
1795 16-07-2016 05:30:00 11.9 C 93 % 10.81 C
1796 16-07-2016 05:35:00 11.9 C 93 % 10.81 C
1797 16-07-2016 05:40:00 11.9 C 93 % 10.81 C
1798 16-07-2016 05:45:00 11.9 C 93 % 10.81 C
1799 16-07-2016 05:50:00 11.9 C 93 % 10.81 C
1800 16-07-2016 05:55:00 11.8 C 93 % 10.71 C
Sensor: Nr:Datum:Temp:Feuchte:Taupunkt:
Aussen-T/F 1801 16-07-2016 06:00:00 11.9 C 93 % 10.81 C
1802 16-07-2016 06:05:00 11.9 C 94 % 10.97 C
1803 16-07-2016 06:10:00 11.9 C 94 % 10.97 C
1804 16-07-2016 06:15:00 12 C 94 % 11.07 C
1805 16-07-2016 06:20:00 12.1 C 93 % 11 C
1806 16-07-2016 06:25:00 12.1 C 93 % 11 C
1807 16-07-2016 06:30:00 12.2 C 93 % 11.1 C
1808 16-07-2016 06:35:00 12.2 C 93 % 11.1 C
1809 16-07-2016 06:40:00 12.3 C 93 % 11.2 C
1810 16-07-2016 06:45:00 12.3 C 93 % 11.2 C
1811 16-07-2016 06:50:00 12.4 C 93 % 11.3 C
1812 16-07-2016 06:55:00 12.5 C 93 % 11.4 C
1813 16-07-2016 07:00:00 12.6 C 92 % 11.34 C
1814 16-07-2016 07:05:00 12.7 C 92 % 11.43 C
1815 16-07-2016 07:10:00 12.8 C 91 % 11.37 C
1816 16-07-2016 07:15:00 12.9 C 91 % 11.47 C
1817 16-07-2016 07:20:00 12.9 C 91 % 11.47 C
1818 16-07-2016 07:25:00 13.1 C 92 % 11.83 C
1819 16-07-2016 07:30:00 13.2 C 92 % 11.93 C
1820 16-07-2016 07:35:00 13.3 C 91 % 11.86 C
1821 16-07-2016 07:40:00 13.3 C 90 % 11.7 C
1822 16-07-2016 07:45:00 13.4 C 90 % 11.79 C
1823 16-07-2016 07:50:00 13.6 C 90 % 11.99 C
1824 16-07-2016 07:55:00 13.7 C 89 % 11.92 C
1825 16-07-2016 08:00:00 13.7 C 89 % 11.92 C
Sensor: Nr:Datum:Temp:Feuchte:Taupunkt:
Aussen-T/F 1826 16-07-2016 08:05:00 13.8 C 89 % 12.02 C
1827 16-07-2016 08:10:00 13.9 C 88 % 11.95 C
1828 16-07-2016 08:15:00 13.9 C 88 % 11.95 C
1829 16-07-2016 08:20:00 14.1 C 89 % 12.32 C
1830 16-07-2016 08:25:00 14.2 C 88 % 12.24 C
1831 16-07-2016 08:30:00 14.3 C 89 % 12.51 C
1832 16-07-2016 08:35:00 14.5 C 89 % 12.71 C
1833 16-07-2016 08:40:00 14.7 C 88 % 12.73 C
1834 16-07-2016 08:45:00 14.8 C 86 % 12.48 C
1835 16-07-2016 08:50:00 14.9 C 86 % 12.58 C
1836 16-07-2016 08:55:00 15.1 C 86 % 12.78 C
1837 16-07-2016 09:00:00 15.2 C 85 % 12.7 C
1838 16-07-2016 09:05:00 15.3 C 84 % 12.61 C
1839 16-07-2016 09:10:00 15.4 C 84 % 12.71 C
1840 16-07-2016 09:15:00 15.6 C 85 % 13.09 C
1841 16-07-2016 09:20:00 15.7 C 83 % 12.82 C
1842 16-07-2016 09:25:00 15.8 C 84 % 13.1 C
1843 16-07-2016 09:30:00 15.9 C 84 % 13.2 C
1844 16-07-2016 09:35:00 16 C 83 % 13.12 C
1845 16-07-2016 09:40:00 16.1 C 82 % 13.03 C
1846 16-07-2016 09:45:00 16.2 C 83 % 13.31 C
1847 16-07-2016 09:50:00 16.3 C 82 % 13.22 C
1848 16-07-2016 09:55:00 16.3 C 82 % 13.22 C
1849 16-07-2016 10:00:00 16.4 C 81 % 13.13 C
1850 16-07-2016 10:05:00 16.7 C 80 % 13.23 C
Sensor: Nr:Datum:Temp:Feuchte:Taupunkt:
Aussen-T/F 1851 16-07-2016 10:10:00 16.8 C 79 % 13.14 C
1852 16-07-2016 10:15:00 17 C 81 % 13.72 C
1853 16-07-2016 10:20:00 17.2 C 79 % 13.53 C
1854 16-07-2016 10:25:00 17.4 C 78 % 13.53 C
1855 16-07-2016 10:30:00 17.5 C 78 % 13.62 C
1856 16-07-2016 10:35:00 17.6 C 78 % 13.72 C
1857 16-07-2016 10:40:00 17.8 C 77 % 13.72 C
1858 16-07-2016 10:45:00 17.9 C 76 % 13.61 C
1859 16-07-2016 10:50:00 18.1 C 76 % 13.81 C
1860 16-07-2016 10:55:00 18.2 C 74 % 13.49 C
1861 16-07-2016 11:00:00 18.3 C 74 % 13.59 C
1862 16-07-2016 11:05:00 18.3 C 75 % 13.79 C
1863 16-07-2016 11:10:00 18.4 C 76 % 14.1 C
1864 16-07-2016 11:15:00 18.5 C 76 % 14.19 C
1865 16-07-2016 11:20:00 18.6 C 76 % 14.29 C
1866 16-07-2016 11:25:00 18.7 C 77 % 14.59 C
1867 16-07-2016 11:30:00 18.8 C 76 % 14.48 C
1868 16-07-2016 11:35:00 18.9 C 74 % 14.17 C
1869 16-07-2016 11:40:00 19.1 C 78 % 15.18 C
1870 16-07-2016 11:45:00 19.1 C 77 % 14.97 C
1871 16-07-2016 11:50:00 19.1 C 76 % 14.77 C
1872 16-07-2016 11:55:00 19 C 71 % 13.63 C
1873 16-07-2016 12:00:00 19.1 C 69 % 13.28 C
1874 16-07-2016 12:05:00 19.3 C 69 % 13.47 C
1875 16-07-2016 12:10:00 19.5 C 66 % 12.98 C
Sensor: Nr:Datum:Temp:Feuchte:Taupunkt:
Aussen-T/F 1876 16-07-2016 12:15:00 19.7 C 66 % 13.17 C
1877 16-07-2016 12:20:00 19.8 C 65 % 13.03 C
1878 16-07-2016 12:25:00 19.9 C 65 % 13.13 C
1879 16-07-2016 12:30:00 20.1 C 66 % 13.55 C
1880 16-07-2016 12:35:00 20.3 C 68 % 14.2 C
1881 16-07-2016 12:40:00 20.6 C 68 % 14.49 C
1882 16-07-2016 12:45:00 20.8 C 68 % 14.68 C
1883 16-07-2016 12:50:00 20.9 C 67 % 14.55 C
1884 16-07-2016 12:55:00 20.9 C 67 % 14.55 C
1885 16-07-2016 13:00:00 20.9 C 65 % 14.08 C
1886 16-07-2016 13:05:00 21.1 C 65 % 14.27 C
1887 16-07-2016 13:10:00 21.1 C 65 % 14.27 C
1888 16-07-2016 13:15:00 21.1 C 66 % 14.5 C
1889 16-07-2016 13:20:00 21.1 C 71 % 15.64 C
1890 16-07-2016 13:25:00 21.1 C 65 % 14.27 C
1891 16-07-2016 13:30:00 21.2 C 66 % 14.6 C
1892 16-07-2016 13:35:00 21.3 C 67 % 14.93 C
1893 16-07-2016 13:40:00 21.4 C 67 % 15.02 C
1894 16-07-2016 13:45:00 21.4 C 65 % 14.55 C
1895 16-07-2016 13:50:00 21.6 C 69 % 15.67 C
1896 16-07-2016 13:55:00 21.5 C 67 % 15.12 C
1897 16-07-2016 14:00:00 21.4 C 66 % 14.79 C
1898 16-07-2016 14:05:00 21.4 C 68 % 15.25 C
1899 16-07-2016 14:10:00 21.3 C 69 % 15.38 C
1900 16-07-2016 14:15:00 21.4 C 72 % 16.14 C
Sensor: Nr:Datum:Temp:Feuchte:Taupunkt:
Aussen-T/F 1901 16-07-2016 14:20:00 21.3 C 71 % 15.83 C
1902 16-07-2016 14:25:00 21.3 C 71 % 15.83 C
1903 16-07-2016 14:30:00 21.2 C 71 % 15.73 C
1904 16-07-2016 14:35:00 21.2 C 68 % 15.06 C
1905 16-07-2016 14:40:00 21.1 C 69 % 15.19 C
1906 16-07-2016 14:45:00 21.1 C 69 % 15.19 C
1907 16-07-2016 14:50:00 21.1 C 70 % 15.42 C
1908 16-07-2016 14:55:00 21.2 C 70 % 15.51 C
1909 16-07-2016 15:00:00 21.2 C 70 % 15.51 C
1910 16-07-2016 15:05:00 21.3 C 69 % 15.38 C
1911 16-07-2016 15:10:00 21.4 C 69 % 15.48 C
1912 16-07-2016 15:15:00 21.5 C 69 % 15.57 C
1913 16-07-2016 15:20:00 21.6 C 69 % 15.67 C
1914 16-07-2016 15:25:00 21.7 C 69 % 15.77 C
1915 16-07-2016 15:30:00 21.7 C 70 % 15.99 C
1916 16-07-2016 15:35:00 21.8 C 70 % 16.09 C
1917 16-07-2016 15:40:00 21.9 C 69 % 15.96 C
1918 16-07-2016 15:45:00 21.9 C 68 % 15.73 C
1919 16-07-2016 15:50:00 21.9 C 69 % 15.96 C
1920 16-07-2016 15:55:00 22 C 70 % 16.28 C
1921 16-07-2016 16:00:00 22.1 C 70 % 16.37 C
1922 16-07-2016 16:05:00 22 C 70 % 16.28 C
1923 16-07-2016 16:10:00 22.1 C 74 % 17.25 C
1924 16-07-2016 16:15:00 22.1 C 71 % 16.6 C
1925 16-07-2016 16:20:00 22.2 C 73 % 17.13 C
Sensor: Nr:Datum:Temp:Feuchte:Taupunkt:
Aussen-T/F 1926 16-07-2016 16:25:00 22.3 C 75 % 17.65 C
1927 16-07-2016 16:30:00 22.3 C 73 % 17.23 C
1928 16-07-2016 16:35:00 22.3 C 75 % 17.65 C
1929 16-07-2016 16:40:00 22.3 C 73 % 17.23 C
1930 16-07-2016 16:45:00 22.4 C 76 % 17.96 C
1931 16-07-2016 16:50:00 22.3 C 76 % 17.86 C
1932 16-07-2016 16:55:00 22.3 C 77 % 18.07 C
1933 16-07-2016 17:00:00 22.2 C 77 % 17.98 C
1934 16-07-2016 17:05:00 22.1 C 76 % 17.67 C
1935 16-07-2016 17:10:00 21.9 C 77 % 17.68 C
1936 16-07-2016 17:15:00 21.7 C 79 % 17.9 C
1937 16-07-2016 17:20:00 21.5 C 79 % 17.7 C
1938 16-07-2016 17:25:00 21.4 C 80 % 17.81 C
1939 16-07-2016 17:30:00 21.3 C 80 % 17.71 C
1940 16-07-2016 17:35:00 21.3 C 81 % 17.91 C
1941 16-07-2016 17:40:00 21.3 C 81 % 17.91 C
1942 16-07-2016 17:45:00 21.3 C 81 % 17.91 C
1943 16-07-2016 17:50:00 21.3 C 76 % 16.9 C
1944 16-07-2016 17:55:00 21.3 C 80 % 17.71 C
1945 16-07-2016 18:00:00 21.4 C 80 % 17.81 C
1946 16-07-2016 18:05:00 21.3 C 75 % 16.69 C
1947 16-07-2016 18:10:00 21.3 C 81 % 17.91 C
1948 16-07-2016 18:15:00 21.4 C 80 % 17.81 C
1949 16-07-2016 18:20:00 21.3 C 78 % 17.31 C
1950 16-07-2016 18:25:00 21.3 C 80 % 17.71 C
Sensor: Nr:Datum:Temp:Feuchte:Taupunkt:
Aussen-T/F 1951 16-07-2016 18:30:00 21.2 C 81 % 17.81 C
1952 16-07-2016 18:35:00 21.2 C 81 % 17.81 C
1953 16-07-2016 18:40:00 21 C 82 % 17.81 C
1954 16-07-2016 18:45:00 20.9 C 82 % 17.71 C
1955 16-07-2016 18:50:00 20.8 C 83 % 17.81 C
1956 16-07-2016 18:55:00 20.7 C 83 % 17.71 C
1957 16-07-2016 19:00:00 20.7 C 83 % 17.71 C
1958 16-07-2016 19:05:00 20.6 C 83 % 17.61 C
1959 16-07-2016 19:10:00 20.6 C 83 % 17.61 C
1960 16-07-2016 19:15:00 20.6 C 83 % 17.61 C
1961 16-07-2016 19:20:00 20.5 C 83 % 17.51 C
1962 16-07-2016 19:25:00 20.5 C 83 % 17.51 C
1963 16-07-2016 19:30:00 20.5 C 83 % 17.51 C
1964 16-07-2016 19:35:00 20.4 C 82 % 17.22 C
1965 16-07-2016 19:40:00 20.4 C 82 % 17.22 C
1966 16-07-2016 19:45:00 20.5 C 83 % 17.51 C
1967 16-07-2016 19:50:00 20.5 C 83 % 17.51 C
1968 16-07-2016 19:55:00 20.5 C 83 % 17.51 C
1969 16-07-2016 20:00:00 20.4 C 83 % 17.42 C
1970 16-07-2016 20:05:00 20.4 C 83 % 17.42 C
1971 16-07-2016 20:10:00 20.4 C 83 % 17.42 C
1972 16-07-2016 20:15:00 20.3 C 83 % 17.32 C
1973 16-07-2016 20:20:00 20.3 C 83 % 17.32 C
1974 16-07-2016 20:25:00 20.2 C 83 % 17.22 C
1975 16-07-2016 20:30:00 20.3 C 83 % 17.32 C
Sensor: Nr:Datum:Temp:Feuchte:Taupunkt:
Aussen-T/F 1976 16-07-2016 20:35:00 20.4 C 82 % 17.22 C
1977 16-07-2016 20:40:00 20.4 C 81 % 17.03 C
1978 16-07-2016 20:45:00 20.3 C 81 % 16.93 C
1979 16-07-2016 20:50:00 20.2 C 81 % 16.84 C
1980 16-07-2016 20:55:00 20.1 C 82 % 16.93 C
1981 16-07-2016 21:00:00 19.9 C 82 % 16.74 C
1982 16-07-2016 21:05:00 19.7 C 82 % 16.54 C
1983 16-07-2016 21:10:00 19.6 C 83 % 16.63 C
1984 16-07-2016 21:15:00 19.4 C 84 % 16.63 C
1985 16-07-2016 21:20:00 19.3 C 84 % 16.53 C
1986 16-07-2016 21:25:00 19.2 C 85 % 16.62 C
1987 16-07-2016 21:30:00 19 C 85 % 16.42 C
1988 16-07-2016 21:35:00 18.8 C 85 % 16.23 C
1989 16-07-2016 21:40:00 18.7 C 85 % 16.13 C
1990 16-07-2016 21:45:00 18.6 C 85 % 16.03 C
1991 16-07-2016 21:50:00 18.5 C 85 % 15.93 C
1992 16-07-2016 21:55:00 18.5 C 85 % 15.93 C
1993 16-07-2016 22:00:00 18.4 C 85 % 15.83 C
1994 16-07-2016 22:05:00 18.5 C 85 % 15.93 C
1995 16-07-2016 22:10:00 18.5 C 86 % 16.11 C
1996 16-07-2016 22:15:00 18.5 C 86 % 16.11 C
1997 16-07-2016 22:20:00 18.5 C 86 % 16.11 C
1998 16-07-2016 22:25:00 18.5 C 87 % 16.3 C
1999 16-07-2016 22:30:00 18.4 C 87 % 16.2 C
2000 16-07-2016 22:35:00 18.3 C 87 % 16.1 C
Sensor: Nr:Datum:Temp:Feuchte:Taupunkt:
Aussen-T/F 2001 16-07-2016 22:40:00 18.3 C 88 % 16.28 C
2002 16-07-2016 22:45:00 18.2 C 88 % 16.18 C
2003 16-07-2016 22:50:00 18.1 C 88 % 16.08 C
2004 16-07-2016 22:55:00 18.1 C 89 % 16.26 C
2005 16-07-2016 23:00:00 18 C 89 % 16.16 C
2006 16-07-2016 23:05:00 17.9 C 89 % 16.06 C
2007 16-07-2016 23:10:00 17.9 C 90 % 16.24 C
2008 16-07-2016 23:15:00 17.8 C 90 % 16.14 C
2009 16-07-2016 23:20:00 17.8 C 90 % 16.14 C
2010 16-07-2016 23:25:00 17.7 C 90 % 16.04 C
2011 16-07-2016 23:30:00 17.6 C 90 % 15.94 C
2012 16-07-2016 23:35:00 17.5 C 90 % 15.84 C
2013 16-07-2016 23:40:00 17.4 C 90 % 15.74 C
2014 16-07-2016 23:45:00 17.2 C 90 % 15.55 C
2015 16-07-2016 23:50:00 17.1 C 91 % 15.62 C
2016 16-07-2016 23:55:00 17 C 91 % 15.52 C
2017 17-07-2016 00:00:00 16.9 C 91 % 15.42 C
2018 17-07-2016 00:05:00 16.8 C 92 % 15.49 C
2019 17-07-2016 00:10:00 16.8 C 92 % 15.49 C
2020 17-07-2016 00:15:00 16.7 C 92 % 15.39 C
2021 17-07-2016 00:20:00 16.6 C 92 % 15.3 C
2022 17-07-2016 00:25:00 16.5 C 92 % 15.2 C
2023 17-07-2016 00:30:00 16.4 C 92 % 15.1 C
2024 17-07-2016 00:35:00 16.3 C 92 % 15 C
2025 17-07-2016 00:40:00 16.2 C 92 % 14.9 C
Sensor: Nr:Datum:Temp:Feuchte:Taupunkt:
Aussen-T/F 2026 17-07-2016 00:45:00 16.2 C 93 % 15.07 C
2027 17-07-2016 00:50:00 16.2 C 93 % 15.07 C
2028 17-07-2016 00:55:00 16.2 C 93 % 15.07 C
2029 17-07-2016 01:00:00 16.3 C 94 % 15.33 C
2030 17-07-2016 01:05:00 16.3 C 94 % 15.33 C
2031 17-07-2016 01:10:00 16.4 C 94 % 15.43 C
2032 17-07-2016 01:15:00 16.5 C 94 % 15.53 C
2033 17-07-2016 01:20:00 16.5 C 94 % 15.53 C
2034 17-07-2016 01:25:00 16.6 C 94 % 15.63 C
2035 17-07-2016 01:30:00 16.6 C 94 % 15.63 C
2036 17-07-2016 01:35:00 16.7 C 94 % 15.73 C
2037 17-07-2016 01:40:00 16.7 C 94 % 15.73 C
2038 17-07-2016 01:45:00 16.7 C 94 % 15.73 C
2039 17-07-2016 01:50:00 16.7 C 94 % 15.73 C
2040 17-07-2016 01:55:00 16.8 C 94 % 15.83 C
2041 17-07-2016 02:00:00 16.8 C 94 % 15.83 C
2042 17-07-2016 02:05:00 16.9 C 94 % 15.93 C
2043 17-07-2016 02:10:00 16.9 C 94 % 15.93 C
2044 17-07-2016 02:15:00 16.9 C 94 % 15.93 C
2045 17-07-2016 02:20:00 17 C 94 % 16.03 C
2046 17-07-2016 02:25:00 17.1 C 94 % 16.13 C
2047 17-07-2016 02:30:00 17.1 C 94 % 16.13 C
2048 17-07-2016 02:35:00 17.1 C 94 % 16.13 C
2049 17-07-2016 02:40:00 17.1 C 94 % 16.13 C
2050 17-07-2016 02:45:00 17.2 C 94 % 16.23 C
Sensor: Nr:Datum:Temp:Feuchte:Taupunkt:
Aussen-T/F 2051 17-07-2016 02:50:00 17.2 C 93 % 16.06 C
2052 17-07-2016 02:55:00 17.2 C 93 % 16.06 C
2053 17-07-2016 03:00:00 17.2 C 93 % 16.06 C
2054 17-07-2016 03:05:00 17.3 C 93 % 16.16 C
2055 17-07-2016 03:10:00 17.3 C 93 % 16.16 C
2056 17-07-2016 03:15:00 17.3 C 93 % 16.16 C
2057 17-07-2016 03:20:00 17.2 C 93 % 16.06 C
2058 17-07-2016 03:25:00 17.2 C 93 % 16.06 C
2059 17-07-2016 03:30:00 17.2 C 93 % 16.06 C
2060 17-07-2016 03:35:00 17.2 C 93 % 16.06 C
2061 17-07-2016 03:40:00 17.2 C 93 % 16.06 C
2062 17-07-2016 03:45:00 17.2 C 93 % 16.06 C
2063 17-07-2016 03:50:00 17.2 C 93 % 16.06 C
2064 17-07-2016 03:55:00 17.1 C 93 % 15.96 C
2065 17-07-2016 04:00:00 17.1 C 93 % 15.96 C
2066 17-07-2016 04:05:00 17.1 C 94 % 16.13 C
2067 17-07-2016 04:10:00 17.1 C 94 % 16.13 C
2068 17-07-2016 04:15:00 17.2 C 94 % 16.23 C
2069 17-07-2016 04:20:00 17.2 C 94 % 16.23 C
2070 17-07-2016 04:25:00 17.2 C 94 % 16.23 C
2071 17-07-2016 04:30:00 17.2 C 94 % 16.23 C
2072 17-07-2016 04:35:00 17.1 C 94 % 16.13 C
2073 17-07-2016 04:40:00 17.1 C 94 % 16.13 C
2074 17-07-2016 04:45:00 17 C 93 % 15.86 C
2075 17-07-2016 04:50:00 16.9 C 93 % 15.76 C
Sensor: Nr:Datum:Temp:Feuchte:Taupunkt:
Aussen-T/F 2076 17-07-2016 04:55:00 16.7 C 93 % 15.56 C
2077 17-07-2016 05:00:00 16.6 C 93 % 15.46 C
2078 17-07-2016 05:05:00 16.5 C 93 % 15.36 C
2079 17-07-2016 05:10:00 16.5 C 93 % 15.36 C
2080 17-07-2016 05:15:00 16.5 C 94 % 15.53 C
2081 17-07-2016 05:20:00 16.5 C 94 % 15.53 C
2082 17-07-2016 05:25:00 16.5 C 94 % 15.53 C
2083 17-07-2016 05:30:00 16.5 C 94 % 15.53 C
2084 17-07-2016 05:35:00 16.5 C 94 % 15.53 C
2085 17-07-2016 05:40:00 16.4 C 94 % 15.43 C
2086 17-07-2016 05:45:00 16.4 C 94 % 15.43 C
2087 17-07-2016 05:50:00 16.4 C 94 % 15.43 C
2088 17-07-2016 05:55:00 16.5 C 95 % 15.7 C
2089 17-07-2016 06:00:00 16.6 C 95 % 15.8 C
2090 17-07-2016 06:05:00 16.6 C 95 % 15.8 C
2091 17-07-2016 06:10:00 16.6 C 95 % 15.8 C
2092 17-07-2016 06:15:00 16.7 C 95 % 15.9 C
2093 17-07-2016 06:20:00 16.7 C 95 % 15.9 C
2094 17-07-2016 06:25:00 16.8 C 95 % 15.99 C
2095 17-07-2016 06:30:00 16.8 C 95 % 15.99 C
2096 17-07-2016 06:35:00 16.9 C 95 % 16.09 C
2097 17-07-2016 06:40:00 17 C 95 % 16.19 C
2098 17-07-2016 06:45:00 17.1 C 95 % 16.29 C
2099 17-07-2016 06:50:00 17.1 C 95 % 16.29 C
2100 17-07-2016 06:55:00 17.1 C 95 % 16.29 C
Sensor: Nr:Datum:Temp:Feuchte:Taupunkt:
Aussen-T/F 2101 17-07-2016 07:00:00 17.2 C 95 % 16.39 C
2102 17-07-2016 07:05:00 17.2 C 95 % 16.39 C
2103 17-07-2016 07:10:00 17.3 C 95 % 16.49 C
2104 17-07-2016 07:15:00 17.4 C 95 % 16.59 C
2105 17-07-2016 07:20:00 17.4 C 95 % 16.59 C
2106 17-07-2016 07:25:00 17.5 C 95 % 16.69 C
2107 17-07-2016 07:30:00 17.6 C 95 % 16.79 C
2108 17-07-2016 07:35:00 17.7 C 95 % 16.89 C
2109 17-07-2016 07:40:00 17.7 C 94 % 16.72 C
2110 17-07-2016 07:45:00 17.8 C 94 % 16.82 C
2111 17-07-2016 07:50:00 17.9 C 94 % 16.92 C
2112 17-07-2016 07:55:00 18.1 C 93 % 16.95 C
2113 17-07-2016 08:00:00 18.2 C 93 % 17.05 C
2114 17-07-2016 08:05:00 18.3 C 92 % 16.98 C
2115 17-07-2016 08:10:00 18.4 C 92 % 17.08 C
2116 17-07-2016 08:15:00 18.5 C 92 % 17.18 C
2117 17-07-2016 08:20:00 18.6 C 92 % 17.27 C
2118 17-07-2016 08:25:00 18.8 C 92 % 17.47 C
2119 17-07-2016 08:30:00 18.8 C 92 % 17.47 C
2120 17-07-2016 08:35:00 18.9 C 91 % 17.4 C
2121 17-07-2016 08:40:00 19.1 C 90 % 17.42 C
2122 17-07-2016 08:45:00 19.1 C 90 % 17.42 C
2123 17-07-2016 08:50:00 19.3 C 90 % 17.62 C
2124 17-07-2016 08:55:00 19.4 C 89 % 17.54 C
2125 17-07-2016 09:00:00 19.5 C 88 % 17.46 C
Sensor: Nr:Datum:Temp:Feuchte:Taupunkt:
Aussen-T/F 2126 17-07-2016 09:05:00 19.6 C 88 % 17.56 C
2127 17-07-2016 09:10:00 19.7 C 88 % 17.66 C
2128 17-07-2016 09:15:00 19.8 C 88 % 17.75 C
2129 17-07-2016 09:20:00 20 C 88 % 17.95 C
2130 17-07-2016 09:25:00 20.2 C 87 % 17.97 C
2131 17-07-2016 09:30:00 20.3 C 87 % 18.06 C
2132 17-07-2016 09:35:00 20.4 C 86 % 17.98 C
2133 17-07-2016 09:40:00 20.6 C 87 % 18.36 C
2134 17-07-2016 09:45:00 20.8 C 85 % 18.18 C
2135 17-07-2016 09:50:00 20.9 C 84 % 18.09 C
2136 17-07-2016 09:55:00 21.2 C 84 % 18.39 C
2137 17-07-2016 10:00:00 21.4 C 83 % 18.39 C
2138 17-07-2016 10:05:00 21.7 C 82 % 18.49 C
2139 17-07-2016 10:10:00 21.9 C 81 % 18.49 C
2140 17-07-2016 10:15:00 22.1 C 80 % 18.49 C
2141 17-07-2016 10:20:00 22.2 C 80 % 18.58 C
2142 17-07-2016 10:25:00 22.3 C 80 % 18.68 C
2143 17-07-2016 10:30:00 22.5 C 79 % 18.67 C
2144 17-07-2016 10:35:00 22.7 C 77 % 18.46 C
2145 17-07-2016 10:40:00 22.8 C 74 % 17.92 C
2146 17-07-2016 10:45:00 22.9 C 74 % 18.02 C
2147 17-07-2016 10:50:00 23.1 C 75 % 18.43 C
2148 17-07-2016 10:55:00 23.3 C 73 % 18.19 C
2149 17-07-2016 11:00:00 23.4 C 73 % 18.28 C
2150 17-07-2016 11:05:00 23.5 C 72 % 18.16 C
Sensor: Nr:Datum:Temp:Feuchte:Taupunkt:
Aussen-T/F 2151 17-07-2016 11:10:00 23.6 C 73 % 18.48 C
2152 17-07-2016 11:15:00 23.7 C 72 % 18.35 C
2153 17-07-2016 11:20:00 23.8 C 69 % 17.77 C
2154 17-07-2016 11:25:00 23.8 C 74 % 18.89 C
2155 17-07-2016 11:30:00 23.7 C 70 % 17.9 C
2156 17-07-2016 11:35:00 23.7 C 70 % 17.9 C
2157 17-07-2016 11:40:00 23.7 C 73 % 18.57 C
2158 17-07-2016 11:45:00 23.7 C 73 % 18.57 C
2159 17-07-2016 11:50:00 23.8 C 73 % 18.67 C
2160 17-07-2016 11:55:00 24 C 71 % 18.42 C
2161 17-07-2016 12:00:00 24.2 C 73 % 19.05 C
2162 17-07-2016 12:05:00 24.3 C 72 % 18.93 C
2163 17-07-2016 12:10:00 24.4 C 72 % 19.02 C
2164 17-07-2016 12:15:00 24.6 C 76 % 20.09 C
2165 17-07-2016 12:20:00 24.5 C 74 % 19.56 C
2166 17-07-2016 12:25:00 24.6 C 69 % 18.53 C
2167 17-07-2016 12:30:00 24.7 C 74 % 19.75 C
2168 17-07-2016 12:35:00 24.7 C 74 % 19.75 C
2169 17-07-2016 12:40:00 24.4 C 75 % 19.68 C
2170 17-07-2016 12:45:00 24.2 C 76 % 19.7 C
2171 17-07-2016 12:50:00 23.9 C 78 % 19.83 C
2172 17-07-2016 12:55:00 23.7 C 79 % 19.84 C
2173 17-07-2016 13:00:00 23.5 C 79 % 19.65 C
2174 17-07-2016 13:05:00 23.4 C 81 % 19.95 C
2175 17-07-2016 13:10:00 23.4 C 82 % 20.15 C
Sensor: Nr:Datum:Temp:Feuchte:Taupunkt:
Aussen-T/F 2176 17-07-2016 13:15:00 23.7 C 75 % 19 C
2177 17-07-2016 13:20:00 24.2 C 76 % 19.7 C
2178 17-07-2016 13:25:00 24.4 C 70 % 18.57 C
2179 17-07-2016 13:30:00 24.7 C 70 % 18.86 C
2180 17-07-2016 13:35:00 24.9 C 69 % 18.82 C
2181 17-07-2016 13:40:00 24.9 C 71 % 19.28 C
2182 17-07-2016 13:45:00 25 C 70 % 19.15 C
2183 17-07-2016 13:50:00 25.2 C 71 % 19.56 C
2184 17-07-2016 13:55:00 25.3 C 69 % 19.2 C
2185 17-07-2016 14:00:00 25.4 C 71 % 19.76 C
2186 17-07-2016 14:05:00 25.4 C 72 % 19.98 C
2187 17-07-2016 14:10:00 25.6 C 75 % 20.84 C
2188 17-07-2016 14:15:00 25.5 C 75 % 20.74 C
2189 17-07-2016 14:20:00 25.3 C 75 % 20.55 C
2190 17-07-2016 14:25:00 25.2 C 76 % 20.67 C
2191 17-07-2016 14:30:00 25.2 C 77 % 20.88 C
2192 17-07-2016 14:35:00 25.2 C 77 % 20.88 C
2193 17-07-2016 14:40:00 25.3 C 75 % 20.55 C
2194 17-07-2016 14:45:00 25.4 C 75 % 20.64 C
2195 17-07-2016 14:50:00 25.5 C 73 % 20.3 C
2196 17-07-2016 14:55:00 25.6 C 75 % 20.84 C
2197 17-07-2016 15:00:00 25.7 C 75 % 20.93 C
2198 17-07-2016 15:05:00 25.7 C 75 % 20.93 C
2199 17-07-2016 15:10:00 25.7 C 77 % 21.36 C
2200 17-07-2016 15:15:00 25.7 C 78 % 21.57 C
Sensor: Nr:Datum:Temp:Feuchte:Taupunkt:
Aussen-T/F 2201 17-07-2016 15:20:00 25.7 C 69 % 19.58 C
2202 17-07-2016 15:25:00 25.8 C 73 % 20.59 C
2203 17-07-2016 15:30:00 25.7 C 71 % 20.04 C
2204 17-07-2016 15:35:00 25.3 C 64 % 18 C
2205 17-07-2016 15:40:00 25.1 C 65 % 18.06 C
2206 17-07-2016 15:45:00 25.1 C 66 % 18.3 C
2207 17-07-2016 15:50:00 25.2 C 66 % 18.39 C
2208 17-07-2016 15:55:00 25.7 C 66 % 18.87 C
2209 17-07-2016 16:00:00 26.3 C 62 % 18.44 C
2210 17-07-2016 16:05:00 26.7 C 60 % 18.29 C
2211 17-07-2016 16:10:00 26.7 C 61 % 18.55 C
2212 17-07-2016 16:15:00 26.4 C 62 % 18.53 C
2213 17-07-2016 16:20:00 26.1 C 62 % 18.25 C
2214 17-07-2016 16:25:00 26.1 C 62 % 18.25 C
2215 17-07-2016 16:30:00 26.2 C 63 % 18.6 C
2216 17-07-2016 16:35:00 26.6 C 62 % 18.72 C
2217 17-07-2016 16:40:00 27.1 C 60 % 18.66 C
2218 17-07-2016 16:45:00 27.1 C 58 % 18.12 C
2219 17-07-2016 16:50:00 26.8 C 60 % 18.38 C
2220 17-07-2016 16:55:00 26.8 C 61 % 18.65 C
2221 17-07-2016 17:00:00 26.7 C 60 % 18.29 C
2222 17-07-2016 17:05:00 26.4 C 61 % 18.27 C
2223 17-07-2016 17:10:00 26.2 C 61 % 18.08 C
2224 17-07-2016 17:15:00 26.2 C 61 % 18.08 C
2225 17-07-2016 17:20:00 26.3 C 60 % 17.91 C
Sensor: Nr:Datum:Temp:Feuchte:Taupunkt:
Aussen-T/F 2226 17-07-2016 17:25:00 26.2 C 60 % 17.82 C
2227 17-07-2016 17:30:00 26.4 C 59 % 17.74 C
2228 17-07-2016 17:35:00 26.5 C 59 % 17.83 C
2229 17-07-2016 17:40:00 26.4 C 58 % 17.47 C
2230 17-07-2016 17:45:00 26.2 C 59 % 17.55 C
2231 17-07-2016 17:50:00 26.2 C 58 % 17.28 C
2232 17-07-2016 17:55:00 26.4 C 57 % 17.19 C
2233 17-07-2016 18:00:00 26.4 C 56 % 16.92 C
2234 17-07-2016 18:05:00 26.1 C 56 % 16.64 C
2235 17-07-2016 18:10:00 25.9 C 59 % 17.27 C
2236 17-07-2016 18:15:00 25.9 C 58 % 17 C
2237 17-07-2016 18:20:00 26.1 C 58 % 17.19 C
2238 17-07-2016 18:25:00 26.1 C 58 % 17.19 C
2239 17-07-2016 18:30:00 25.8 C 59 % 17.18 C
2240 17-07-2016 18:35:00 25.7 C 60 % 17.35 C
2241 17-07-2016 18:40:00 25.6 C 60 % 17.26 C
2242 17-07-2016 18:45:00 25.7 C 61 % 17.61 C
2243 17-07-2016 18:50:00 25.7 C 65 % 18.62 C
2244 17-07-2016 18:55:00 25.7 C 60 % 17.35 C
2245 17-07-2016 19:00:00 25.6 C 59 % 16.99 C
2246 17-07-2016 19:05:00 25.6 C 62 % 17.78 C
2247 17-07-2016 19:10:00 25.4 C 61 % 17.33 C
2248 17-07-2016 19:15:00 25.3 C 60 % 16.98 C
2249 17-07-2016 19:20:00 25.1 C 60 % 16.79 C
2250 17-07-2016 19:25:00 25 C 61 % 16.96 C
Sensor: Nr:Datum:Temp:Feuchte:Taupunkt:
Aussen-T/F 2251 17-07-2016 19:30:00 25 C 70 % 19.15 C
2252 17-07-2016 19:35:00 24.8 C 68 % 18.49 C
2253 17-07-2016 19:40:00 24.7 C 69 % 18.63 C
2254 17-07-2016 19:45:00 24.8 C 63 % 17.28 C
2255 17-07-2016 19:50:00 25.1 C 65 % 18.06 C
2256 17-07-2016 19:55:00 25.4 C 62 % 17.59 C
2257 17-07-2016 20:00:00 25.6 C 61 % 17.52 C
2258 17-07-2016 20:05:00 25.6 C 61 % 17.52 C
2259 17-07-2016 20:10:00 25.6 C 60 % 17.26 C
2260 17-07-2016 20:15:00 25.4 C 62 % 17.59 C
2261 17-07-2016 20:20:00 25.2 C 62 % 17.4 C
2262 17-07-2016 20:25:00 25 C 64 % 17.72 C
2263 17-07-2016 20:30:00 24.8 C 69 % 18.72 C
2264 17-07-2016 20:35:00 24.5 C 70 % 18.67 C
2265 17-07-2016 20:40:00 24.3 C 71 % 18.7 C
2266 17-07-2016 20:45:00 24.1 C 72 % 18.73 C
2267 17-07-2016 20:50:00 23.8 C 71 % 18.22 C
2268 17-07-2016 20:55:00 23.7 C 70 % 17.9 C
2269 17-07-2016 21:00:00 23.6 C 72 % 18.26 C
2270 17-07-2016 21:05:00 23.5 C 75 % 18.81 C
2271 17-07-2016 21:10:00 23.3 C 75 % 18.62 C
2272 17-07-2016 21:15:00 23 C 76 % 18.54 C
2273 17-07-2016 21:20:00 22.7 C 76 % 18.25 C
2274 17-07-2016 21:25:00 22.5 C 77 % 18.27 C
2275 17-07-2016 21:30:00 22.3 C 78 % 18.28 C
Sensor: Nr:Datum:Temp:Feuchte:Taupunkt:
Aussen-T/F 2276 17-07-2016 21:35:00 22.2 C 79 % 18.38 C
2277 17-07-2016 21:40:00 21.9 C 80 % 18.29 C
2278 17-07-2016 21:45:00 21.7 C 81 % 18.3 C
2279 17-07-2016 21:50:00 21.6 C 82 % 18.39 C
2280 17-07-2016 21:55:00 21.4 C 82 % 18.2 C
2281 17-07-2016 22:00:00 21.3 C 83 % 18.29 C
2282 17-07-2016 22:05:00 21.2 C 83 % 18.2 C
2283 17-07-2016 22:10:00 21.1 C 84 % 18.29 C
2284 17-07-2016 22:15:00 21 C 84 % 18.19 C
2285 17-07-2016 22:20:00 20.9 C 84 % 18.09 C
2286 17-07-2016 22:25:00 20.8 C 85 % 18.18 C
2287 17-07-2016 22:30:00 20.8 C 85 % 18.18 C
2288 17-07-2016 22:35:00 20.7 C 85 % 18.09 C
2289 17-07-2016 22:40:00 20.7 C 86 % 18.27 C
2290 17-07-2016 22:45:00 20.6 C 86 % 18.18 C
2291 17-07-2016 22:50:00 20.6 C 86 % 18.18 C
2292 17-07-2016 22:55:00 20.6 C 86 % 18.18 C
2293 17-07-2016 23:00:00 20.5 C 86 % 18.08 C
2294 17-07-2016 23:05:00 20.4 C 87 % 18.16 C
2295 17-07-2016 23:10:00 20.4 C 87 % 18.16 C
2296 17-07-2016 23:15:00 20.3 C 87 % 18.06 C
2297 17-07-2016 23:20:00 20.3 C 87 % 18.06 C
2298 17-07-2016 23:25:00 20.3 C 87 % 18.06 C
2299 17-07-2016 23:30:00 20.2 C 87 % 17.97 C
2300 17-07-2016 23:35:00 20.2 C 87 % 17.97 C
Sensor: Nr:Datum:Temp:Feuchte:Taupunkt:
Aussen-T/F 2301 17-07-2016 23:40:00 20.1 C 88 % 18.05 C
2302 17-07-2016 23:45:00 19.9 C 88 % 17.85 C
2303 17-07-2016 23:50:00 19.9 C 88 % 17.85 C
2304 17-07-2016 23:55:00 19.8 C 88 % 17.75 C
2305 18-07-2016 00:00:00 19.8 C 88 % 17.75 C
2306 18-07-2016 00:05:00 19.8 C 88 % 17.75 C
2307 18-07-2016 00:10:00 19.7 C 89 % 17.84 C
2308 18-07-2016 00:15:00 19.6 C 89 % 17.74 C
2309 18-07-2016 00:20:00 19.5 C 89 % 17.64 C
2310 18-07-2016 00:25:00 19.4 C 89 % 17.54 C
2311 18-07-2016 00:30:00 19.4 C 89 % 17.54 C
2312 18-07-2016 00:35:00 19.3 C 89 % 17.44 C
2313 18-07-2016 00:40:00 19.3 C 89 % 17.44 C
2314 18-07-2016 00:45:00 19.2 C 90 % 17.52 C
2315 18-07-2016 00:50:00 19.1 C 90 % 17.42 C
2316 18-07-2016 00:55:00 19.1 C 90 % 17.42 C
2317 18-07-2016 01:00:00 19 C 90 % 17.32 C
2318 18-07-2016 01:05:00 18.9 C 90 % 17.22 C
2319 18-07-2016 01:10:00 18.9 C 91 % 17.4 C
2320 18-07-2016 01:15:00 18.8 C 91 % 17.3 C
2321 18-07-2016 01:20:00 18.8 C 91 % 17.3 C
2322 18-07-2016 01:25:00 18.7 C 91 % 17.2 C
2323 18-07-2016 01:30:00 18.7 C 92 % 17.37 C
2324 18-07-2016 01:35:00 18.7 C 92 % 17.37 C
2325 18-07-2016 01:40:00 18.7 C 92 % 17.37 C
Sensor: Nr:Datum:Temp:Feuchte:Taupunkt:
Aussen-T/F 2326 18-07-2016 01:45:00 18.7 C 92 % 17.37 C
2327 18-07-2016 01:50:00 18.6 C 92 % 17.27 C
2328 18-07-2016 01:55:00 18.6 C 92 % 17.27 C
2329 18-07-2016 02:00:00 18.4 C 92 % 17.08 C
2330 18-07-2016 02:05:00 18.4 C 92 % 17.08 C
2331 18-07-2016 02:10:00 18.3 C 92 % 16.98 C
2332 18-07-2016 02:15:00 18.3 C 92 % 16.98 C
2333 18-07-2016 02:20:00 18.2 C 92 % 16.88 C
2334 18-07-2016 02:25:00 18.2 C 92 % 16.88 C
2335 18-07-2016 02:30:00 18.1 C 92 % 16.78 C
2336 18-07-2016 02:35:00 18 C 93 % 16.85 C
2337 18-07-2016 02:40:00 17.9 C 93 % 16.75 C
2338 18-07-2016 02:45:00 17.9 C 93 % 16.75 C
2339 18-07-2016 02:50:00 17.9 C 93 % 16.75 C
2340 18-07-2016 02:55:00 17.8 C 93 % 16.65 C
2341 18-07-2016 03:00:00 17.8 C 93 % 16.65 C
2342 18-07-2016 03:05:00 17.7 C 93 % 16.55 C
2343 18-07-2016 03:10:00 17.7 C 93 % 16.55 C
2344 18-07-2016 03:15:00 17.6 C 93 % 16.45 C
2345 18-07-2016 03:20:00 17.6 C 93 % 16.45 C
2346 18-07-2016 03:25:00 17.6 C 93 % 16.45 C
2347 18-07-2016 03:30:00 17.6 C 93 % 16.45 C
2348 18-07-2016 03:35:00 17.6 C 93 % 16.45 C
2349 18-07-2016 03:40:00 17.6 C 94 % 16.62 C
2350 18-07-2016 03:45:00 17.6 C 94 % 16.62 C
Sensor: Nr:Datum:Temp:Feuchte:Taupunkt:
Aussen-T/F 2351 18-07-2016 03:50:00 17.6 C 94 % 16.62 C
2352 18-07-2016 03:55:00 17.6 C 94 % 16.62 C
2353 18-07-2016 04:00:00 17.5 C 94 % 16.52 C
2354 18-07-2016 04:05:00 17.5 C 94 % 16.52 C
2355 18-07-2016 04:10:00 17.4 C 94 % 16.42 C
2356 18-07-2016 04:15:00 17.4 C 94 % 16.42 C
2357 18-07-2016 04:20:00 17.4 C 94 % 16.42 C
2358 18-07-2016 04:25:00 17.3 C 94 % 16.33 C
2359 18-07-2016 04:30:00 17.3 C 93 % 16.16 C
2360 18-07-2016 04:35:00 17.3 C 94 % 16.33 C
2361 18-07-2016 04:40:00 17.3 C 94 % 16.33 C
2362 18-07-2016 04:45:00 17.3 C 94 % 16.33 C
2363 18-07-2016 04:50:00 17.2 C 94 % 16.23 C
2364 18-07-2016 04:55:00 17.2 C 94 % 16.23 C
2365 18-07-2016 05:00:00 17.1 C 94 % 16.13 C
2366 18-07-2016 05:05:00 16.9 C 93 % 15.76 C
2367 18-07-2016 05:10:00 16.8 C 93 % 15.66 C
2368 18-07-2016 05:15:00 16.8 C 94 % 15.83 C
2369 18-07-2016 05:20:00 16.7 C 94 % 15.73 C
2370 18-07-2016 05:25:00 16.6 C 94 % 15.63 C
2371 18-07-2016 05:30:00 16.5 C 94 % 15.53 C
2372 18-07-2016 05:35:00 16.4 C 94 % 15.43 C
2373 18-07-2016 05:40:00 16.4 C 94 % 15.43 C
2374 18-07-2016 05:45:00 16.3 C 94 % 15.33 C
2375 18-07-2016 05:50:00 16.3 C 94 % 15.33 C
Sensor: Nr:Datum:Temp:Feuchte:Taupunkt:
Aussen-T/F 2376 18-07-2016 05:55:00 16.2 C 94 % 15.23 C
2377 18-07-2016 06:00:00 16.2 C 94 % 15.23 C
2378 18-07-2016 06:05:00 16.2 C 94 % 15.23 C
2379 18-07-2016 06:10:00 16.1 C 94 % 15.13 C
2380 18-07-2016 06:15:00 16.2 C 95 % 15.4 C
2381 18-07-2016 06:20:00 16.2 C 95 % 15.4 C
2382 18-07-2016 06:25:00 16.3 C 95 % 15.5 C
2383 18-07-2016 06:30:00 16.3 C 95 % 15.5 C
2384 18-07-2016 06:35:00 16.3 C 95 % 15.5 C
2385 18-07-2016 06:40:00 16.3 C 95 % 15.5 C
2386 18-07-2016 06:45:00 16.3 C 95 % 15.5 C
2387 18-07-2016 06:50:00 16.4 C 95 % 15.6 C
2388 18-07-2016 06:55:00 16.4 C 95 % 15.6 C
2389 18-07-2016 07:00:00 16.4 C 95 % 15.6 C
2390 18-07-2016 07:05:00 16.3 C 95 % 15.5 C
2391 18-07-2016 07:10:00 16.3 C 95 % 15.5 C
2392 18-07-2016 07:15:00 16.3 C 95 % 15.5 C
2393 18-07-2016 07:20:00 16.3 C 95 % 15.5 C
2394 18-07-2016 07:25:00 16.3 C 95 % 15.5 C
2395 18-07-2016 07:30:00 16.3 C 95 % 15.5 C
2396 18-07-2016 07:35:00 16.3 C 95 % 15.5 C
2397 18-07-2016 07:40:00 16.4 C 95 % 15.6 C
2398 18-07-2016 07:45:00 16.4 C 95 % 15.6 C
2399 18-07-2016 07:50:00 16.4 C 95 % 15.6 C
2400 18-07-2016 07:55:00 16.5 C 95 % 15.7 C
Sensor: Nr:Datum:Temp:Feuchte:Taupunkt:
Aussen-T/F 2401 18-07-2016 08:00:00 16.6 C 95 % 15.8 C
2402 18-07-2016 08:05:00 16.6 C 95 % 15.8 C
2403 18-07-2016 08:10:00 16.7 C 95 % 15.9 C
2404 18-07-2016 08:15:00 16.7 C 95 % 15.9 C
2405 18-07-2016 08:20:00 16.8 C 95 % 15.99 C
2406 18-07-2016 08:25:00 16.9 C 96 % 16.26 C
2407 18-07-2016 08:30:00 17 C 96 % 16.36 C
2408 18-07-2016 08:35:00 17.1 C 95 % 16.29 C
2409 18-07-2016 08:40:00 17.2 C 95 % 16.39 C
2410 18-07-2016 08:45:00 17.2 C 96 % 16.56 C
2411 18-07-2016 08:50:00 17.3 C 96 % 16.66 C
2412 18-07-2016 08:55:00 17.4 C 96 % 16.76 C
2413 18-07-2016 09:00:00 17.5 C 96 % 16.85 C
2414 18-07-2016 09:05:00 17.6 C 96 % 16.95 C
2415 18-07-2016 09:10:00 17.7 C 96 % 17.05 C
2416 18-07-2016 09:15:00 17.8 C 95 % 16.99 C
2417 18-07-2016 09:20:00 17.8 C 95 % 16.99 C
2418 18-07-2016 09:25:00 18 C 96 % 17.35 C
2419 18-07-2016 09:30:00 18.2 C 95 % 17.39 C
2420 18-07-2016 09:35:00 18.3 C 96 % 17.65 C
2421 18-07-2016 09:40:00 18.5 C 95 % 17.68 C
2422 18-07-2016 09:45:00 18.6 C 95 % 17.78 C
2423 18-07-2016 09:50:00 18.7 C 95 % 17.88 C
2424 18-07-2016 09:55:00 18.7 C 95 % 17.88 C
2425 18-07-2016 10:00:00 18.9 C 94 % 17.91 C
Sensor: Nr:Datum:Temp:Feuchte:Taupunkt:
Aussen-T/F 2426 18-07-2016 10:05:00 19 C 94 % 18.01 C
2427 18-07-2016 10:10:00 19.2 C 94 % 18.21 C
2428 18-07-2016 10:15:00 19.3 C 93 % 18.14 C
2429 18-07-2016 10:20:00 19.7 C 92 % 18.36 C
2430 18-07-2016 10:25:00 20.1 C 91 % 18.58 C
2431 18-07-2016 10:30:00 20.6 C 88 % 18.54 C
2432 18-07-2016 10:35:00 21.2 C 86 % 18.76 C
2433 18-07-2016 10:40:00 21.8 C 84 % 18.97 C
2434 18-07-2016 10:45:00 22.4 C 80 % 18.78 C
2435 18-07-2016 10:50:00 22.8 C 77 % 18.56 C
2436 18-07-2016 10:55:00 23.1 C 76 % 18.64 C
2437 18-07-2016 11:00:00 23.2 C 78 % 19.15 C
2438 18-07-2016 11:05:00 23 C 77 % 18.75 C
2439 18-07-2016 11:10:00 22.8 C 78 % 18.76 C
2440 18-07-2016 11:15:00 22.7 C 76 % 18.25 C
2441 18-07-2016 11:20:00 22.6 C 77 % 18.36 C
2442 18-07-2016 11:25:00 22.7 C 73 % 17.61 C
2443 18-07-2016 11:30:00 22.9 C 73 % 17.8 C
2444 18-07-2016 11:35:00 23.1 C 72 % 17.78 C
2445 18-07-2016 11:40:00 23.2 C 72 % 17.87 C
2446 18-07-2016 11:45:00 23.3 C 72 % 17.97 C
2447 18-07-2016 11:50:00 23.4 C 71 % 17.84 C
2448 18-07-2016 11:55:00 23.5 C 67 % 17.02 C
2449 18-07-2016 12:00:00 23.6 C 69 % 17.58 C
2450 18-07-2016 12:05:00 23.7 C 68 % 17.44 C
Sensor: Nr:Datum:Temp:Feuchte:Taupunkt:
Aussen-T/F 2451 18-07-2016 12:10:00 23.7 C 68 % 17.44 C
2452 18-07-2016 12:15:00 23.7 C 68 % 17.44 C
2453 18-07-2016 12:20:00 23.7 C 69 % 17.67 C
2454 18-07-2016 12:25:00 23.7 C 67 % 17.21 C
2455 18-07-2016 12:30:00 23.8 C 66 % 17.07 C
2456 18-07-2016 12:35:00 23.9 C 65 % 16.92 C
2457 18-07-2016 12:40:00 24 C 66 % 17.26 C
2458 18-07-2016 12:45:00 24 C 67 % 17.49 C
2459 18-07-2016 12:50:00 24.1 C 65 % 17.11 C
2460 18-07-2016 12:55:00 24.2 C 63 % 16.71 C
2461 18-07-2016 13:00:00 24.3 C 66 % 17.54 C
2462 18-07-2016 13:05:00 24.3 C 71 % 18.7 C
2463 18-07-2016 13:10:00 24.2 C 64 % 16.96 C
2464 18-07-2016 13:15:00 24.3 C 65 % 17.3 C
2465 18-07-2016 13:20:00 24.4 C 64 % 17.15 C
2466 18-07-2016 13:25:00 24.5 C 68 % 18.2 C
2467 18-07-2016 13:30:00 24.4 C 65 % 17.39 C
2468 18-07-2016 13:35:00 24.3 C 61 % 16.3 C
2469 18-07-2016 13:40:00 24.3 C 61 % 16.3 C
2470 18-07-2016 13:45:00 24.5 C 63 % 16.99 C
2471 18-07-2016 13:50:00 24.5 C 58 % 15.7 C
2472 18-07-2016 13:55:00 24.7 C 59 % 16.15 C
2473 18-07-2016 14:00:00 24.9 C 56 % 15.52 C
2474 18-07-2016 14:05:00 24.9 C 54 % 14.95 C
2475 18-07-2016 14:10:00 24.9 C 57 % 15.8 C
Sensor: Nr:Datum:Temp:Feuchte:Taupunkt:
Aussen-T/F 2476 18-07-2016 14:15:00 24.9 C 53 % 14.66 C
2477 18-07-2016 14:20:00 25 C 56 % 15.61 C
2478 18-07-2016 14:25:00 25.2 C 56 % 15.8 C
2479 18-07-2016 14:30:00 25.3 C 53 % 15.03 C
2480 18-07-2016 14:35:00 25.6 C 53 % 15.31 C
2481 18-07-2016 14:40:00 25.7 C 48 % 13.87 C
2482 18-07-2016 14:45:00 25.8 C 52 % 15.2 C
2483 18-07-2016 14:50:00 25.8 C 52 % 15.2 C
2484 18-07-2016 14:55:00 25.9 C 52 % 15.29 C
2485 18-07-2016 15:00:00 26 C 55 % 16.26 C
2486 18-07-2016 15:05:00 26 C 52 % 15.38 C
2487 18-07-2016 15:10:00 26.1 C 54 % 16.07 C
2488 18-07-2016 15:15:00 26.4 C 51 % 15.45 C
2489 18-07-2016 15:20:00 26.8 C 51 % 15.82 C
2490 18-07-2016 15:25:00 26.9 C 49 % 15.28 C
2491 18-07-2016 15:30:00 26.9 C 49 % 15.28 C
2492 18-07-2016 15:35:00 27.3 C 46 % 14.67 C
2493 18-07-2016 15:40:00 27.8 C 45 % 14.78 C
2494 18-07-2016 15:45:00 28.1 C 46 % 15.39 C
2495 18-07-2016 15:50:00 28.2 C 53 % 17.71 C
2496 18-07-2016 15:55:00 28.3 C 55 % 18.39 C
2497 18-07-2016 16:00:00 28.5 C 43 % 14.71 C
2498 18-07-2016 16:05:00 28.7 C 45 % 15.59 C
2499 18-07-2016 16:10:00 29.1 C 44 % 15.6 C
2500 18-07-2016 16:15:00 29.3 C 49 % 17.48 C
Sensor: Nr:Datum:Temp:Feuchte:Taupunkt:
Aussen-T/F 2501 18-07-2016 16:20:00 29.5 C 44 % 15.96 C
2502 18-07-2016 16:25:00 29.4 C 43 % 15.51 C
2503 18-07-2016 16:30:00 29.2 C 43 % 15.33 C
2504 18-07-2016 16:35:00 29.1 C 44 % 15.6 C
2505 18-07-2016 16:40:00 28.9 C 43 % 15.06 C
2506 18-07-2016 16:45:00 28.7 C 46 % 15.94 C
2507 18-07-2016 16:50:00 28.7 C 46 % 15.94 C
2508 18-07-2016 16:55:00 28.9 C 47 % 16.45 C
2509 18-07-2016 17:00:00 29.1 C 42 % 14.88 C
2510 18-07-2016 17:05:00 29.4 C 48 % 17.24 C
2511 18-07-2016 17:10:00 29.5 C 44 % 15.96 C
2512 18-07-2016 17:15:00 29.7 C 46 % 16.84 C
2513 18-07-2016 17:20:00 29.7 C 44 % 16.14 C
2514 18-07-2016 17:25:00 29.8 C 47 % 17.27 C
2515 18-07-2016 17:30:00 29.9 C 47 % 17.36 C
2516 18-07-2016 17:35:00 30 C 45 % 16.77 C
2517 18-07-2016 17:40:00 30.2 C 44 % 16.59 C
2518 18-07-2016 17:45:00 30.2 C 43 % 16.23 C
2519 18-07-2016 17:50:00 30.2 C 43 % 16.23 C
2520 18-07-2016 17:55:00 30.1 C 44 % 16.5 C
2521 18-07-2016 18:00:00 30 C 43 % 16.05 C
2522 18-07-2016 18:05:00 29.9 C 41 % 15.22 C
2523 18-07-2016 18:10:00 29.8 C 42 % 15.51 C
2524 18-07-2016 18:15:00 29.8 C 41 % 15.13 C
2525 18-07-2016 18:20:00 29.9 C 42 % 15.6 C
Sensor: Nr:Datum:Temp:Feuchte:Taupunkt:
Aussen-T/F 2526 18-07-2016 18:25:00 29.9 C 44 % 16.32 C
2527 18-07-2016 18:30:00 30 C 50 % 18.44 C
2528 18-07-2016 18:35:00 30.3 C 53 % 19.65 C
2529 18-07-2016 18:40:00 30.6 C 42 % 16.22 C
2530 18-07-2016 18:45:00 30.7 C 40 % 15.55 C
2531 18-07-2016 18:50:00 30.3 C 42 % 15.95 C
2532 18-07-2016 18:55:00 30.1 C 40 % 15.01 C
2533 18-07-2016 19:00:00 30.1 C 43 % 16.14 C
2534 18-07-2016 19:05:00 30.2 C 46 % 17.3 C
2535 18-07-2016 19:10:00 30.3 C 42 % 15.95 C
2536 18-07-2016 19:15:00 30.2 C 42 % 15.86 C
2537 18-07-2016 19:20:00 30.1 C 49 % 18.21 C
2538 18-07-2016 19:25:00 29.8 C 52 % 18.88 C
2539 18-07-2016 19:30:00 29.4 C 54 % 19.12 C
2540 18-07-2016 19:35:00 29 C 55 % 19.04 C
2541 18-07-2016 19:40:00 28.6 C 56 % 18.96 C
2542 18-07-2016 19:45:00 28.2 C 57 % 18.87 C
2543 18-07-2016 19:50:00 27.7 C 58 % 18.68 C
2544 18-07-2016 19:55:00 27.2 C 60 % 18.76 C
2545 18-07-2016 20:00:00 26.7 C 61 % 18.55 C
2546 18-07-2016 20:05:00 26.4 C 62 % 18.53 C
2547 18-07-2016 20:10:00 26.2 C 63 % 18.6 C
2548 18-07-2016 20:15:00 25.9 C 63 % 18.31 C
2549 18-07-2016 20:20:00 25.7 C 64 % 18.38 C
2550 18-07-2016 20:25:00 25.5 C 64 % 18.19 C
Sensor: Nr:Datum:Temp:Feuchte:Taupunkt:
Aussen-T/F 2551 18-07-2016 20:30:00 25.3 C 65 % 18.25 C
2552 18-07-2016 20:35:00 25.1 C 64 % 17.81 C
2553 18-07-2016 20:40:00 24.9 C 65 % 17.87 C
2554 18-07-2016 20:45:00 24.6 C 65 % 17.58 C
2555 18-07-2016 20:50:00 24.3 C 66 % 17.54 C
2556 18-07-2016 20:55:00 24.1 C 67 % 17.59 C
2557 18-07-2016 21:00:00 23.7 C 67 % 17.21 C
2558 18-07-2016 21:05:00 23.4 C 68 % 17.16 C
2559 18-07-2016 21:10:00 23.2 C 69 % 17.2 C
2560 18-07-2016 21:15:00 22.8 C 70 % 17.04 C
2561 18-07-2016 21:20:00 22.6 C 71 % 17.07 C
2562 18-07-2016 21:25:00 22.2 C 71 % 16.69 C
2563 18-07-2016 21:30:00 22.1 C 71 % 16.6 C
2564 18-07-2016 21:35:00 21.8 C 72 % 16.53 C
2565 18-07-2016 21:40:00 21.7 C 72 % 16.43 C
2566 18-07-2016 21:45:00 21.6 C 73 % 16.55 C
2567 18-07-2016 21:50:00 21.4 C 74 % 16.57 C
2568 18-07-2016 21:55:00 21.2 C 74 % 16.38 C
2569 18-07-2016 22:00:00 20.9 C 75 % 16.3 C
2570 18-07-2016 22:05:00 20.8 C 75 % 16.21 C
2571 18-07-2016 22:10:00 20.7 C 76 % 16.32 C
2572 18-07-2016 22:15:00 20.6 C 77 % 16.43 C
2573 18-07-2016 22:20:00 20.4 C 77 % 16.23 C
2574 18-07-2016 22:25:00 20.2 C 78 % 16.24 C
2575 18-07-2016 22:30:00 20 C 78 % 16.05 C
Sensor: Nr:Datum:Temp:Feuchte:Taupunkt:
Aussen-T/F 2576 18-07-2016 22:35:00 19.8 C 79 % 16.05 C
2577 18-07-2016 22:40:00 19.7 C 80 % 16.15 C
2578 18-07-2016 22:45:00 19.5 C 79 % 15.76 C
2579 18-07-2016 22:50:00 19.4 C 80 % 15.86 C
2580 18-07-2016 22:55:00 19.3 C 80 % 15.76 C
2581 18-07-2016 23:00:00 19.2 C 80 % 15.67 C
2582 18-07-2016 23:05:00 19 C 81 % 15.67 C
2583 18-07-2016 23:10:00 18.9 C 81 % 15.57 C
2584 18-07-2016 23:15:00 18.8 C 81 % 15.47 C
2585 18-07-2016 23:20:00 18.7 C 82 % 15.57 C
2586 18-07-2016 23:25:00 18.6 C 83 % 15.66 C
2587 18-07-2016 23:30:00 18.4 C 83 % 15.46 C
2588 18-07-2016 23:35:00 18.3 C 83 % 15.36 C
2589 18-07-2016 23:40:00 18.3 C 83 % 15.36 C
2590 18-07-2016 23:45:00 18.2 C 83 % 15.27 C
2591 18-07-2016 23:50:00 18.2 C 83 % 15.27 C
2592 18-07-2016 23:55:00 18.1 C 84 % 15.35 C
2593 19-07-2016 00:00:00 18 C 84 % 15.26 C
2594 19-07-2016 00:05:00 17.8 C 85 % 15.25 C
2595 19-07-2016 00:10:00 17.8 C 85 % 15.25 C
2596 19-07-2016 00:15:00 17.7 C 85 % 15.15 C
2597 19-07-2016 00:20:00 17.6 C 86 % 15.23 C
2598 19-07-2016 00:25:00 17.4 C 86 % 15.03 C
2599 19-07-2016 00:30:00 17.4 C 86 % 15.03 C
2600 19-07-2016 00:35:00 17.3 C 86 % 14.94 C
Sensor: Nr:Datum:Temp:Feuchte:Taupunkt:
Aussen-T/F 2601 19-07-2016 00:40:00 17.3 C 86 % 14.94 C
2602 19-07-2016 00:45:00 17.3 C 86 % 14.94 C
2603 19-07-2016 00:50:00 17.2 C 87 % 15.02 C
2604 19-07-2016 00:55:00 17.1 C 87 % 14.92 C
2605 19-07-2016 01:00:00 17 C 87 % 14.82 C
2606 19-07-2016 01:05:00 16.9 C 87 % 14.72 C
2607 19-07-2016 01:10:00 16.8 C 88 % 14.8 C
2608 19-07-2016 01:15:00 16.8 C 88 % 14.8 C
2609 19-07-2016 01:20:00 16.7 C 88 % 14.7 C
2610 19-07-2016 01:25:00 16.7 C 88 % 14.7 C
2611 19-07-2016 01:30:00 16.7 C 89 % 14.88 C
2612 19-07-2016 01:35:00 16.6 C 89 % 14.78 C
2613 19-07-2016 01:40:00 16.6 C 89 % 14.78 C
2614 19-07-2016 01:45:00 16.5 C 89 % 14.68 C
2615 19-07-2016 01:50:00 16.4 C 89 % 14.58 C
2616 19-07-2016 01:55:00 16.4 C 90 % 14.76 C
2617 19-07-2016 02:00:00 16.4 C 90 % 14.76 C
2618 19-07-2016 02:05:00 16.3 C 90 % 14.66 C
2619 19-07-2016 02:10:00 16.3 C 90 % 14.66 C
2620 19-07-2016 02:15:00 16.3 C 90 % 14.66 C
2621 19-07-2016 02:20:00 16.2 C 90 % 14.56 C
2622 19-07-2016 02:25:00 16.2 C 90 % 14.56 C
2623 19-07-2016 02:30:00 16.1 C 90 % 14.46 C
2624 19-07-2016 02:35:00 16 C 90 % 14.36 C
2625 19-07-2016 02:40:00 15.9 C 91 % 14.43 C
Sensor: Nr:Datum:Temp:Feuchte:Taupunkt:
Aussen-T/F 2626 19-07-2016 02:45:00 15.9 C 91 % 14.43 C
2627 19-07-2016 02:50:00 15.8 C 91 % 14.33 C
2628 19-07-2016 02:55:00 15.8 C 91 % 14.33 C
2629 19-07-2016 03:00:00 15.8 C 92 % 14.5 C
2630 19-07-2016 03:05:00 15.7 C 92 % 14.4 C
2631 19-07-2016 03:10:00 15.6 C 92 % 14.31 C
2632 19-07-2016 03:15:00 15.6 C 92 % 14.31 C
2633 19-07-2016 03:20:00 15.5 C 92 % 14.21 C
2634 19-07-2016 03:25:00 15.4 C 92 % 14.11 C
2635 19-07-2016 03:30:00 15.4 C 92 % 14.11 C
2636 19-07-2016 03:35:00 15.4 C 93 % 14.27 C
2637 19-07-2016 03:40:00 15.4 C 93 % 14.27 C
2638 19-07-2016 03:45:00 15.3 C 93 % 14.18 C
2639 19-07-2016 03:50:00 15.3 C 93 % 14.18 C
2640 19-07-2016 03:55:00 15.3 C 93 % 14.18 C
2641 19-07-2016 04:00:00 15.2 C 93 % 14.08 C
2642 19-07-2016 04:05:00 15.2 C 93 % 14.08 C
2643 19-07-2016 04:10:00 15.2 C 93 % 14.08 C
2644 19-07-2016 04:15:00 15.2 C 93 % 14.08 C
2645 19-07-2016 04:20:00 15.1 C 93 % 13.98 C
2646 19-07-2016 04:25:00 15.1 C 93 % 13.98 C
2647 19-07-2016 04:30:00 14.9 C 93 % 13.78 C
2648 19-07-2016 04:35:00 15 C 93 % 13.88 C
2649 19-07-2016 04:40:00 14.9 C 93 % 13.78 C
2650 19-07-2016 04:45:00 14.9 C 94 % 13.94 C
Sensor: Nr:Datum:Temp:Feuchte:Taupunkt:
Aussen-T/F 2651 19-07-2016 04:50:00 14.9 C 94 % 13.94 C
2652 19-07-2016 04:55:00 14.9 C 94 % 13.94 C
2653 19-07-2016 05:00:00 14.8 C 94 % 13.84 C
2654 19-07-2016 05:05:00 14.8 C 94 % 13.84 C
2655 19-07-2016 05:10:00 14.7 C 94 % 13.74 C
2656 19-07-2016 05:15:00 14.7 C 94 % 13.74 C
2657 19-07-2016 05:20:00 14.7 C 94 % 13.74 C
2658 19-07-2016 05:25:00 14.7 C 94 % 13.74 C
2659 19-07-2016 05:30:00 14.7 C 94 % 13.74 C
2660 19-07-2016 05:35:00 14.6 C 94 % 13.65 C
2661 19-07-2016 05:40:00 14.5 C 94 % 13.55 C
2662 19-07-2016 05:45:00 14.4 C 94 % 13.45 C
2663 19-07-2016 05:50:00 14.4 C 94 % 13.45 C
2664 19-07-2016 05:55:00 14.4 C 94 % 13.45 C
2665 19-07-2016 06:00:00 14.5 C 94 % 13.55 C
2666 19-07-2016 06:05:00 14.5 C 94 % 13.55 C
2667 19-07-2016 06:10:00 14.6 C 95 % 13.81 C
2668 19-07-2016 06:15:00 14.6 C 95 % 13.81 C
2669 19-07-2016 06:20:00 14.6 C 95 % 13.81 C
2670 19-07-2016 06:25:00 14.6 C 95 % 13.81 C
2671 19-07-2016 06:30:00 14.6 C 95 % 13.81 C
2672 19-07-2016 06:35:00 14.6 C 95 % 13.81 C
2673 19-07-2016 06:40:00 14.7 C 95 % 13.91 C
2674 19-07-2016 06:45:00 14.7 C 95 % 13.91 C
2675 19-07-2016 06:50:00 14.7 C 95 % 13.91 C
Sensor: Nr:Datum:Temp:Feuchte:Taupunkt:
Aussen-T/F 2676 19-07-2016 06:55:00 14.7 C 95 % 13.91 C
2677 19-07-2016 07:00:00 14.7 C 95 % 13.91 C
2678 19-07-2016 07:05:00 14.7 C 95 % 13.91 C
2679 19-07-2016 07:10:00 14.8 C 95 % 14.01 C
2680 19-07-2016 07:15:00 14.8 C 95 % 14.01 C
2681 19-07-2016 07:20:00 14.9 C 95 % 14.11 C
2682 19-07-2016 07:25:00 14.9 C 95 % 14.11 C
2683 19-07-2016 07:30:00 15 C 95 % 14.21 C
2684 19-07-2016 07:35:00 15.1 C 95 % 14.31 C
2685 19-07-2016 07:40:00 15.1 C 95 % 14.31 C
2686 19-07-2016 07:45:00 15.2 C 95 % 14.4 C
2687 19-07-2016 07:50:00 15.3 C 95 % 14.5 C
2688 19-07-2016 07:55:00 15.3 C 95 % 14.5 C
2689 19-07-2016 08:00:00 15.4 C 95 % 14.6 C
2690 19-07-2016 08:05:00 15.5 C 95 % 14.7 C
2691 19-07-2016 08:10:00 15.6 C 95 % 14.8 C
2692 19-07-2016 08:15:00 15.7 C 95 % 14.9 C
2693 19-07-2016 08:20:00 15.8 C 95 % 15 C
2694 19-07-2016 08:25:00 15.8 C 95 % 15 C
2695 19-07-2016 08:30:00 15.9 C 95 % 15.1 C
2696 19-07-2016 08:35:00 16 C 95 % 15.2 C
2697 19-07-2016 08:40:00 16.1 C 95 % 15.3 C
2698 19-07-2016 08:45:00 16.2 C 95 % 15.4 C
2699 19-07-2016 08:50:00 16.3 C 95 % 15.5 C
2700 19-07-2016 08:55:00 16.4 C 95 % 15.6 C
Sensor: Nr:Datum:Temp:Feuchte:Taupunkt:
Aussen-T/F 2701 19-07-2016 09:00:00 16.6 C 95 % 15.8 C
2702 19-07-2016 09:05:00 16.7 C 95 % 15.9 C
2703 19-07-2016 09:10:00 16.8 C 95 % 15.99 C
2704 19-07-2016 09:15:00 16.9 C 95 % 16.09 C
2705 19-07-2016 09:20:00 17 C 95 % 16.19 C
2706 19-07-2016 09:25:00 17.2 C 95 % 16.39 C
2707 19-07-2016 09:30:00 17.3 C 95 % 16.49 C
2708 19-07-2016 09:35:00 17.4 C 95 % 16.59 C
2709 19-07-2016 09:40:00 17.6 C 95 % 16.79 C
2710 19-07-2016 09:45:00 17.7 C 94 % 16.72 C
2711 19-07-2016 09:50:00 17.9 C 94 % 16.92 C
2712 19-07-2016 09:55:00 18 C 94 % 17.02 C
2713 19-07-2016 10:00:00 18.2 C 94 % 17.22 C
2714 19-07-2016 10:05:00 18.3 C 94 % 17.32 C
2715 19-07-2016 10:10:00 18.6 C 94 % 17.62 C
2716 19-07-2016 10:15:00 18.8 C 94 % 17.81 C
2717 19-07-2016 10:20:00 19 C 93 % 17.84 C
2718 19-07-2016 10:25:00 19.3 C 93 % 18.14 C
2719 19-07-2016 10:30:00 19.7 C 92 % 18.36 C
2720 19-07-2016 10:35:00 20.1 C 91 % 18.58 C
2721 19-07-2016 10:40:00 20.5 C 90 % 18.8 C
2722 19-07-2016 10:45:00 20.8 C 89 % 18.92 C
2723 19-07-2016 10:50:00 21.2 C 88 % 19.13 C
2724 19-07-2016 10:55:00 21.3 C 87 % 19.05 C
2725 19-07-2016 11:00:00 21.4 C 87 % 19.15 C
Sensor: Nr:Datum:Temp:Feuchte:Taupunkt:
Aussen-T/F 2726 19-07-2016 11:05:00 21.5 C 87 % 19.24 C
2727 19-07-2016 11:10:00 21.6 C 87 % 19.34 C
2728 19-07-2016 11:15:00 21.6 C 87 % 19.34 C
2729 19-07-2016 11:20:00 21.7 C 87 % 19.44 C
2730 19-07-2016 11:25:00 21.9 C 87 % 19.64 C
2731 19-07-2016 11:30:00 22.1 C 87 % 19.83 C
2732 19-07-2016 11:35:00 22.4 C 85 % 19.75 C
2733 19-07-2016 11:40:00 22.7 C 84 % 19.86 C
2734 19-07-2016 11:45:00 22.9 C 83 % 19.86 C
2735 19-07-2016 11:50:00 23.2 C 80 % 19.56 C
2736 19-07-2016 11:55:00 23.4 C 80 % 19.75 C
2737 19-07-2016 12:00:00 23.6 C 77 % 19.33 C
2738 19-07-2016 12:05:00 23.9 C 76 % 19.41 C
2739 19-07-2016 12:10:00 24.2 C 71 % 18.61 C
2740 19-07-2016 12:15:00 24.6 C 69 % 18.53 C
2741 19-07-2016 12:20:00 24.9 C 69 % 18.82 C
2742 19-07-2016 12:25:00 25 C 67 % 18.44 C
2743 19-07-2016 12:30:00 25.2 C 71 % 19.56 C
2744 19-07-2016 12:35:00 25.3 C 70 % 19.43 C
2745 19-07-2016 12:40:00 25.4 C 65 % 18.34 C
2746 19-07-2016 12:45:00 25.7 C 62 % 17.87 C
2747 19-07-2016 12:50:00 25.9 C 64 % 18.57 C
2748 19-07-2016 12:55:00 26.1 C 60 % 17.73 C
2749 19-07-2016 13:00:00 26.3 C 60 % 17.91 C
2750 19-07-2016 13:05:00 26.3 C 63 % 18.69 C
Sensor: Nr:Datum:Temp:Feuchte:Taupunkt:
Aussen-T/F 2751 19-07-2016 13:10:00 26.3 C 60 % 17.91 C
2752 19-07-2016 13:15:00 26.4 C 58 % 17.47 C
2753 19-07-2016 13:20:00 26.4 C 58 % 17.47 C
2754 19-07-2016 13:25:00 26.6 C 58 % 17.66 C
2755 19-07-2016 13:30:00 26.7 C 58 % 17.75 C
2756 19-07-2016 13:35:00 26.8 C 57 % 17.57 C
2757 19-07-2016 13:40:00 26.9 C 56 % 17.38 C
2758 19-07-2016 13:45:00 27.2 C 55 % 17.37 C
2759 19-07-2016 13:50:00 27.2 C 56 % 17.66 C
2760 19-07-2016 13:55:00 27.2 C 56 % 17.66 C
2761 19-07-2016 14:00:00 27.2 C 63 % 19.54 C
2762 19-07-2016 14:05:00 26.9 C 67 % 20.25 C
2763 19-07-2016 14:10:00 26.4 C 60 % 18.01 C
2764 19-07-2016 14:15:00 26.2 C 61 % 18.08 C
2765 19-07-2016 14:20:00 26.3 C 64 % 18.94 C
2766 19-07-2016 14:25:00 26.3 C 60 % 17.91 C
2767 19-07-2016 14:30:00 26.4 C 71 % 20.71 C
2768 19-07-2016 14:35:00 26.4 C 72 % 20.94 C
2769 19-07-2016 14:40:00 26.2 C 72 % 20.75 C
2770 19-07-2016 14:45:00 25.9 C 73 % 20.69 C
2771 19-07-2016 14:50:00 25.8 C 75 % 21.03 C
2772 19-07-2016 14:55:00 25.5 C 74 % 20.52 C
2773 19-07-2016 15:00:00 25.4 C 77 % 21.07 C
2774 19-07-2016 15:05:00 25.3 C 66 % 18.49 C
2775 19-07-2016 15:10:00 25.6 C 65 % 18.53 C
Sensor: Nr:Datum:Temp:Feuchte:Taupunkt:
Aussen-T/F 2776 19-07-2016 15:15:00 26 C 74 % 21 C
2777 19-07-2016 15:20:00 26.2 C 76 % 21.63 C
2778 19-07-2016 15:25:00 26.2 C 73 % 20.97 C
2779 19-07-2016 15:30:00 26.2 C 73 % 20.97 C
2780 19-07-2016 15:35:00 26.2 C 73 % 20.97 C
2781 19-07-2016 15:40:00 26.4 C 65 % 19.29 C
2782 19-07-2016 15:45:00 27.3 C 59 % 18.58 C
2783 19-07-2016 15:50:00 28.2 C 64 % 20.74 C
2784 19-07-2016 15:55:00 28.6 C 66 % 21.62 C
2785 19-07-2016 16:00:00 28.6 C 67 % 21.87 C
2786 19-07-2016 16:05:00 28.8 C 66 % 21.81 C
2787 19-07-2016 16:10:00 28.8 C 66 % 21.81 C
2788 19-07-2016 16:15:00 28.8 C 68 % 22.3 C
2789 19-07-2016 16:20:00 28.9 C 67 % 22.15 C
2790 19-07-2016 16:25:00 29.2 C 66 % 22.19 C
2791 19-07-2016 16:30:00 29.7 C 65 % 22.41 C
2792 19-07-2016 16:35:00 30.3 C 63 % 22.46 C
2793 19-07-2016 16:40:00 30.6 C 56 % 20.82 C
2794 19-07-2016 16:45:00 31.1 C 50 % 19.44 C
2795 19-07-2016 16:50:00 31.2 C 62 % 23.05 C
2796 19-07-2016 16:55:00 31.2 C 58 % 21.95 C
2797 19-07-2016 17:00:00 31.2 C 53 % 20.48 C
2798 19-07-2016 17:05:00 31.2 C 58 % 21.95 C
2799 19-07-2016 17:10:00 31.2 C 56 % 21.37 C
2800 19-07-2016 17:15:00 31.3 C 58 % 22.04 C
Sensor: Nr:Datum:Temp:Feuchte:Taupunkt:
Aussen-T/F 2801 19-07-2016 17:20:00 31 C 60 % 22.32 C
2802 19-07-2016 17:25:00 31.1 C 56 % 21.28 C
2803 19-07-2016 17:30:00 31.3 C 57 % 21.76 C
2804 19-07-2016 17:35:00 31.8 C 58 % 22.51 C
2805 19-07-2016 17:40:00 32.2 C 56 % 22.3 C
2806 19-07-2016 17:45:00 32.3 C 55 % 22.1 C
2807 19-07-2016 17:50:00 32.4 C 52 % 21.27 C
2808 19-07-2016 17:55:00 32.4 C 53 % 21.58 C
2809 19-07-2016 18:00:00 32.4 C 53 % 21.58 C
2810 19-07-2016 18:05:00 32.4 C 52 % 21.27 C
2811 19-07-2016 18:10:00 32.4 C 52 % 21.27 C
2812 19-07-2016 18:15:00 32.4 C 54 % 21.89 C
2813 19-07-2016 18:20:00 32.3 C 44 % 18.48 C
2814 19-07-2016 18:25:00 32.3 C 53 % 21.49 C
2815 19-07-2016 18:30:00 32.2 C 53 % 21.4 C
2816 19-07-2016 18:35:00 32 C 55 % 21.82 C
2817 19-07-2016 18:40:00 31.8 C 54 % 21.34 C
2818 19-07-2016 18:45:00 31.7 C 57 % 22.13 C
2819 19-07-2016 18:50:00 31.6 C 55 % 21.45 C
2820 19-07-2016 18:55:00 31.4 C 56 % 21.56 C
2821 19-07-2016 19:00:00 31.3 C 56 % 21.47 C
2822 19-07-2016 19:05:00 31.1 C 57 % 21.57 C
2823 19-07-2016 19:10:00 30.9 C 56 % 21.09 C
2824 19-07-2016 19:15:00 30.7 C 57 % 21.2 C
2825 19-07-2016 19:20:00 30.6 C 57 % 21.1 C
Sensor: Nr:Datum:Temp:Feuchte:Taupunkt:
Aussen-T/F 2826 19-07-2016 19:25:00 30.3 C 59 % 21.39 C
2827 19-07-2016 19:30:00 29.9 C 59 % 21.01 C
2828 19-07-2016 19:35:00 29.6 C 59 % 20.73 C
2829 19-07-2016 19:40:00 29.2 C 59 % 20.36 C
2830 19-07-2016 19:45:00 28.9 C 60 % 20.35 C
2831 19-07-2016 19:50:00 28.6 C 60 % 20.07 C
2832 19-07-2016 19:55:00 28.3 C 60 % 19.79 C
2833 19-07-2016 20:00:00 28 C 60 % 19.51 C
2834 19-07-2016 20:05:00 27.7 C 60 % 19.23 C
2835 19-07-2016 20:10:00 27.4 C 61 % 19.21 C
2836 19-07-2016 20:15:00 27.2 C 61 % 19.02 C
2837 19-07-2016 20:20:00 27.1 C 63 % 19.45 C
2838 19-07-2016 20:25:00 26.8 C 63 % 19.16 C
2839 19-07-2016 20:30:00 26.7 C 63 % 19.07 C
2840 19-07-2016 20:35:00 26.4 C 63 % 18.79 C
2841 19-07-2016 20:40:00 26.2 C 63 % 18.6 C
2842 19-07-2016 20:45:00 26 C 64 % 18.66 C
2843 19-07-2016 20:50:00 25.7 C 64 % 18.38 C
2844 19-07-2016 20:55:00 25.4 C 63 % 17.84 C
2845 19-07-2016 21:00:00 25.2 C 64 % 17.9 C
2846 19-07-2016 21:05:00 24.9 C 64 % 17.62 C
2847 19-07-2016 21:10:00 24.7 C 65 % 17.68 C
2848 19-07-2016 21:15:00 24.4 C 66 % 17.64 C
2849 19-07-2016 21:20:00 24.1 C 66 % 17.35 C
2850 19-07-2016 21:25:00 23.8 C 68 % 17.54 C
Sensor: Nr:Datum:Temp:Feuchte:Taupunkt:
Aussen-T/F 2851 19-07-2016 21:30:00 23.5 C 67 % 17.02 C
2852 19-07-2016 21:35:00 23.2 C 68 % 16.97 C
2853 19-07-2016 21:40:00 22.9 C 69 % 16.91 C
2854 19-07-2016 21:45:00 22.7 C 71 % 17.17 C
2855 19-07-2016 21:50:00 22.3 C 72 % 17.01 C
2856 19-07-2016 21:55:00 22.1 C 72 % 16.82 C
2857 19-07-2016 22:00:00 21.8 C 71 % 16.31 C
2858 19-07-2016 22:05:00 21.6 C 71 % 16.12 C
2859 19-07-2016 22:10:00 21.5 C 72 % 16.24 C
2860 19-07-2016 22:15:00 21.4 C 73 % 16.36 C
2861 19-07-2016 22:20:00 21.3 C 72 % 16.05 C
2862 19-07-2016 22:25:00 21.1 C 73 % 16.07 C
2863 19-07-2016 22:30:00 21 C 75 % 16.4 C
2864 19-07-2016 22:35:00 20.8 C 73 % 15.78 C
2865 19-07-2016 22:40:00 20.7 C 74 % 15.9 C
2866 19-07-2016 22:45:00 20.6 C 75 % 16.01 C
2867 19-07-2016 22:50:00 20.4 C 76 % 16.03 C
2868 19-07-2016 22:55:00 20.3 C 77 % 16.14 C
2869 19-07-2016 23:00:00 20.1 C 76 % 15.74 C
2870 19-07-2016 23:05:00 20 C 77 % 15.85 C
2871 19-07-2016 23:10:00 19.8 C 78 % 15.85 C
2872 19-07-2016 23:15:00 19.7 C 78 % 15.76 C
2873 19-07-2016 23:20:00 19.6 C 77 % 15.46 C
2874 19-07-2016 23:25:00 19.5 C 78 % 15.56 C
2875 19-07-2016 23:30:00 19.5 C 79 % 15.76 C
Sensor: Nr:Datum:Temp:Feuchte:Taupunkt:
Aussen-T/F 2876 19-07-2016 23:35:00 19.4 C 79 % 15.66 C
2877 19-07-2016 23:40:00 19.4 C 79 % 15.66 C
2878 19-07-2016 23:45:00 19.3 C 79 % 15.57 C
2879 19-07-2016 23:50:00 19.2 C 80 % 15.67 C
2880 19-07-2016 23:55:00 19.1 C 81 % 15.76 C
2881 20-07-2016 00:00:00 18.9 C 81 % 15.57 C
2882 20-07-2016 00:05:00 18.8 C 82 % 15.66 C
2883 20-07-2016 00:10:00 18.6 C 82 % 15.47 C
2884 20-07-2016 00:15:00 18.4 C 83 % 15.46 C
2885 20-07-2016 00:20:00 18.3 C 83 % 15.36 C
2886 20-07-2016 00:25:00 18.2 C 84 % 15.45 C
2887 20-07-2016 00:30:00 18.2 C 84 % 15.45 C
2888 20-07-2016 00:35:00 18.1 C 84 % 15.35 C
2889 20-07-2016 00:40:00 18 C 85 % 15.44 C
2890 20-07-2016 00:45:00 17.9 C 85 % 15.34 C
2891 20-07-2016 00:50:00 17.8 C 86 % 15.43 C
2892 20-07-2016 00:55:00 17.8 C 86 % 15.43 C
2893 20-07-2016 01:00:00 17.7 C 86 % 15.33 C
2894 20-07-2016 01:05:00 17.6 C 87 % 15.41 C
2895 20-07-2016 01:10:00 17.5 C 87 % 15.31 C
2896 20-07-2016 01:15:00 17.4 C 87 % 15.21 C
2897 20-07-2016 01:20:00 17.3 C 87 % 15.12 C
2898 20-07-2016 01:25:00 17.3 C 87 % 15.12 C
2899 20-07-2016 01:30:00 17.3 C 88 % 15.29 C
2900 20-07-2016 01:35:00 17.3 C 88 % 15.29 C
Sensor: Nr:Datum:Temp:Feuchte:Taupunkt:
Aussen-T/F 2901 20-07-2016 01:40:00 17.2 C 88 % 15.2 C
2902 20-07-2016 01:45:00 17.1 C 88 % 15.1 C
2903 20-07-2016 01:50:00 17.1 C 88 % 15.1 C
2904 20-07-2016 01:55:00 17.1 C 88 % 15.1 C
2905 20-07-2016 02:00:00 17 C 88 % 15 C
2906 20-07-2016 02:05:00 17 C 89 % 15.17 C
2907 20-07-2016 02:10:00 16.9 C 89 % 15.08 C
2908 20-07-2016 02:15:00 16.9 C 89 % 15.08 C
2909 20-07-2016 02:20:00 16.8 C 89 % 14.98 C
2910 20-07-2016 02:25:00 16.7 C 89 % 14.88 C
2911 20-07-2016 02:30:00 16.7 C 89 % 14.88 C
2912 20-07-2016 02:35:00 16.6 C 90 % 14.95 C
2913 20-07-2016 02:40:00 16.6 C 90 % 14.95 C
2914 20-07-2016 02:45:00 16.5 C 90 % 14.85 C
2915 20-07-2016 02:50:00 16.5 C 90 % 14.85 C
2916 20-07-2016 02:55:00 16.4 C 90 % 14.76 C
2917 20-07-2016 03:00:00 16.4 C 90 % 14.76 C
2918 20-07-2016 03:05:00 16.3 C 91 % 14.83 C
2919 20-07-2016 03:10:00 16.3 C 91 % 14.83 C
2920 20-07-2016 03:15:00 16.2 C 91 % 14.73 C
2921 20-07-2016 03:20:00 16.2 C 91 % 14.73 C
2922 20-07-2016 03:25:00 16.1 C 91 % 14.63 C
2923 20-07-2016 03:30:00 16.1 C 91 % 14.63 C
2924 20-07-2016 03:35:00 15.9 C 91 % 14.43 C
2925 20-07-2016 03:40:00 15.9 C 91 % 14.43 C
Sensor: Nr:Datum:Temp:Feuchte:Taupunkt:
Aussen-T/F 2926 20-07-2016 03:45:00 15.9 C 92 % 14.6 C
2927 20-07-2016 03:50:00 15.8 C 92 % 14.5 C
2928 20-07-2016 03:55:00 15.8 C 92 % 14.5 C
2929 20-07-2016 04:00:00 15.7 C 92 % 14.4 C
2930 20-07-2016 04:05:00 15.8 C 93 % 14.67 C
2931 20-07-2016 04:10:00 15.7 C 92 % 14.4 C
2932 20-07-2016 04:15:00 15.6 C 92 % 14.31 C
2933 20-07-2016 04:20:00 15.6 C 92 % 14.31 C
2934 20-07-2016 04:25:00 15.6 C 92 % 14.31 C
2935 20-07-2016 04:30:00 15.5 C 92 % 14.21 C
2936 20-07-2016 04:35:00 15.4 C 93 % 14.27 C
2937 20-07-2016 04:40:00 15.3 C 93 % 14.18 C
2938 20-07-2016 04:45:00 15.3 C 93 % 14.18 C
2939 20-07-2016 04:50:00 15.3 C 93 % 14.18 C
2940 20-07-2016 04:55:00 15.3 C 93 % 14.18 C
2941 20-07-2016 05:00:00 15.3 C 93 % 14.18 C
2942 20-07-2016 05:05:00 15.2 C 93 % 14.08 C
2943 20-07-2016 05:10:00 15.2 C 93 % 14.08 C
2944 20-07-2016 05:15:00 15.1 C 93 % 13.98 C
2945 20-07-2016 05:20:00 15.1 C 93 % 13.98 C
2946 20-07-2016 05:25:00 15 C 93 % 13.88 C
2947 20-07-2016 05:30:00 15 C 94 % 14.04 C
2948 20-07-2016 05:35:00 14.9 C 93 % 13.78 C
2949 20-07-2016 05:40:00 14.9 C 94 % 13.94 C
2950 20-07-2016 05:45:00 14.9 C 94 % 13.94 C
Sensor: Nr:Datum:Temp:Feuchte:Taupunkt:
Aussen-T/F 2951 20-07-2016 05:50:00 14.8 C 94 % 13.84 C
2952 20-07-2016 05:55:00 14.8 C 94 % 13.84 C
2953 20-07-2016 06:00:00 14.8 C 94 % 13.84 C
2954 20-07-2016 06:05:00 14.9 C 94 % 13.94 C
2955 20-07-2016 06:10:00 14.8 C 94 % 13.84 C
2956 20-07-2016 06:15:00 14.8 C 94 % 13.84 C
2957 20-07-2016 06:20:00 14.7 C 94 % 13.74 C
2958 20-07-2016 06:25:00 14.7 C 94 % 13.74 C
2959 20-07-2016 06:30:00 14.7 C 94 % 13.74 C
2960 20-07-2016 06:35:00 14.7 C 94 % 13.74 C
2961 20-07-2016 06:40:00 14.8 C 94 % 13.84 C
2962 20-07-2016 06:45:00 14.8 C 94 % 13.84 C
2963 20-07-2016 06:50:00 14.8 C 94 % 13.84 C
2964 20-07-2016 06:55:00 14.8 C 95 % 14.01 C
2965 20-07-2016 07:00:00 14.9 C 95 % 14.11 C
2966 20-07-2016 07:05:00 14.9 C 95 % 14.11 C
2967 20-07-2016 07:10:00 15 C 95 % 14.21 C
2968 20-07-2016 07:15:00 15.1 C 95 % 14.31 C
2969 20-07-2016 07:20:00 15.2 C 95 % 14.4 C
2970 20-07-2016 07:25:00 15.2 C 95 % 14.4 C
2971 20-07-2016 07:30:00 15.2 C 95 % 14.4 C
2972 20-07-2016 07:35:00 15.3 C 95 % 14.5 C
2973 20-07-2016 07:40:00 15.3 C 95 % 14.5 C
2974 20-07-2016 07:45:00 15.4 C 95 % 14.6 C
2975 20-07-2016 07:50:00 15.4 C 95 % 14.6 C
Sensor: Nr:Datum:Temp:Feuchte:Taupunkt:
Aussen-T/F 2976 20-07-2016 07:55:00 15.5 C 95 % 14.7 C
2977 20-07-2016 08:00:00 15.6 C 95 % 14.8 C
2978 20-07-2016 08:05:00 15.7 C 95 % 14.9 C
2979 20-07-2016 08:10:00 15.8 C 95 % 15 C
2980 20-07-2016 08:15:00 15.8 C 95 % 15 C
2981 20-07-2016 08:20:00 15.9 C 95 % 15.1 C
2982 20-07-2016 08:25:00 16 C 95 % 15.2 C
2983 20-07-2016 08:30:00 16.1 C 95 % 15.3 C
2984 20-07-2016 08:35:00 16.2 C 96 % 15.56 C
2985 20-07-2016 08:40:00 16.4 C 95 % 15.6 C
2986 20-07-2016 08:45:00 16.6 C 96 % 15.96 C
2987 20-07-2016 08:50:00 16.7 C 96 % 16.06 C
2988 20-07-2016 08:55:00 16.9 C 96 % 16.26 C
2989 20-07-2016 09:00:00 17.1 C 96 % 16.46 C
2990 20-07-2016 09:05:00 17.2 C 96 % 16.56 C
2991 20-07-2016 09:10:00 17.3 C 96 % 16.66 C
2992 20-07-2016 09:15:00 17.5 C 95 % 16.69 C
2993 20-07-2016 09:20:00 17.6 C 95 % 16.79 C
2994 20-07-2016 09:25:00 17.8 C 95 % 16.99 C
2995 20-07-2016 09:30:00 17.9 C 95 % 17.09 C
2996 20-07-2016 09:35:00 18.1 C 95 % 17.29 C
2997 20-07-2016 09:40:00 18.2 C 95 % 17.39 C
2998 20-07-2016 09:45:00 18.4 C 94 % 17.42 C
2999 20-07-2016 09:50:00 18.5 C 94 % 17.52 C
3000 20-07-2016 09:55:00 18.7 C 94 % 17.71 C
Sensor: Nr:Datum:Temp:Feuchte:Taupunkt:
Aussen-T/F 3001 20-07-2016 10:00:00 18.9 C 94 % 17.91 C
3002 20-07-2016 10:05:00 19.1 C 93 % 17.94 C
3003 20-07-2016 10:10:00 19.3 C 93 % 18.14 C
3004 20-07-2016 10:15:00 19.5 C 93 % 18.34 C
3005 20-07-2016 10:20:00 19.7 C 92 % 18.36 C
3006 20-07-2016 10:25:00 20.1 C 92 % 18.76 C
3007 20-07-2016 10:30:00 20.6 C 91 % 19.08 C
3008 20-07-2016 10:35:00 21.1 C 88 % 19.03 C
3009 20-07-2016 10:40:00 21.7 C 88 % 19.62 C
3010 20-07-2016 10:45:00 22.2 C 86 % 19.75 C
3011 20-07-2016 10:50:00 22.4 C 85 % 19.75 C
3012 20-07-2016 10:55:00 22.4 C 85 % 19.75 C
3013 20-07-2016 11:00:00 22.6 C 85 % 19.95 C
3014 20-07-2016 11:05:00 22.7 C 85 % 20.05 C
3015 20-07-2016 11:10:00 22.8 C 83 % 19.76 C
3016 20-07-2016 11:15:00 23 C 81 % 19.56 C
3017 20-07-2016 11:20:00 23.2 C 80 % 19.56 C
3018 20-07-2016 11:25:00 23.7 C 75 % 19 C
3019 20-07-2016 11:30:00 24.3 C 81 % 20.83 C
3020 20-07-2016 11:35:00 24.7 C 75 % 19.97 C
3021 20-07-2016 11:40:00 24.9 C 76 % 20.38 C
3022 20-07-2016 11:45:00 25.1 C 78 % 20.99 C
3023 20-07-2016 11:50:00 25.2 C 72 % 19.79 C
3024 20-07-2016 11:55:00 25.7 C 71 % 20.04 C
3025 20-07-2016 12:00:00 26 C 70 % 20.1 C
Sensor: Nr:Datum:Temp:Feuchte:Taupunkt:
Aussen-T/F 3026 20-07-2016 12:05:00 26.2 C 72 % 20.75 C
3027 20-07-2016 12:10:00 26.3 C 72 % 20.85 C
3028 20-07-2016 12:15:00 26.5 C 65 % 19.38 C
3029 20-07-2016 12:20:00 26.8 C 66 % 19.91 C
3030 20-07-2016 12:25:00 27 C 66 % 20.1 C
3031 20-07-2016 12:30:00 27.1 C 67 % 20.44 C
3032 20-07-2016 12:35:00 27.2 C 64 % 19.79 C
3033 20-07-2016 12:40:00 27.5 C 64 % 20.08 C
3034 20-07-2016 12:45:00 27.8 C 62 % 19.85 C
3035 20-07-2016 12:50:00 27.9 C 63 % 20.2 C
3036 20-07-2016 12:55:00 28.1 C 59 % 19.33 C
3037 20-07-2016 13:00:00 28.3 C 58 % 19.24 C
3038 20-07-2016 13:05:00 28.6 C 60 % 20.07 C
3039 20-07-2016 13:10:00 28.6 C 59 % 19.8 C
3040 20-07-2016 13:15:00 28.7 C 58 % 19.62 C
3041 20-07-2016 13:20:00 28.8 C 61 % 20.52 C
3042 20-07-2016 13:25:00 28.9 C 60 % 20.35 C
3043 20-07-2016 13:30:00 29 C 58 % 19.9 C
3044 20-07-2016 13:35:00 29.2 C 57 % 19.8 C
3045 20-07-2016 13:40:00 29.6 C 54 % 19.3 C
3046 20-07-2016 13:45:00 29.7 C 58 % 20.55 C
3047 20-07-2016 13:50:00 29.6 C 59 % 20.73 C
3048 20-07-2016 13:55:00 29.6 C 57 % 20.17 C
3049 20-07-2016 14:00:00 29.5 C 64 % 21.97 C
3050 20-07-2016 14:05:00 29.4 C 57 % 19.99 C
Sensor: Nr:Datum:Temp:Feuchte:Taupunkt:
Aussen-T/F 3051 20-07-2016 14:10:00 29.6 C 56 % 19.89 C
3052 20-07-2016 14:15:00 29.8 C 57 % 20.36 C
3053 20-07-2016 14:20:00 29.9 C 55 % 19.88 C
3054 20-07-2016 14:25:00 30.2 C 55 % 20.15 C
3055 20-07-2016 14:30:00 30.6 C 53 % 19.92 C
3056 20-07-2016 14:35:00 30.7 C 58 % 21.48 C
3057 20-07-2016 14:40:00 30.6 C 52 % 19.62 C
3058 20-07-2016 14:45:00 30.7 C 55 % 20.62 C
3059 20-07-2016 14:50:00 30.7 C 52 % 19.71 C
3060 20-07-2016 14:55:00 30.8 C 52 % 19.8 C
3061 20-07-2016 15:00:00 30.9 C 53 % 20.2 C
3062 20-07-2016 15:05:00 31 C 52 % 19.98 C
3063 20-07-2016 15:10:00 31.1 C 52 % 20.08 C
3064 20-07-2016 15:15:00 31.4 C 52 % 20.35 C
3065 20-07-2016 15:20:00 31.6 C 50 % 19.9 C
3066 20-07-2016 15:25:00 31.9 C 51 % 20.5 C
3067 20-07-2016 15:30:00 32.2 C 49 % 20.12 C
3068 20-07-2016 15:35:00 32.4 C 49 % 20.31 C
3069 20-07-2016 15:40:00 32.8 C 48 % 20.34 C
3070 20-07-2016 15:45:00 33.3 C 48 % 20.79 C
3071 20-07-2016 15:50:00 33.7 C 46 % 20.46 C
3072 20-07-2016 15:55:00 34 C 52 % 22.74 C
3073 20-07-2016 16:00:00 34.1 C 48 % 21.52 C
3074 20-07-2016 16:05:00 34.2 C 43 % 19.82 C
3075 20-07-2016 16:10:00 34.3 C 43 % 19.91 C
Sensor: Nr:Datum:Temp:Feuchte:Taupunkt:
Aussen-T/F 3076 20-07-2016 16:15:00 34.3 C 46 % 21.01 C
3077 20-07-2016 16:20:00 34.4 C 45 % 20.74 C
3078 20-07-2016 16:25:00 34.6 C 41 % 19.41 C
3079 20-07-2016 16:30:00 34.8 C 48 % 22.16 C
3080 20-07-2016 16:35:00 34.9 C 47 % 21.9 C
3081 20-07-2016 16:40:00 35.1 C 41 % 19.86 C
3082 20-07-2016 16:45:00 35.3 C 48 % 22.61 C
3083 20-07-2016 16:50:00 35.2 C 45 % 21.46 C
3084 20-07-2016 16:55:00 35.3 C 49 % 22.95 C
3085 20-07-2016 17:00:00 35.3 C 42 % 20.43 C
3086 20-07-2016 17:05:00 35.3 C 50 % 23.28 C
3087 20-07-2016 17:10:00 35.4 C 53 % 24.35 C
3088 20-07-2016 17:15:00 35.2 C 50 % 23.19 C
3089 20-07-2016 17:20:00 35.1 C 53 % 24.07 C
3090 20-07-2016 17:25:00 34.9 C 51 % 23.25 C
3091 20-07-2016 17:30:00 34.8 C 53 % 23.79 C
3092 20-07-2016 17:35:00 34.6 C 53 % 23.61 C
3093 20-07-2016 17:40:00 34.3 C 49 % 22.04 C
3094 20-07-2016 17:45:00 34.3 C 54 % 23.64 C
3095 20-07-2016 17:50:00 34.1 C 52 % 22.83 C
3096 20-07-2016 17:55:00 33.7 C 55 % 23.39 C
3097 20-07-2016 18:00:00 33.2 C 55 % 22.93 C
3098 20-07-2016 18:05:00 32.6 C 57 % 22.96 C
3099 20-07-2016 18:10:00 32.1 C 57 % 22.5 C
3100 20-07-2016 18:15:00 32.2 C 61 % 23.72 C
Sensor: Nr:Datum:Temp:Feuchte:Taupunkt:
Aussen-T/F 3101 20-07-2016 18:20:00 32.4 C 58 % 23.07 C
3102 20-07-2016 18:25:00 32.8 C 52 % 21.64 C
3103 20-07-2016 18:30:00 33.2 C 52 % 22.01 C
3104 20-07-2016 18:35:00 33.4 C 52 % 22.19 C
3105 20-07-2016 18:40:00 33.6 C 51 % 22.06 C
3106 20-07-2016 18:45:00 33.4 C 52 % 22.19 C
3107 20-07-2016 18:50:00 33.2 C 51 % 21.69 C
3108 20-07-2016 18:55:00 33.1 C 53 % 22.23 C
3109 20-07-2016 19:00:00 32.9 C 55 % 22.65 C
3110 20-07-2016 19:05:00 32.8 C 54 % 22.26 C
3111 20-07-2016 19:10:00 32.7 C 54 % 22.17 C
3112 20-07-2016 19:15:00 32.1 C 52 % 21 C
3113 20-07-2016 19:20:00 31.3 C 54 % 20.87 C
3114 20-07-2016 19:25:00 30.3 C 57 % 20.83 C
3115 20-07-2016 19:30:00 29.5 C 57 % 20.08 C
3116 20-07-2016 19:35:00 28.8 C 58 % 19.71 C
3117 20-07-2016 19:40:00 28.4 C 59 % 19.61 C
3118 20-07-2016 19:45:00 28.1 C 61 % 19.87 C
3119 20-07-2016 19:50:00 27.8 C 59 % 19.05 C
3120 20-07-2016 19:55:00 27.7 C 61 % 19.49 C
3121 20-07-2016 20:00:00 27.4 C 63 % 19.73 C
3122 20-07-2016 20:05:00 27.2 C 62 % 19.28 C
3123 20-07-2016 20:10:00 27.1 C 63 % 19.45 C
3124 20-07-2016 20:15:00 26.9 C 63 % 19.26 C
3125 20-07-2016 20:20:00 26.7 C 65 % 19.57 C
Sensor: Nr:Datum:Temp:Feuchte:Taupunkt:
Aussen-T/F 3126 20-07-2016 20:25:00 26.6 C 64 % 19.23 C
3127 20-07-2016 20:30:00 26.5 C 64 % 19.13 C
3128 20-07-2016 20:35:00 26.4 C 64 % 19.04 C
3129 20-07-2016 20:40:00 26.3 C 64 % 18.94 C
3130 20-07-2016 20:45:00 26.2 C 65 % 19.1 C
3131 20-07-2016 20:50:00 26.2 C 64 % 18.85 C
3132 20-07-2016 20:55:00 26.1 C 65 % 19 C
3133 20-07-2016 21:00:00 26.1 C 66 % 19.25 C
3134 20-07-2016 21:05:00 26 C 66 % 19.15 C
3135 20-07-2016 21:10:00 25.9 C 65 % 18.81 C
3136 20-07-2016 21:15:00 25.9 C 66 % 19.06 C
3137 20-07-2016 21:20:00 25.9 C 67 % 19.3 C
3138 20-07-2016 21:25:00 25.9 C 68 % 19.54 C
3139 20-07-2016 21:30:00 25.9 C 68 % 19.54 C
3140 20-07-2016 21:35:00 25.8 C 67 % 19.2 C
3141 20-07-2016 21:40:00 25.8 C 68 % 19.44 C
3142 20-07-2016 21:45:00 25.8 C 68 % 19.44 C
3143 20-07-2016 21:50:00 25.8 C 68 % 19.44 C
3144 20-07-2016 21:55:00 25.8 C 68 % 19.44 C
3145 20-07-2016 22:00:00 25.8 C 68 % 19.44 C
3146 20-07-2016 22:05:00 25.7 C 69 % 19.58 C
3147 20-07-2016 22:10:00 25.6 C 70 % 19.72 C
3148 20-07-2016 22:15:00 25.4 C 70 % 19.53 C
3149 20-07-2016 22:20:00 25.3 C 70 % 19.43 C
3150 20-07-2016 22:25:00 25.3 C 69 % 19.2 C
Sensor: Nr:Datum:Temp:Feuchte:Taupunkt:
Aussen-T/F 3151 20-07-2016 22:30:00 25.2 C 69 % 19.11 C
3152 20-07-2016 22:35:00 25.2 C 70 % 19.34 C
3153 20-07-2016 22:40:00 25.1 C 71 % 19.47 C
3154 20-07-2016 22:45:00 24.9 C 71 % 19.28 C
3155 20-07-2016 22:50:00 24.8 C 72 % 19.41 C
3156 20-07-2016 22:55:00 24.7 C 72 % 19.31 C
3157 20-07-2016 23:00:00 24.4 C 71 % 18.8 C
3158 20-07-2016 23:05:00 24.3 C 71 % 18.7 C
3159 20-07-2016 23:10:00 24.2 C 71 % 18.61 C
3160 20-07-2016 23:15:00 24.1 C 73 % 18.96 C
3161 20-07-2016 23:20:00 23.9 C 72 % 18.54 C
3162 20-07-2016 23:25:00 23.9 C 74 % 18.98 C
3163 20-07-2016 23:30:00 23.9 C 75 % 19.2 C
3164 20-07-2016 23:35:00 23.7 C 75 % 19 C
3165 20-07-2016 23:40:00 23.6 C 75 % 18.91 C
3166 20-07-2016 23:45:00 23.6 C 75 % 18.91 C
3167 20-07-2016 23:50:00 23.6 C 74 % 18.69 C
3168 20-07-2016 23:55:00 23.6 C 73 % 18.48 C
3169 21-07-2016 00:00:00 23.7 C 72 % 18.35 C
3170 21-07-2016 00:05:00 23.8 C 71 % 18.22 C
3171 21-07-2016 00:10:00 23.9 C 73 % 18.76 C
3172 21-07-2016 00:15:00 23.8 C 74 % 18.89 C
3173 21-07-2016 00:20:00 23.7 C 74 % 18.79 C
3174 21-07-2016 00:25:00 23.6 C 74 % 18.69 C
3175 21-07-2016 00:30:00 23.4 C 75 % 18.71 C
Sensor: Nr:Datum:Temp:Feuchte:Taupunkt:
Aussen-T/F 3176 21-07-2016 00:35:00 23.4 C 74 % 18.5 C
3177 21-07-2016 00:40:00 23.3 C 75 % 18.62 C
3178 21-07-2016 00:45:00 23.2 C 74 % 18.31 C
3179 21-07-2016 00:50:00 23.1 C 76 % 18.64 C
3180 21-07-2016 00:55:00 23.1 C 76 % 18.64 C
3181 21-07-2016 01:00:00 23 C 76 % 18.54 C
3182 21-07-2016 01:05:00 23 C 77 % 18.75 C
3183 21-07-2016 01:10:00 23.1 C 78 % 19.05 C
3184 21-07-2016 01:15:00 23 C 78 % 18.96 C
3185 21-07-2016 01:20:00 22.9 C 77 % 18.65 C
3186 21-07-2016 01:25:00 22.8 C 77 % 18.56 C
3187 21-07-2016 01:30:00 22.8 C 78 % 18.76 C
3188 21-07-2016 01:35:00 22.7 C 77 % 18.46 C
3189 21-07-2016 01:40:00 22.7 C 77 % 18.46 C
3190 21-07-2016 01:45:00 22.6 C 78 % 18.57 C
3191 21-07-2016 01:50:00 22.6 C 77 % 18.36 C
3192 21-07-2016 01:55:00 22.4 C 77 % 18.17 C
3193 21-07-2016 02:00:00 22.4 C 78 % 18.37 C
3194 21-07-2016 02:05:00 22.4 C 78 % 18.37 C
3195 21-07-2016 02:10:00 22.4 C 78 % 18.37 C
3196 21-07-2016 02:15:00 22.3 C 77 % 18.07 C
3197 21-07-2016 02:20:00 22.3 C 78 % 18.28 C
3198 21-07-2016 02:25:00 22.3 C 77 % 18.07 C
3199 21-07-2016 02:30:00 22.4 C 78 % 18.37 C
3200 21-07-2016 02:35:00 22.4 C 77 % 18.17 C
Sensor: Nr:Datum:Temp:Feuchte:Taupunkt:
Aussen-T/F 3201 21-07-2016 02:40:00 22.5 C 79 % 18.67 C
3202 21-07-2016 02:45:00 22.5 C 78 % 18.47 C
3203 21-07-2016 02:50:00 22.4 C 78 % 18.37 C
3204 21-07-2016 02:55:00 22.4 C 78 % 18.37 C
3205 21-07-2016 03:00:00 22.3 C 77 % 18.07 C
3206 21-07-2016 03:05:00 22.3 C 77 % 18.07 C
3207 21-07-2016 03:10:00 22.2 C 78 % 18.18 C
3208 21-07-2016 03:15:00 22.2 C 79 % 18.38 C
3209 21-07-2016 03:20:00 22.2 C 80 % 18.58 C
3210 21-07-2016 03:25:00 22.2 C 80 % 18.58 C
3211 21-07-2016 03:30:00 22.3 C 77 % 18.07 C
3212 21-07-2016 03:35:00 22.6 C 76 % 18.15 C
3213 21-07-2016 03:40:00 22.8 C 75 % 18.14 C
3214 21-07-2016 03:45:00 22.9 C 75 % 18.23 C
3215 21-07-2016 03:50:00 23 C 75 % 18.33 C
3216 21-07-2016 03:55:00 23 C 76 % 18.54 C
3217 21-07-2016 04:00:00 22.9 C 76 % 18.44 C
3218 21-07-2016 04:05:00 22.8 C 76 % 18.35 C
3219 21-07-2016 04:10:00 22.8 C 76 % 18.35 C
3220 21-07-2016 04:15:00 22.8 C 76 % 18.35 C
3221 21-07-2016 04:20:00 22.8 C 76 % 18.35 C
3222 21-07-2016 04:25:00 22.8 C 77 % 18.56 C
3223 21-07-2016 04:30:00 22.7 C 77 % 18.46 C
3224 21-07-2016 04:35:00 22.6 C 78 % 18.57 C
3225 21-07-2016 04:40:00 22.5 C 78 % 18.47 C
Sensor: Nr:Datum:Temp:Feuchte:Taupunkt:
Aussen-T/F 3226 21-07-2016 04:45:00 22.4 C 78 % 18.37 C
3227 21-07-2016 04:50:00 22.3 C 78 % 18.28 C
3228 21-07-2016 04:55:00 22.3 C 77 % 18.07 C
3229 21-07-2016 05:00:00 22.3 C 77 % 18.07 C
3230 21-07-2016 05:05:00 22.3 C 77 % 18.07 C
3231 21-07-2016 05:10:00 22.3 C 77 % 18.07 C
3232 21-07-2016 05:15:00 22.2 C 78 % 18.18 C
3233 21-07-2016 05:20:00 22.1 C 78 % 18.08 C
3234 21-07-2016 05:25:00 22 C 79 % 18.19 C
3235 21-07-2016 05:30:00 21.8 C 81 % 18.39 C
3236 21-07-2016 05:35:00 21.6 C 81 % 18.2 C
3237 21-07-2016 05:40:00 21.4 C 82 % 18.2 C
3238 21-07-2016 05:45:00 21.2 C 82 % 18 C
3239 21-07-2016 05:50:00 21.1 C 83 % 18.1 C
3240 21-07-2016 05:55:00 20.9 C 83 % 17.9 C
3241 21-07-2016 06:00:00 20.8 C 84 % 18 C
3242 21-07-2016 06:05:00 20.8 C 83 % 17.81 C
3243 21-07-2016 06:10:00 20.7 C 84 % 17.9 C
3244 21-07-2016 06:15:00 20.7 C 84 % 17.9 C
3245 21-07-2016 06:20:00 20.6 C 84 % 17.8 C
3246 21-07-2016 06:25:00 20.6 C 84 % 17.8 C
3247 21-07-2016 06:30:00 20.6 C 84 % 17.8 C
3248 21-07-2016 06:35:00 20.5 C 85 % 17.89 C
3249 21-07-2016 06:40:00 20.4 C 85 % 17.79 C
3250 21-07-2016 06:45:00 20.4 C 86 % 17.98 C
Sensor: Nr:Datum:Temp:Feuchte:Taupunkt:
Aussen-T/F 3251 21-07-2016 06:50:00 20.3 C 86 % 17.88 C
3252 21-07-2016 06:55:00 20.3 C 86 % 17.88 C
3253 21-07-2016 07:00:00 20.2 C 86 % 17.78 C
3254 21-07-2016 07:05:00 20.2 C 86 % 17.78 C
3255 21-07-2016 07:10:00 20.1 C 85 % 17.5 C
3256 21-07-2016 07:15:00 20.1 C 84 % 17.31 C
3257 21-07-2016 07:20:00 20.2 C 85 % 17.6 C
3258 21-07-2016 07:25:00 20.2 C 85 % 17.6 C
3259 21-07-2016 07:30:00 20.2 C 86 % 17.78 C
3260 21-07-2016 07:35:00 20.2 C 86 % 17.78 C
3261 21-07-2016 07:40:00 20.1 C 87 % 17.87 C
3262 21-07-2016 07:45:00 19.9 C 88 % 17.85 C
3263 21-07-2016 07:50:00 19.8 C 88 % 17.75 C
3264 21-07-2016 07:55:00 19.7 C 89 % 17.84 C
3265 21-07-2016 08:00:00 19.7 C 89 % 17.84 C
3266 21-07-2016 08:05:00 19.6 C 89 % 17.74 C
3267 21-07-2016 08:10:00 19.5 C 90 % 17.82 C
3268 21-07-2016 08:15:00 19.5 C 91 % 17.99 C
3269 21-07-2016 08:20:00 19.4 C 91 % 17.89 C
3270 21-07-2016 08:25:00 19.2 C 92 % 17.87 C
3271 21-07-2016 08:30:00 19.1 C 92 % 17.77 C
3272 21-07-2016 08:35:00 19.1 C 92 % 17.77 C
3273 21-07-2016 08:40:00 19.1 C 93 % 17.94 C
3274 21-07-2016 08:45:00 19 C 93 % 17.84 C
3275 21-07-2016 08:50:00 19.1 C 93 % 17.94 C
Sensor: Nr:Datum:Temp:Feuchte:Taupunkt:
Aussen-T/F 3276 21-07-2016 08:55:00 19.1 C 94 % 18.11 C
3277 21-07-2016 09:00:00 19.1 C 94 % 18.11 C
3278 21-07-2016 09:05:00 19 C 94 % 18.01 C
3279 21-07-2016 09:10:00 19.1 C 94 % 18.11 C
3280 21-07-2016 09:15:00 19.1 C 94 % 18.11 C
3281 21-07-2016 09:20:00 19.2 C 94 % 18.21 C
3282 21-07-2016 09:25:00 19.2 C 94 % 18.21 C
3283 21-07-2016 09:30:00 19.2 C 94 % 18.21 C
3284 21-07-2016 09:35:00 19.3 C 95 % 18.48 C
3285 21-07-2016 09:40:00 19.3 C 95 % 18.48 C
3286 21-07-2016 09:45:00 19.3 C 95 % 18.48 C
3287 21-07-2016 09:50:00 19.4 C 95 % 18.58 C
3288 21-07-2016 09:55:00 19.4 C 95 % 18.58 C
3289 21-07-2016 10:00:00 19.5 C 95 % 18.68 C
3290 21-07-2016 10:05:00 19.6 C 95 % 18.78 C
3291 21-07-2016 10:10:00 19.6 C 95 % 18.78 C
3292 21-07-2016 10:15:00 19.7 C 95 % 18.88 C
3293 21-07-2016 10:20:00 19.8 C 95 % 18.98 C
3294 21-07-2016 10:25:00 19.8 C 95 % 18.98 C
3295 21-07-2016 10:30:00 19.9 C 95 % 19.07 C
3296 21-07-2016 10:35:00 19.9 C 95 % 19.07 C
3297 21-07-2016 10:40:00 20 C 95 % 19.17 C
3298 21-07-2016 10:45:00 20.1 C 95 % 19.27 C
3299 21-07-2016 10:50:00 20.1 C 95 % 19.27 C
3300 21-07-2016 10:55:00 20.2 C 95 % 19.37 C
Sensor: Nr:Datum:Temp:Feuchte:Taupunkt:
Aussen-T/F 3301 21-07-2016 11:00:00 20.2 C 95 % 19.37 C
3302 21-07-2016 11:05:00 20.2 C 95 % 19.37 C
3303 21-07-2016 11:10:00 20.3 C 95 % 19.47 C
3304 21-07-2016 11:15:00 20.4 C 95 % 19.57 C
3305 21-07-2016 11:20:00 20.5 C 95 % 19.67 C
3306 21-07-2016 11:25:00 20.6 C 95 % 19.77 C
3307 21-07-2016 11:30:00 20.7 C 95 % 19.87 C
3308 21-07-2016 11:35:00 20.9 C 95 % 20.07 C
3309 21-07-2016 11:40:00 21 C 95 % 20.17 C
3310 21-07-2016 11:45:00 21.1 C 94 % 20.1 C
3311 21-07-2016 11:50:00 21.2 C 94 % 20.19 C
3312 21-07-2016 11:55:00 21.2 C 93 % 20.02 C
3313 21-07-2016 12:00:00 21.3 C 93 % 20.12 C
3314 21-07-2016 12:05:00 21.4 C 93 % 20.22 C
3315 21-07-2016 12:10:00 21.6 C 91 % 20.07 C
3316 21-07-2016 12:15:00 21.8 C 91 % 20.26 C
3317 21-07-2016 12:20:00 21.9 C 90 % 20.18 C
3318 21-07-2016 12:25:00 22.3 C 91 % 20.76 C
3319 21-07-2016 12:30:00 22.6 C 92 % 21.23 C
3320 21-07-2016 12:35:00 22.6 C 89 % 20.69 C
3321 21-07-2016 12:40:00 22.7 C 91 % 21.15 C
3322 21-07-2016 12:45:00 22.9 C 91 % 21.35 C
3323 21-07-2016 12:50:00 23 C 91 % 21.45 C
3324 21-07-2016 12:55:00 22.8 C 87 % 20.52 C
3325 21-07-2016 13:00:00 22.9 C 89 % 20.99 C
Sensor: Nr:Datum:Temp:Feuchte:Taupunkt:
Aussen-T/F 3326 21-07-2016 13:05:00 22.9 C 88 % 20.81 C
3327 21-07-2016 13:10:00 23 C 87 % 20.72 C
3328 21-07-2016 13:15:00 23.1 C 86 % 20.63 C
3329 21-07-2016 13:20:00 23.2 C 83 % 20.15 C
3330 21-07-2016 13:25:00 23.2 C 81 % 19.76 C
3331 21-07-2016 13:30:00 23.4 C 82 % 20.15 C
3332 21-07-2016 13:35:00 23.4 C 80 % 19.75 C
3333 21-07-2016 13:40:00 23.6 C 80 % 19.95 C
3334 21-07-2016 13:45:00 23.7 C 82 % 20.44 C
3335 21-07-2016 13:50:00 23.8 C 80 % 20.14 C
3336 21-07-2016 13:55:00 23.9 C 82 % 20.64 C
3337 21-07-2016 14:00:00 23.9 C 79 % 20.03 C
3338 21-07-2016 14:05:00 23.9 C 77 % 19.62 C
3339 21-07-2016 14:10:00 24.3 C 79 % 20.42 C
3340 21-07-2016 14:15:00 24.5 C 76 % 19.99 C
3341 21-07-2016 14:20:00 24.7 C 76 % 20.18 C
3342 21-07-2016 14:25:00 24.9 C 76 % 20.38 C
3343 21-07-2016 14:30:00 25 C 75 % 20.26 C
3344 21-07-2016 14:35:00 25.2 C 72 % 19.79 C
3345 21-07-2016 14:40:00 25.4 C 74 % 20.43 C
3346 21-07-2016 14:45:00 25.6 C 75 % 20.84 C
3347 21-07-2016 14:50:00 25.6 C 72 % 20.17 C
3348 21-07-2016 14:55:00 25.7 C 72 % 20.27 C
3349 21-07-2016 15:00:00 25.8 C 76 % 21.24 C
3350 21-07-2016 15:05:00 25.9 C 71 % 20.24 C
Sensor: Nr:Datum:Temp:Feuchte:Taupunkt:
Aussen-T/F 3351 21-07-2016 15:10:00 26.3 C 73 % 21.07 C
3352 21-07-2016 15:15:00 26.5 C 71 % 20.81 C
3353 21-07-2016 15:20:00 26.6 C 70 % 20.67 C
3354 21-07-2016 15:25:00 26.5 C 78 % 22.35 C
3355 21-07-2016 15:30:00 26.3 C 78 % 22.15 C
3356 21-07-2016 15:35:00 25.9 C 79 % 21.97 C
3357 21-07-2016 15:40:00 25.6 C 81 % 22.09 C
3358 21-07-2016 15:45:00 25.2 C 82 % 21.91 C
3359 21-07-2016 15:50:00 24.9 C 82 % 21.61 C
3360 21-07-2016 15:55:00 24.6 C 84 % 21.71 C
3361 21-07-2016 16:00:00 24.4 C 85 % 21.71 C
3362 21-07-2016 16:05:00 24.1 C 85 % 21.42 C
3363 21-07-2016 16:10:00 23.9 C 86 % 21.41 C
3364 21-07-2016 16:15:00 23.6 C 86 % 21.12 C
3365 21-07-2016 16:20:00 23.3 C 78 % 19.25 C
3366 21-07-2016 16:25:00 23.3 C 81 % 19.85 C
3367 21-07-2016 16:30:00 23.1 C 78 % 19.05 C
3368 21-07-2016 16:35:00 22.8 C 80 % 19.17 C
3369 21-07-2016 16:40:00 22.6 C 83 % 19.56 C
3370 21-07-2016 16:45:00 22.3 C 85 % 19.65 C
3371 21-07-2016 16:50:00 22 C 86 % 19.55 C
3372 21-07-2016 16:55:00 21.8 C 87 % 19.54 C
3373 21-07-2016 17:00:00 21.6 C 88 % 19.53 C
3374 21-07-2016 17:05:00 21.3 C 89 % 19.41 C
3375 21-07-2016 17:10:00 21.2 C 90 % 19.49 C
Sensor: Nr:Datum:Temp:Feuchte:Taupunkt:
Aussen-T/F 3376 21-07-2016 17:15:00 21 C 90 % 19.3 C
3377 21-07-2016 17:20:00 20.9 C 91 % 19.37 C
3378 21-07-2016 17:25:00 20.8 C 91 % 19.28 C
3379 21-07-2016 17:30:00 20.7 C 91 % 19.18 C
3380 21-07-2016 17:35:00 20.5 C 91 % 18.98 C
3381 21-07-2016 17:40:00 20.3 C 91 % 18.78 C
3382 21-07-2016 17:45:00 20.2 C 91 % 18.68 C
3383 21-07-2016 17:50:00 20.1 C 92 % 18.76 C
3384 21-07-2016 17:55:00 20 C 92 % 18.66 C
3385 21-07-2016 18:00:00 19.9 C 92 % 18.56 C
3386 21-07-2016 18:05:00 19.8 C 93 % 18.63 C
3387 21-07-2016 18:10:00 19.8 C 93 % 18.63 C
3388 21-07-2016 18:15:00 19.8 C 93 % 18.63 C
3389 21-07-2016 18:20:00 19.8 C 94 % 18.81 C
3390 21-07-2016 18:25:00 19.8 C 94 % 18.81 C
3391 21-07-2016 18:30:00 19.8 C 94 % 18.81 C
3392 21-07-2016 18:35:00 19.7 C 94 % 18.71 C
3393 21-07-2016 18:40:00 19.7 C 94 % 18.71 C
3394 21-07-2016 18:45:00 19.7 C 94 % 18.71 C
3395 21-07-2016 18:50:00 19.7 C 94 % 18.71 C
3396 21-07-2016 18:55:00 19.7 C 94 % 18.71 C
3397 21-07-2016 19:00:00 19.7 C 94 % 18.71 C
3398 21-07-2016 19:05:00 19.6 C 94 % 18.61 C
3399 21-07-2016 19:10:00 19.6 C 94 % 18.61 C
3400 21-07-2016 19:15:00 19.6 C 94 % 18.61 C
Sensor: Nr:Datum:Temp:Feuchte:Taupunkt:
Aussen-T/F 3401 21-07-2016 19:20:00 19.6 C 94 % 18.61 C
3402 21-07-2016 19:25:00 19.6 C 95 % 18.78 C
3403 21-07-2016 19:30:00 19.6 C 95 % 18.78 C
3404 21-07-2016 19:35:00 19.6 C 95 % 18.78 C
3405 21-07-2016 19:40:00 19.6 C 95 % 18.78 C
3406 21-07-2016 19:45:00 19.6 C 95 % 18.78 C
3407 21-07-2016 19:50:00 19.6 C 95 % 18.78 C
3408 21-07-2016 19:55:00 19.5 C 95 % 18.68 C
3409 21-07-2016 20:00:00 19.4 C 95 % 18.58 C
3410 21-07-2016 20:05:00 19.2 C 94 % 18.21 C
3411 21-07-2016 20:10:00 19.1 C 94 % 18.11 C
3412 21-07-2016 20:15:00 19 C 95 % 18.18 C
3413 21-07-2016 20:20:00 18.9 C 95 % 18.08 C
3414 21-07-2016 20:25:00 18.9 C 95 % 18.08 C
3415 21-07-2016 20:30:00 18.9 C 95 % 18.08 C
3416 21-07-2016 20:35:00 19 C 95 % 18.18 C
3417 21-07-2016 20:40:00 18.9 C 95 % 18.08 C
3418 21-07-2016 20:45:00 18.9 C 95 % 18.08 C
3419 21-07-2016 20:50:00 18.9 C 95 % 18.08 C
3420 21-07-2016 20:55:00 19 C 95 % 18.18 C
3421 21-07-2016 21:00:00 19 C 96 % 18.35 C
3422 21-07-2016 21:05:00 19.1 C 96 % 18.45 C
3423 21-07-2016 21:10:00 19 C 95 % 18.18 C
3424 21-07-2016 21:15:00 19 C 95 % 18.18 C
3425 21-07-2016 21:20:00 18.9 C 95 % 18.08 C
Sensor: Nr:Datum:Temp:Feuchte:Taupunkt:
Aussen-T/F 3426 21-07-2016 21:25:00 18.9 C 95 % 18.08 C
3427 21-07-2016 21:30:00 18.9 C 95 % 18.08 C
3428 21-07-2016 21:35:00 18.9 C 95 % 18.08 C
3429 21-07-2016 21:40:00 18.9 C 95 % 18.08 C
3430 21-07-2016 21:45:00 18.8 C 95 % 17.98 C
3431 21-07-2016 21:50:00 18.8 C 95 % 17.98 C
3432 21-07-2016 21:55:00 18.8 C 96 % 18.15 C
3433 21-07-2016 22:00:00 18.7 C 96 % 18.05 C
3434 21-07-2016 22:05:00 18.7 C 96 % 18.05 C
3435 21-07-2016 22:10:00 18.7 C 96 % 18.05 C
3436 21-07-2016 22:15:00 18.7 C 95 % 17.88 C
3437 21-07-2016 22:20:00 18.6 C 95 % 17.78 C
3438 21-07-2016 22:25:00 18.6 C 96 % 17.95 C
3439 21-07-2016 22:30:00 18.7 C 96 % 18.05 C
3440 21-07-2016 22:35:00 18.6 C 96 % 17.95 C
3441 21-07-2016 22:40:00 18.6 C 96 % 17.95 C
3442 21-07-2016 22:45:00 18.6 C 96 % 17.95 C
3443 21-07-2016 22:50:00 18.6 C 96 % 17.95 C
3444 21-07-2016 22:55:00 18.6 C 96 % 17.95 C
3445 21-07-2016 23:00:00 18.5 C 96 % 17.85 C
3446 21-07-2016 23:05:00 18.5 C 96 % 17.85 C
3447 21-07-2016 23:10:00 18.4 C 96 % 17.75 C
3448 21-07-2016 23:15:00 18.4 C 96 % 17.75 C
3449 21-07-2016 23:20:00 18.4 C 96 % 17.75 C
3450 21-07-2016 23:25:00 18.4 C 96 % 17.75 C
Sensor: Nr:Datum:Temp:Feuchte:Taupunkt:
Aussen-T/F 3451 21-07-2016 23:30:00 18.4 C 96 % 17.75 C
3452 21-07-2016 23:35:00 18.4 C 96 % 17.75 C
3453 21-07-2016 23:40:00 18.4 C 96 % 17.75 C
3454 21-07-2016 23:45:00 18.4 C 96 % 17.75 C
3455 21-07-2016 23:50:00 18.3 C 96 % 17.65 C
3456 21-07-2016 23:55:00 18.3 C 96 % 17.65 C
3457 22-07-2016 00:00:00 18.3 C 96 % 17.65 C
3458 22-07-2016 00:05:00 18.3 C 96 % 17.65 C
3459 22-07-2016 00:10:00 18.3 C 96 % 17.65 C
3460 22-07-2016 00:15:00 18.3 C 96 % 17.65 C
3461 22-07-2016 00:20:00 18.3 C 96 % 17.65 C
3462 22-07-2016 00:25:00 18.3 C 96 % 17.65 C
3463 22-07-2016 00:30:00 18.2 C 96 % 17.55 C
3464 22-07-2016 00:35:00 18.2 C 96 % 17.55 C
3465 22-07-2016 00:40:00 18.2 C 96 % 17.55 C
3466 22-07-2016 00:45:00 18.2 C 96 % 17.55 C
3467 22-07-2016 00:50:00 18.2 C 96 % 17.55 C
3468 22-07-2016 00:55:00 18.1 C 96 % 17.45 C
3469 22-07-2016 01:00:00 18.1 C 96 % 17.45 C
3470 22-07-2016 01:05:00 18.1 C 96 % 17.45 C
3471 22-07-2016 01:10:00 18.1 C 96 % 17.45 C
3472 22-07-2016 01:15:00 18.1 C 96 % 17.45 C
3473 22-07-2016 01:20:00 18.1 C 96 % 17.45 C
3474 22-07-2016 01:25:00 18.1 C 96 % 17.45 C
3475 22-07-2016 01:30:00 18 C 96 % 17.35 C
Sensor: Nr:Datum:Temp:Feuchte:Taupunkt:
Aussen-T/F 3476 22-07-2016 01:35:00 18 C 96 % 17.35 C
3477 22-07-2016 01:40:00 18 C 96 % 17.35 C
3478 22-07-2016 01:45:00 18 C 96 % 17.35 C
3479 22-07-2016 01:50:00 18 C 96 % 17.35 C
3480 22-07-2016 01:55:00 18 C 96 % 17.35 C
3481 22-07-2016 02:00:00 18 C 96 % 17.35 C
3482 22-07-2016 02:05:00 18 C 96 % 17.35 C
3483 22-07-2016 02:10:00 18.1 C 97 % 17.62 C
3484 22-07-2016 02:15:00 18.1 C 97 % 17.62 C
3485 22-07-2016 02:20:00 18.1 C 96 % 17.45 C
3486 22-07-2016 02:25:00 18 C 96 % 17.35 C
3487 22-07-2016 02:30:00 17.9 C 96 % 17.25 C
3488 22-07-2016 02:35:00 17.9 C 96 % 17.25 C
3489 22-07-2016 02:40:00 17.9 C 96 % 17.25 C
3490 22-07-2016 02:45:00 17.8 C 96 % 17.15 C
3491 22-07-2016 02:50:00 17.8 C 96 % 17.15 C
3492 22-07-2016 02:55:00 17.8 C 96 % 17.15 C
3493 22-07-2016 03:00:00 17.7 C 96 % 17.05 C
3494 22-07-2016 03:05:00 17.6 C 96 % 16.95 C
3495 22-07-2016 03:10:00 17.5 C 96 % 16.85 C
3496 22-07-2016 03:15:00 17.4 C 96 % 16.76 C
3497 22-07-2016 03:20:00 17.3 C 96 % 16.66 C
3498 22-07-2016 03:25:00 17.3 C 96 % 16.66 C
3499 22-07-2016 03:30:00 17.3 C 96 % 16.66 C
3500 22-07-2016 03:35:00 17.3 C 96 % 16.66 C
Sensor: Nr:Datum:Temp:Feuchte:Taupunkt:
Aussen-T/F 3501 22-07-2016 03:40:00 17.2 C 96 % 16.56 C
3502 22-07-2016 03:45:00 17.2 C 96 % 16.56 C
3503 22-07-2016 03:50:00 17.2 C 96 % 16.56 C
3504 22-07-2016 03:55:00 17.2 C 96 % 16.56 C
3505 22-07-2016 04:00:00 17.2 C 96 % 16.56 C
3506 22-07-2016 04:05:00 17.2 C 96 % 16.56 C
3507 22-07-2016 04:10:00 17.2 C 96 % 16.56 C
3508 22-07-2016 04:15:00 17.1 C 96 % 16.46 C
3509 22-07-2016 04:20:00 17.1 C 96 % 16.46 C
3510 22-07-2016 04:25:00 17 C 96 % 16.36 C
3511 22-07-2016 04:30:00 16.9 C 97 % 16.42 C
3512 22-07-2016 04:35:00 16.9 C 97 % 16.42 C
3513 22-07-2016 04:40:00 16.9 C 97 % 16.42 C
3514 22-07-2016 04:45:00 16.9 C 97 % 16.42 C
3515 22-07-2016 04:50:00 16.9 C 96 % 16.26 C
3516 22-07-2016 04:55:00 16.8 C 96 % 16.16 C
3517 22-07-2016 05:00:00 16.8 C 96 % 16.16 C
3518 22-07-2016 05:05:00 16.8 C 96 % 16.16 C
3519 22-07-2016 05:10:00 16.8 C 96 % 16.16 C
3520 22-07-2016 05:15:00 16.8 C 96 % 16.16 C
3521 22-07-2016 05:20:00 16.8 C 97 % 16.32 C
3522 22-07-2016 05:25:00 16.8 C 97 % 16.32 C
3523 22-07-2016 05:30:00 16.8 C 97 % 16.32 C
3524 22-07-2016 05:35:00 16.7 C 97 % 16.22 C
3525 22-07-2016 05:40:00 16.6 C 97 % 16.12 C
Sensor: Nr:Datum:Temp:Feuchte:Taupunkt:
Aussen-T/F 3526 22-07-2016 05:45:00 16.6 C 97 % 16.12 C
3527 22-07-2016 05:50:00 16.6 C 96 % 15.96 C
3528 22-07-2016 05:55:00 16.5 C 96 % 15.86 C
3529 22-07-2016 06:00:00 16.5 C 96 % 15.86 C
3530 22-07-2016 06:05:00 16.5 C 97 % 16.02 C
3531 22-07-2016 06:10:00 16.6 C 97 % 16.12 C
3532 22-07-2016 06:15:00 16.6 C 97 % 16.12 C
3533 22-07-2016 06:20:00 16.6 C 97 % 16.12 C
3534 22-07-2016 06:25:00 16.6 C 97 % 16.12 C
3535 22-07-2016 06:30:00 16.6 C 97 % 16.12 C
3536 22-07-2016 06:35:00 16.6 C 97 % 16.12 C
3537 22-07-2016 06:40:00 16.7 C 97 % 16.22 C
3538 22-07-2016 06:45:00 16.8 C 97 % 16.32 C
3539 22-07-2016 06:50:00 16.9 C 97 % 16.42 C
3540 22-07-2016 06:55:00 17.1 C 97 % 16.62 C
3541 22-07-2016 07:00:00 17.1 C 97 % 16.62 C
3542 22-07-2016 07:05:00 17.2 C 97 % 16.72 C
3543 22-07-2016 07:10:00 17.2 C 97 % 16.72 C
3544 22-07-2016 07:15:00 17.2 C 97 % 16.72 C
3545 22-07-2016 07:20:00 17.3 C 97 % 16.82 C
3546 22-07-2016 07:25:00 17.3 C 97 % 16.82 C
3547 22-07-2016 07:30:00 17.3 C 97 % 16.82 C
3548 22-07-2016 07:35:00 17.4 C 97 % 16.92 C
3549 22-07-2016 07:40:00 17.4 C 97 % 16.92 C
3550 22-07-2016 07:45:00 17.5 C 97 % 17.02 C
Sensor: Nr:Datum:Temp:Feuchte:Taupunkt:
Aussen-T/F 3551 22-07-2016 07:50:00 17.6 C 97 % 17.12 C
3552 22-07-2016 07:55:00 17.6 C 97 % 17.12 C
3553 22-07-2016 08:00:00 17.6 C 97 % 17.12 C
3554 22-07-2016 08:05:00 17.6 C 97 % 17.12 C
3555 22-07-2016 08:10:00 17.6 C 97 % 17.12 C
3556 22-07-2016 08:15:00 17.6 C 97 % 17.12 C
3557 22-07-2016 08:20:00 17.5 C 97 % 17.02 C
3558 22-07-2016 08:25:00 17.5 C 97 % 17.02 C
3559 22-07-2016 08:30:00 17.5 C 97 % 17.02 C
3560 22-07-2016 08:35:00 17.6 C 97 % 17.12 C
3561 22-07-2016 08:40:00 17.7 C 97 % 17.22 C
3562 22-07-2016 08:45:00 17.6 C 97 % 17.12 C
3563 22-07-2016 08:50:00 17.6 C 97 % 17.12 C
3564 22-07-2016 08:55:00 17.6 C 97 % 17.12 C
3565 22-07-2016 09:00:00 17.7 C 97 % 17.22 C
3566 22-07-2016 09:05:00 17.7 C 97 % 17.22 C
3567 22-07-2016 09:10:00 17.8 C 97 % 17.32 C
3568 22-07-2016 09:15:00 18 C 97 % 17.52 C
3569 22-07-2016 09:20:00 18.2 C 97 % 17.72 C
3570 22-07-2016 09:25:00 18.2 C 97 % 17.72 C
3571 22-07-2016 09:30:00 18.3 C 97 % 17.82 C
3572 22-07-2016 09:35:00 18.3 C 97 % 17.82 C
3573 22-07-2016 09:40:00 18.4 C 97 % 17.91 C
3574 22-07-2016 09:45:00 18.6 C 97 % 18.11 C
3575 22-07-2016 09:50:00 18.6 C 97 % 18.11 C
Sensor: Nr:Datum:Temp:Feuchte:Taupunkt:
Aussen-T/F 3576 22-07-2016 09:55:00 18.7 C 97 % 18.21 C
3577 22-07-2016 10:00:00 18.7 C 97 % 18.21 C
3578 22-07-2016 10:05:00 18.8 C 97 % 18.31 C
3579 22-07-2016 10:10:00 18.9 C 97 % 18.41 C
3580 22-07-2016 10:15:00 19 C 97 % 18.51 C
3581 22-07-2016 10:20:00 19.2 C 97 % 18.71 C
3582 22-07-2016 10:25:00 19.3 C 97 % 18.81 C
3583 22-07-2016 10:30:00 19.4 C 97 % 18.91 C
3584 22-07-2016 10:35:00 19.5 C 97 % 19.01 C
3585 22-07-2016 10:40:00 19.6 C 97 % 19.11 C
3586 22-07-2016 10:45:00 19.8 C 97 % 19.31 C
3587 22-07-2016 10:50:00 20 C 97 % 19.51 C
3588 22-07-2016 10:55:00 20.2 C 97 % 19.71 C
3589 22-07-2016 11:00:00 20.3 C 97 % 19.81 C
3590 22-07-2016 11:05:00 20.4 C 97 % 19.91 C
3591 22-07-2016 11:10:00 20.5 C 97 % 20.01 C
3592 22-07-2016 11:15:00 20.7 C 97 % 20.21 C
3593 22-07-2016 11:20:00 20.8 C 97 % 20.31 C
3594 22-07-2016 11:25:00 20.9 C 97 % 20.41 C
3595 22-07-2016 11:30:00 21.1 C 97 % 20.6 C
3596 22-07-2016 11:35:00 21.3 C 96 % 20.64 C
3597 22-07-2016 11:40:00 21.4 C 96 % 20.74 C
3598 22-07-2016 11:45:00 21.6 C 96 % 20.93 C
3599 22-07-2016 11:50:00 21.7 C 96 % 21.03 C
3600 22-07-2016 11:55:00 21.7 C 96 % 21.03 C
Sensor: Nr:Datum:Temp:Feuchte:Taupunkt:
Aussen-T/F 3601 22-07-2016 12:00:00 21.9 C 96 % 21.23 C
3602 22-07-2016 12:05:00 21.9 C 95 % 21.06 C
3603 22-07-2016 12:10:00 22.2 C 95 % 21.36 C
3604 22-07-2016 12:15:00 22.3 C 94 % 21.29 C
3605 22-07-2016 12:20:00 22.7 C 94 % 21.68 C
3606 22-07-2016 12:25:00 23.1 C 92 % 21.73 C
3607 22-07-2016 12:30:00 23.4 C 93 % 22.2 C
3608 22-07-2016 12:35:00 23.7 C 93 % 22.5 C
3609 22-07-2016 12:40:00 23.7 C 92 % 22.32 C
3610 22-07-2016 12:45:00 23.8 C 90 % 22.06 C
3611 22-07-2016 12:50:00 24 C 89 % 22.07 C
3612 22-07-2016 12:55:00 24.1 C 86 % 21.61 C
3613 22-07-2016 13:00:00 24.3 C 89 % 22.37 C
3614 22-07-2016 13:05:00 24.5 C 88 % 22.38 C
3615 22-07-2016 13:10:00 24.6 C 89 % 22.66 C
3616 22-07-2016 13:15:00 24.6 C 90 % 22.85 C
3617 22-07-2016 13:20:00 24.6 C 90 % 22.85 C
3618 22-07-2016 13:25:00 24.4 C 87 % 22.09 C
3619 22-07-2016 13:30:00 24.5 C 86 % 22 C
3620 22-07-2016 13:35:00 24.7 C 83 % 21.62 C
3621 22-07-2016 13:40:00 24.9 C 82 % 21.61 C
3622 22-07-2016 13:45:00 25.1 C 82 % 21.81 C
3623 22-07-2016 13:50:00 25.3 C 80 % 21.6 C
3624 22-07-2016 13:55:00 25.6 C 78 % 21.48 C
3625 22-07-2016 14:00:00 25.7 C 79 % 21.78 C
Sensor: Nr:Datum:Temp:Feuchte:Taupunkt:
Aussen-T/F 3626 22-07-2016 14:05:00 25.9 C 76 % 21.34 C
3627 22-07-2016 14:10:00 26 C 77 % 21.65 C
3628 22-07-2016 14:15:00 26.2 C 76 % 21.63 C
3629 22-07-2016 14:20:00 26.3 C 74 % 21.29 C
3630 22-07-2016 14:25:00 26.5 C 73 % 21.26 C
3631 22-07-2016 14:30:00 26.7 C 70 % 20.77 C
3632 22-07-2016 14:35:00 26.9 C 71 % 21.19 C
3633 22-07-2016 14:40:00 27 C 69 % 20.82 C
3634 22-07-2016 14:45:00 27.1 C 70 % 21.15 C
3635 22-07-2016 14:50:00 27.1 C 71 % 21.38 C
3636 22-07-2016 14:55:00 27.2 C 74 % 22.16 C
3637 22-07-2016 15:00:00 27.3 C 71 % 21.58 C
3638 22-07-2016 15:05:00 27.4 C 75 % 22.57 C
3639 22-07-2016 15:10:00 27.4 C 68 % 20.97 C
3640 22-07-2016 15:15:00 27.6 C 72 % 22.09 C
3641 22-07-2016 15:20:00 27.7 C 78 % 23.51 C
3642 22-07-2016 15:25:00 27.6 C 73 % 22.32 C
3643 22-07-2016 15:30:00 27.5 C 76 % 22.89 C
3644 22-07-2016 15:35:00 27.3 C 69 % 21.11 C
3645 22-07-2016 15:40:00 27.4 C 76 % 22.79 C
3646 22-07-2016 15:45:00 27.4 C 72 % 21.9 C
3647 22-07-2016 15:50:00 27.8 C 80 % 24.03 C
3648 22-07-2016 15:55:00 28.2 C 74 % 23.12 C
3649 22-07-2016 16:00:00 28.3 C 64 % 20.83 C
3650 22-07-2016 16:05:00 28.8 C 76 % 24.14 C
Sensor: Nr:Datum:Temp:Feuchte:Taupunkt:
Aussen-T/F 3651 22-07-2016 16:10:00 29.1 C 61 % 20.81 C
3652 22-07-2016 16:15:00 29.3 C 64 % 21.78 C
3653 22-07-2016 16:20:00 29.6 C 60 % 21.01 C
3654 22-07-2016 16:25:00 29.6 C 67 % 22.82 C
3655 22-07-2016 16:30:00 29.2 C 64 % 21.68 C
3656 22-07-2016 16:35:00 28.5 C 70 % 22.49 C
3657 22-07-2016 16:40:00 28 C 71 % 22.25 C
3658 22-07-2016 16:45:00 27.7 C 65 % 20.52 C
3659 22-07-2016 16:50:00 27.8 C 64 % 20.36 C
3660 22-07-2016 16:55:00 27.8 C 66 % 20.86 C
3661 22-07-2016 17:00:00 27.5 C 66 % 20.58 C
3662 22-07-2016 17:05:00 27.2 C 66 % 20.29 C
3663 22-07-2016 17:10:00 27 C 65 % 19.86 C
3664 22-07-2016 17:15:00 27.1 C 65 % 19.95 C
3665 22-07-2016 17:20:00 26.9 C 65 % 19.76 C
3666 22-07-2016 17:25:00 26.8 C 64 % 19.42 C
3667 22-07-2016 17:30:00 26.8 C 64 % 19.42 C
3668 22-07-2016 17:35:00 27.1 C 69 % 20.92 C
3669 22-07-2016 17:40:00 27.1 C 68 % 20.68 C
3670 22-07-2016 17:45:00 27 C 69 % 20.82 C
3671 22-07-2016 17:50:00 26.9 C 70 % 20.96 C
3672 22-07-2016 17:55:00 26.8 C 67 % 20.16 C
3673 22-07-2016 18:00:00 26.6 C 66 % 19.72 C
3674 22-07-2016 18:05:00 26.4 C 74 % 21.39 C
3675 22-07-2016 18:10:00 26.3 C 76 % 21.73 C
Sensor: Nr:Datum:Temp:Feuchte:Taupunkt:
Aussen-T/F 3676 22-07-2016 18:15:00 26.1 C 76 % 21.53 C
3677 22-07-2016 18:20:00 25.8 C 78 % 21.67 C
3678 22-07-2016 18:25:00 25.6 C 78 % 21.48 C
3679 22-07-2016 18:30:00 25.2 C 79 % 21.3 C
3680 22-07-2016 18:35:00 24.8 C 81 % 21.31 C
3681 22-07-2016 18:40:00 24.2 C 79 % 20.32 C
3682 22-07-2016 18:45:00 23.9 C 77 % 19.62 C
3683 22-07-2016 18:50:00 23.8 C 80 % 20.14 C
3684 22-07-2016 18:55:00 23.7 C 82 % 20.44 C
3685 22-07-2016 19:00:00 23.5 C 82 % 20.25 C
3686 22-07-2016 19:05:00 23.3 C 83 % 20.25 C
3687 22-07-2016 19:10:00 23.1 C 80 % 19.46 C
3688 22-07-2016 19:15:00 23 C 84 % 20.15 C
3689 22-07-2016 19:20:00 22.9 C 84 % 20.05 C
3690 22-07-2016 19:25:00 22.8 C 84 % 19.95 C
3691 22-07-2016 19:30:00 22.7 C 84 % 19.86 C
3692 22-07-2016 19:35:00 22.6 C 84 % 19.76 C
3693 22-07-2016 19:40:00 22.4 C 85 % 19.75 C
3694 22-07-2016 19:45:00 22.3 C 85 % 19.65 C
3695 22-07-2016 19:50:00 22.2 C 86 % 19.75 C
3696 22-07-2016 19:55:00 22.1 C 87 % 19.83 C
3697 22-07-2016 20:00:00 22.1 C 87 % 19.83 C
3698 22-07-2016 20:05:00 21.9 C 87 % 19.64 C
3699 22-07-2016 20:10:00 21.8 C 87 % 19.54 C
3700 22-07-2016 20:15:00 21.8 C 88 % 19.72 C
Sensor: Nr:Datum:Temp:Feuchte:Taupunkt:
Aussen-T/F 3701 22-07-2016 20:20:00 21.7 C 88 % 19.62 C
3702 22-07-2016 20:25:00 21.7 C 88 % 19.62 C
3703 22-07-2016 20:30:00 21.6 C 89 % 19.71 C
3704 22-07-2016 20:35:00 21.5 C 87 % 19.24 C
3705 22-07-2016 20:40:00 21.5 C 88 % 19.43 C
3706 22-07-2016 20:45:00 21.4 C 88 % 19.33 C
3707 22-07-2016 20:50:00 21.4 C 86 % 18.96 C
3708 22-07-2016 20:55:00 21.3 C 87 % 19.05 C
3709 22-07-2016 21:00:00 21.2 C 87 % 18.95 C
3710 22-07-2016 21:05:00 21.2 C 87 % 18.95 C
3711 22-07-2016 21:10:00 21.1 C 87 % 18.85 C
3712 22-07-2016 21:15:00 20.9 C 88 % 18.84 C
3713 22-07-2016 21:20:00 20.8 C 88 % 18.74 C
3714 22-07-2016 21:25:00 20.7 C 88 % 18.64 C
3715 22-07-2016 21:30:00 20.7 C 89 % 18.82 C
3716 22-07-2016 21:35:00 20.6 C 88 % 18.54 C
3717 22-07-2016 21:40:00 20.4 C 88 % 18.34 C
3718 22-07-2016 21:45:00 20.4 C 88 % 18.34 C
3719 22-07-2016 21:50:00 20.3 C 89 % 18.43 C
3720 22-07-2016 21:55:00 20.3 C 89 % 18.43 C
3721 22-07-2016 22:00:00 20.2 C 89 % 18.33 C
3722 22-07-2016 22:05:00 20.2 C 89 % 18.33 C
3723 22-07-2016 22:10:00 20.1 C 89 % 18.23 C
3724 22-07-2016 22:15:00 20.1 C 89 % 18.23 C
3725 22-07-2016 22:20:00 20 C 89 % 18.13 C
Sensor: Nr:Datum:Temp:Feuchte:Taupunkt:
Aussen-T/F 3726 22-07-2016 22:25:00 19.9 C 89 % 18.03 C
3727 22-07-2016 22:30:00 19.9 C 89 % 18.03 C
3728 22-07-2016 22:35:00 19.9 C 89 % 18.03 C
3729 22-07-2016 22:40:00 19.9 C 88 % 17.85 C
3730 22-07-2016 22:45:00 19.8 C 88 % 17.75 C
3731 22-07-2016 22:50:00 19.9 C 88 % 17.85 C
3732 22-07-2016 22:55:00 19.9 C 88 % 17.85 C
3733 22-07-2016 23:00:00 19.9 C 89 % 18.03 C
3734 22-07-2016 23:05:00 19.9 C 89 % 18.03 C
3735 22-07-2016 23:10:00 19.9 C 89 % 18.03 C
3736 22-07-2016 23:15:00 19.9 C 89 % 18.03 C
3737 22-07-2016 23:20:00 19.9 C 89 % 18.03 C
3738 22-07-2016 23:25:00 19.9 C 89 % 18.03 C
3739 22-07-2016 23:30:00 19.8 C 89 % 17.93 C
3740 22-07-2016 23:35:00 19.8 C 89 % 17.93 C
3741 22-07-2016 23:40:00 19.8 C 90 % 18.11 C
3742 22-07-2016 23:45:00 19.8 C 90 % 18.11 C
3743 22-07-2016 23:50:00 19.8 C 90 % 18.11 C
3744 22-07-2016 23:55:00 19.7 C 90 % 18.01 C
3745 23-07-2016 00:00:00 19.7 C 90 % 18.01 C
3746 23-07-2016 00:05:00 19.7 C 90 % 18.01 C
3747 23-07-2016 00:10:00 19.6 C 90 % 17.91 C
3748 23-07-2016 00:15:00 19.6 C 91 % 18.09 C
3749 23-07-2016 00:20:00 19.6 C 91 % 18.09 C
3750 23-07-2016 00:25:00 19.5 C 91 % 17.99 C
Sensor: Nr:Datum:Temp:Feuchte:Taupunkt:
Aussen-T/F 3751 23-07-2016 00:30:00 19.5 C 91 % 17.99 C
3752 23-07-2016 00:35:00 19.4 C 91 % 17.89 C
3753 23-07-2016 00:40:00 19.3 C 91 % 17.79 C
3754 23-07-2016 00:45:00 19.3 C 91 % 17.79 C
3755 23-07-2016 00:50:00 19.3 C 91 % 17.79 C
3756 23-07-2016 00:55:00 19.2 C 92 % 17.87 C
3757 23-07-2016 01:00:00 19.2 C 92 % 17.87 C
3758 23-07-2016 01:05:00 19.2 C 92 % 17.87 C
3759 23-07-2016 01:10:00 19.2 C 92 % 17.87 C
3760 23-07-2016 01:15:00 19.2 C 92 % 17.87 C
3761 23-07-2016 01:20:00 19.2 C 92 % 17.87 C
3762 23-07-2016 01:25:00 19.2 C 93 % 18.04 C
3763 23-07-2016 01:30:00 19.2 C 93 % 18.04 C
3764 23-07-2016 01:35:00 19.2 C 93 % 18.04 C
3765 23-07-2016 01:40:00 19.1 C 93 % 17.94 C
3766 23-07-2016 01:45:00 19.1 C 92 % 17.77 C
3767 23-07-2016 01:50:00 19.1 C 92 % 17.77 C
3768 23-07-2016 01:55:00 19.1 C 93 % 17.94 C
3769 23-07-2016 02:00:00 19.1 C 93 % 17.94 C
3770 23-07-2016 02:05:00 19.1 C 93 % 17.94 C
3771 23-07-2016 02:10:00 19 C 93 % 17.84 C
3772 23-07-2016 02:15:00 18.9 C 93 % 17.74 C
3773 23-07-2016 02:20:00 18.9 C 93 % 17.74 C
3774 23-07-2016 02:25:00 18.9 C 93 % 17.74 C
3775 23-07-2016 02:30:00 18.9 C 93 % 17.74 C
Sensor: Nr:Datum:Temp:Feuchte:Taupunkt:
Aussen-T/F 3776 23-07-2016 02:35:00 18.9 C 93 % 17.74 C
3777 23-07-2016 02:40:00 18.8 C 93 % 17.64 C
3778 23-07-2016 02:45:00 18.8 C 93 % 17.64 C
3779 23-07-2016 02:50:00 18.8 C 93 % 17.64 C
3780 23-07-2016 02:55:00 18.8 C 93 % 17.64 C
3781 23-07-2016 03:00:00 18.7 C 93 % 17.54 C
3782 23-07-2016 03:05:00 18.7 C 93 % 17.54 C
3783 23-07-2016 03:10:00 18.7 C 93 % 17.54 C
3784 23-07-2016 03:15:00 18.7 C 93 % 17.54 C
3785 23-07-2016 03:20:00 18.6 C 93 % 17.45 C
3786 23-07-2016 03:25:00 18.6 C 93 % 17.45 C
3787 23-07-2016 03:30:00 18.6 C 93 % 17.45 C
3788 23-07-2016 03:35:00 18.6 C 93 % 17.45 C
3789 23-07-2016 03:40:00 18.6 C 93 % 17.45 C
3790 23-07-2016 03:45:00 18.6 C 93 % 17.45 C
3791 23-07-2016 03:50:00 18.5 C 93 % 17.35 C
3792 23-07-2016 03:55:00 18.4 C 93 % 17.25 C
3793 23-07-2016 04:00:00 18.4 C 93 % 17.25 C
3794 23-07-2016 04:05:00 18.4 C 93 % 17.25 C
3795 23-07-2016 04:10:00 18.4 C 93 % 17.25 C
3796 23-07-2016 04:15:00 18.3 C 93 % 17.15 C
3797 23-07-2016 04:20:00 18.3 C 93 % 17.15 C
3798 23-07-2016 04:25:00 18.3 C 93 % 17.15 C
3799 23-07-2016 04:30:00 18.3 C 93 % 17.15 C
3800 23-07-2016 04:35:00 18.4 C 93 % 17.25 C
Sensor: Nr:Datum:Temp:Feuchte:Taupunkt:
Aussen-T/F 3801 23-07-2016 04:40:00 18.4 C 93 % 17.25 C
3802 23-07-2016 04:45:00 18.4 C 94 % 17.42 C
3803 23-07-2016 04:50:00 18.4 C 94 % 17.42 C
3804 23-07-2016 04:55:00 18.5 C 94 % 17.52 C
3805 23-07-2016 05:00:00 18.4 C 94 % 17.42 C
3806 23-07-2016 05:05:00 18.4 C 94 % 17.42 C
3807 23-07-2016 05:10:00 18.4 C 94 % 17.42 C
3808 23-07-2016 05:15:00 18.4 C 94 % 17.42 C
3809 23-07-2016 05:20:00 18.3 C 94 % 17.32 C
3810 23-07-2016 05:25:00 18.3 C 94 % 17.32 C
3811 23-07-2016 05:30:00 18.3 C 94 % 17.32 C
3812 23-07-2016 05:35:00 18.3 C 94 % 17.32 C
3813 23-07-2016 05:40:00 18.3 C 94 % 17.32 C
3814 23-07-2016 05:45:00 18.3 C 94 % 17.32 C
3815 23-07-2016 05:50:00 18.3 C 95 % 17.48 C
3816 23-07-2016 05:55:00 18.3 C 95 % 17.48 C
3817 23-07-2016 06:00:00 18.3 C 95 % 17.48 C
3818 23-07-2016 06:05:00 18.3 C 95 % 17.48 C
3819 23-07-2016 06:10:00 18.3 C 95 % 17.48 C
3820 23-07-2016 06:15:00 18.3 C 95 % 17.48 C
3821 23-07-2016 06:20:00 18.3 C 95 % 17.48 C
3822 23-07-2016 06:25:00 18.4 C 95 % 17.58 C
3823 23-07-2016 06:30:00 18.4 C 95 % 17.58 C
3824 23-07-2016 06:35:00 18.4 C 95 % 17.58 C
3825 23-07-2016 06:40:00 18.4 C 95 % 17.58 C
Sensor: Nr:Datum:Temp:Feuchte:Taupunkt:
Aussen-T/F 3826 23-07-2016 06:45:00 18.4 C 95 % 17.58 C
3827 23-07-2016 06:50:00 18.4 C 95 % 17.58 C
3828 23-07-2016 06:55:00 18.4 C 95 % 17.58 C
3829 23-07-2016 07:00:00 18.4 C 95 % 17.58 C
3830 23-07-2016 07:05:00 18.5 C 95 % 17.68 C
3831 23-07-2016 07:10:00 18.6 C 95 % 17.78 C
3832 23-07-2016 07:15:00 18.6 C 95 % 17.78 C
3833 23-07-2016 07:20:00 18.6 C 95 % 17.78 C
3834 23-07-2016 07:25:00 18.6 C 95 % 17.78 C
3835 23-07-2016 07:30:00 18.7 C 95 % 17.88 C
3836 23-07-2016 07:35:00 18.7 C 96 % 18.05 C
3837 23-07-2016 07:40:00 18.8 C 96 % 18.15 C
3838 23-07-2016 07:45:00 18.9 C 96 % 18.25 C
3839 23-07-2016 07:50:00 18.9 C 96 % 18.25 C
3840 23-07-2016 07:55:00 19 C 96 % 18.35 C
3841 23-07-2016 08:00:00 19 C 96 % 18.35 C
3842 23-07-2016 08:05:00 19 C 95 % 18.18 C
3843 23-07-2016 08:10:00 19 C 95 % 18.18 C
3844 23-07-2016 08:15:00 19 C 95 % 18.18 C
3845 23-07-2016 08:20:00 19 C 95 % 18.18 C
3846 23-07-2016 08:25:00 19 C 95 % 18.18 C
3847 23-07-2016 08:30:00 19.1 C 96 % 18.45 C
3848 23-07-2016 08:35:00 19.2 C 96 % 18.55 C
3849 23-07-2016 08:40:00 19.3 C 95 % 18.48 C
3850 23-07-2016 08:45:00 19.4 C 96 % 18.75 C
Sensor: Nr:Datum:Temp:Feuchte:Taupunkt:
Aussen-T/F 3851 23-07-2016 08:50:00 19.4 C 96 % 18.75 C
3852 23-07-2016 08:55:00 19.5 C 95 % 18.68 C
3853 23-07-2016 09:00:00 19.6 C 95 % 18.78 C
3854 23-07-2016 09:05:00 19.7 C 95 % 18.88 C
3855 23-07-2016 09:10:00 19.7 C 95 % 18.88 C
3856 23-07-2016 09:15:00 19.8 C 95 % 18.98 C
3857 23-07-2016 09:20:00 19.9 C 95 % 19.07 C
3858 23-07-2016 09:25:00 19.9 C 95 % 19.07 C
3859 23-07-2016 09:30:00 20 C 95 % 19.17 C
3860 23-07-2016 09:35:00 20.1 C 95 % 19.27 C
3861 23-07-2016 09:40:00 20.1 C 95 % 19.27 C
3862 23-07-2016 09:45:00 20.1 C 94 % 19.1 C
3863 23-07-2016 09:50:00 20.1 C 94 % 19.1 C
3864 23-07-2016 09:55:00 20.1 C 94 % 19.1 C
3865 23-07-2016 10:00:00 20.3 C 94 % 19.3 C
3866 23-07-2016 10:05:00 20.4 C 94 % 19.4 C
3867 23-07-2016 10:10:00 20.4 C 93 % 19.23 C
3868 23-07-2016 10:15:00 20.5 C 93 % 19.33 C
3869 23-07-2016 10:20:00 20.6 C 93 % 19.43 C
3870 23-07-2016 10:25:00 20.7 C 93 % 19.53 C
3871 23-07-2016 10:30:00 20.7 C 92 % 19.35 C
3872 23-07-2016 10:35:00 20.7 C 92 % 19.35 C
3873 23-07-2016 10:40:00 20.7 C 91 % 19.18 C
3874 23-07-2016 10:45:00 20.8 C 92 % 19.45 C
3875 23-07-2016 10:50:00 20.8 C 92 % 19.45 C
Sensor: Nr:Datum:Temp:Feuchte:Taupunkt:
Aussen-T/F